<?xml version="1.0" encoding="UTF-8" standalone="no" ?>
<gpx xmlns="http://www.topografix.com/GPX/1/1" xmlns:xsi="http://www.w3.org/2001/XMLSchema-instance" xsi:schemaLocation="http://www.topografix.com/GPX/1/1 http://www.topografix.com/GPX/1/1/gpx.xsd" version="1.1" creator="VisuGPX - https://www.visugpx.com">
  <metadata>
    <name>Mauresque VTT 2012 - 31km</name>
    <desc><![CDATA[parcours réalisé le 6 mai 2012
organisé par le Vélo Club Vidaubannais
Vidauban]]></desc>
  </metadata>
  <trk>
    <name><![CDATA[ACTIVE LOG]]></name>
    <trkseg>
      <trkpt lat="43.42735" lon="6.44556">
        <ele>1292.1494141</ele>
        <time>2012-05-06T06:29:45Z</time>
      </trkpt>
      <trkpt lat="43.42735" lon="6.44556">
        <ele>1291.668457</ele>
        <time>2012-05-06T06:30:05Z</time>
      </trkpt>
      <trkpt lat="43.42714" lon="6.44539">
        <ele>1291.1877441</ele>
        <time>2012-05-06T06:30:16Z</time>
      </trkpt>
      <trkpt lat="43.42692" lon="6.44549">
        <ele>1292.1494141</ele>
        <time>2012-05-06T06:30:27Z</time>
      </trkpt>
      <trkpt lat="43.42675" lon="6.44591">
        <ele>1293.5913086</ele>
        <time>2012-05-06T06:30:40Z</time>
      </trkpt>
      <trkpt lat="43.4265" lon="6.44649">
        <ele>1295.513916</ele>
        <time>2012-05-06T06:30:56Z</time>
      </trkpt>
      <trkpt lat="43.42628" lon="6.44667">
        <ele>1295.513916</ele>
        <time>2012-05-06T06:31:04Z</time>
      </trkpt>
      <trkpt lat="43.42616" lon="6.4467">
        <ele>1295.513916</ele>
        <time>2012-05-06T06:31:07Z</time>
      </trkpt>
      <trkpt lat="43.42583" lon="6.44667">
        <ele>1291.668457</ele>
        <time>2012-05-06T06:31:13Z</time>
      </trkpt>
      <trkpt lat="43.42567" lon="6.44666">
        <ele>1290.2265625</ele>
        <time>2012-05-06T06:31:15Z</time>
      </trkpt>
      <trkpt lat="43.42542" lon="6.44672">
        <ele>1288.3039551</ele>
        <time>2012-05-06T06:31:18Z</time>
      </trkpt>
      <trkpt lat="43.42534" lon="6.44677">
        <ele>1287.8232422</ele>
        <time>2012-05-06T06:31:19Z</time>
      </trkpt>
      <trkpt lat="43.42504" lon="6.44688">
        <ele>1290.2265625</ele>
        <time>2012-05-06T06:31:24Z</time>
      </trkpt>
      <trkpt lat="43.4249" lon="6.44692">
        <ele>1291.668457</ele>
        <time>2012-05-06T06:31:27Z</time>
      </trkpt>
      <trkpt lat="43.42485" lon="6.44695">
        <ele>1292.1494141</ele>
        <time>2012-05-06T06:31:28Z</time>
      </trkpt>
      <trkpt lat="43.42454" lon="6.44707">
        <ele>1294.0720215</ele>
        <time>2012-05-06T06:31:36Z</time>
      </trkpt>
      <trkpt lat="43.42421" lon="6.44694">
        <ele>1297.4365234</ele>
        <time>2012-05-06T06:31:46Z</time>
      </trkpt>
      <trkpt lat="43.42411" lon="6.44688">
        <ele>1298.878418</ele>
        <time>2012-05-06T06:31:50Z</time>
      </trkpt>
      <trkpt lat="43.42397" lon="6.44698">
        <ele>1301.2817383</ele>
        <time>2012-05-06T06:31:56Z</time>
      </trkpt>
      <trkpt lat="43.42394" lon="6.44705">
        <ele>1301.7624512</ele>
        <time>2012-05-06T06:31:58Z</time>
      </trkpt>
      <trkpt lat="43.4236" lon="6.44763">
        <ele>1302.7236328</ele>
        <time>2012-05-06T06:32:14Z</time>
      </trkpt>
      <trkpt lat="43.42324" lon="6.44821">
        <ele>1304.6462402</ele>
        <time>2012-05-06T06:32:29Z</time>
      </trkpt>
      <trkpt lat="43.42296" lon="6.44867">
        <ele>1307.0495605</ele>
        <time>2012-05-06T06:32:43Z</time>
      </trkpt>
      <trkpt lat="43.42264" lon="6.44924">
        <ele>1309.453125</ele>
        <time>2012-05-06T06:33:00Z</time>
      </trkpt>
      <trkpt lat="43.42244" lon="6.44963">
        <ele>1312.817627</ele>
        <time>2012-05-06T06:33:13Z</time>
      </trkpt>
      <trkpt lat="43.42226" lon="6.44998">
        <ele>1315.7016602</ele>
        <time>2012-05-06T06:33:27Z</time>
      </trkpt>
      <trkpt lat="43.4219" lon="6.4504">
        <ele>1317.1435547</ele>
        <time>2012-05-06T06:33:45Z</time>
      </trkpt>
      <trkpt lat="43.42164" lon="6.45085">
        <ele>1319.546875</ele>
        <time>2012-05-06T06:34:02Z</time>
      </trkpt>
      <trkpt lat="43.42148" lon="6.45111">
        <ele>1322.911377</ele>
        <time>2012-05-06T06:34:12Z</time>
      </trkpt>
      <trkpt lat="43.42133" lon="6.45133">
        <ele>1325.7954102</ele>
        <time>2012-05-06T06:34:21Z</time>
      </trkpt>
      <trkpt lat="43.42122" lon="6.45156">
        <ele>1329.1599121</ele>
        <time>2012-05-06T06:34:31Z</time>
      </trkpt>
      <trkpt lat="43.42104" lon="6.45195">
        <ele>1332.0439453</ele>
        <time>2012-05-06T06:34:47Z</time>
      </trkpt>
      <trkpt lat="43.42088" lon="6.45243">
        <ele>1334.4472656</ele>
        <time>2012-05-06T06:35:03Z</time>
      </trkpt>
      <trkpt lat="43.42091" lon="6.45301">
        <ele>1336.369873</ele>
        <time>2012-05-06T06:35:16Z</time>
      </trkpt>
      <trkpt lat="43.42094" lon="6.45325">
        <ele>1335.4084473</ele>
        <time>2012-05-06T06:35:21Z</time>
      </trkpt>
      <trkpt lat="43.42099" lon="6.45342">
        <ele>1335.4084473</ele>
        <time>2012-05-06T06:35:24Z</time>
      </trkpt>
      <trkpt lat="43.42105" lon="6.45377">
        <ele>1335.4084473</ele>
        <time>2012-05-06T06:35:30Z</time>
      </trkpt>
      <trkpt lat="43.4211" lon="6.45388">
        <ele>1335.4084473</ele>
        <time>2012-05-06T06:35:32Z</time>
      </trkpt>
      <trkpt lat="43.42116" lon="6.45405">
        <ele>1335.8891602</ele>
        <time>2012-05-06T06:35:35Z</time>
      </trkpt>
      <trkpt lat="43.42124" lon="6.45452">
        <ele>1334.4472656</ele>
        <time>2012-05-06T06:35:43Z</time>
      </trkpt>
      <trkpt lat="43.42128" lon="6.45488">
        <ele>1333.005127</ele>
        <time>2012-05-06T06:35:48Z</time>
      </trkpt>
      <trkpt lat="43.4213" lon="6.45502">
        <ele>1332.5246582</ele>
        <time>2012-05-06T06:35:50Z</time>
      </trkpt>
      <trkpt lat="43.42134" lon="6.45531">
        <ele>1331.5632324</ele>
        <time>2012-05-06T06:35:54Z</time>
      </trkpt>
      <trkpt lat="43.42135" lon="6.45561">
        <ele>1329.640625</ele>
        <time>2012-05-06T06:35:58Z</time>
      </trkpt>
      <trkpt lat="43.42134" lon="6.4558">
        <ele>1328.6794434</ele>
        <time>2012-05-06T06:36:00Z</time>
      </trkpt>
      <trkpt lat="43.42127" lon="6.45598">
        <ele>1327.7180176</ele>
        <time>2012-05-06T06:36:02Z</time>
      </trkpt>
      <trkpt lat="43.42117" lon="6.45611">
        <ele>1326.7568359</ele>
        <time>2012-05-06T06:36:04Z</time>
      </trkpt>
      <trkpt lat="43.421" lon="6.45632">
        <ele>1326.276123</ele>
        <time>2012-05-06T06:36:07Z</time>
      </trkpt>
      <trkpt lat="43.42085" lon="6.45664">
        <ele>1324.3535156</ele>
        <time>2012-05-06T06:36:11Z</time>
      </trkpt>
      <trkpt lat="43.4208" lon="6.45682">
        <ele>1323.3920898</ele>
        <time>2012-05-06T06:36:13Z</time>
      </trkpt>
      <trkpt lat="43.42077" lon="6.45694">
        <ele>1323.3920898</ele>
        <time>2012-05-06T06:36:15Z</time>
      </trkpt>
      <trkpt lat="43.42077" lon="6.45703">
        <ele>1323.3920898</ele>
        <time>2012-05-06T06:36:19Z</time>
      </trkpt>
      <trkpt lat="43.42096" lon="6.45719">
        <ele>1323.3920898</ele>
        <time>2012-05-06T06:36:31Z</time>
      </trkpt>
      <trkpt lat="43.42115" lon="6.45733">
        <ele>1323.3920898</ele>
        <time>2012-05-06T06:36:39Z</time>
      </trkpt>
      <trkpt lat="43.42116" lon="6.45777">
        <ele>1324.3535156</ele>
        <time>2012-05-06T06:36:50Z</time>
      </trkpt>
      <trkpt lat="43.42138" lon="6.45792">
        <ele>1323.3920898</ele>
        <time>2012-05-06T06:36:58Z</time>
      </trkpt>
      <trkpt lat="43.42139" lon="6.45841">
        <ele>1324.3535156</ele>
        <time>2012-05-06T06:37:11Z</time>
      </trkpt>
      <trkpt lat="43.42159" lon="6.4588">
        <ele>1325.3146973</ele>
        <time>2012-05-06T06:37:22Z</time>
      </trkpt>
      <trkpt lat="43.42168" lon="6.45902">
        <ele>1324.3535156</ele>
        <time>2012-05-06T06:37:29Z</time>
      </trkpt>
      <trkpt lat="43.42186" lon="6.45935">
        <ele>1324.3535156</ele>
        <time>2012-05-06T06:37:40Z</time>
      </trkpt>
      <trkpt lat="43.42188" lon="6.45935">
        <ele>1324.8342285</ele>
        <time>2012-05-06T06:37:47Z</time>
      </trkpt>
      <trkpt lat="43.42185" lon="6.45922">
        <ele>1323.8725586</ele>
        <time>2012-05-06T06:37:53Z</time>
      </trkpt>
      <trkpt lat="43.42179" lon="6.45913">
        <ele>1323.8725586</ele>
        <time>2012-05-06T06:37:58Z</time>
      </trkpt>
      <trkpt lat="43.42169" lon="6.45916">
        <ele>1323.3920898</ele>
        <time>2012-05-06T06:38:04Z</time>
      </trkpt>
      <trkpt lat="43.42148" lon="6.4596">
        <ele>1320.5080566</ele>
        <time>2012-05-06T06:38:15Z</time>
      </trkpt>
      <trkpt lat="43.42145" lon="6.45969">
        <ele>1319.546875</ele>
        <time>2012-05-06T06:38:17Z</time>
      </trkpt>
      <trkpt lat="43.42143" lon="6.45981">
        <ele>1318.5854492</ele>
        <time>2012-05-06T06:38:19Z</time>
      </trkpt>
      <trkpt lat="43.42142" lon="6.45998">
        <ele>1317.6240234</ele>
        <time>2012-05-06T06:38:23Z</time>
      </trkpt>
      <trkpt lat="43.42137" lon="6.46017">
        <ele>1315.2209473</ele>
        <time>2012-05-06T06:38:26Z</time>
      </trkpt>
      <trkpt lat="43.42131" lon="6.46032">
        <ele>1314.2595215</ele>
        <time>2012-05-06T06:38:28Z</time>
      </trkpt>
      <trkpt lat="43.42115" lon="6.4604">
        <ele>1312.3369141</ele>
        <time>2012-05-06T06:38:34Z</time>
      </trkpt>
      <trkpt lat="43.4211" lon="6.4603">
        <ele>1314.7402344</ele>
        <time>2012-05-06T06:38:44Z</time>
      </trkpt>
      <trkpt lat="43.4211" lon="6.4603">
        <ele>1315.2209473</ele>
        <time>2012-05-06T06:38:45Z</time>
      </trkpt>
      <trkpt lat="43.42107" lon="6.4602">
        <ele>1316.1821289</ele>
        <time>2012-05-06T06:38:50Z</time>
      </trkpt>
      <trkpt lat="43.42097" lon="6.46013">
        <ele>1312.817627</ele>
        <time>2012-05-06T06:38:54Z</time>
      </trkpt>
      <trkpt lat="43.42064" lon="6.46011">
        <ele>1311.8564453</ele>
        <time>2012-05-06T06:39:00Z</time>
      </trkpt>
      <trkpt lat="43.42059" lon="6.46021">
        <ele>1311.3757324</ele>
        <time>2012-05-06T06:39:02Z</time>
      </trkpt>
      <trkpt lat="43.42058" lon="6.46042">
        <ele>1309.9335938</ele>
        <time>2012-05-06T06:39:06Z</time>
      </trkpt>
      <trkpt lat="43.42063" lon="6.46069">
        <ele>1309.453125</ele>
        <time>2012-05-06T06:39:10Z</time>
      </trkpt>
      <trkpt lat="43.42067" lon="6.46088">
        <ele>1309.453125</ele>
        <time>2012-05-06T06:39:13Z</time>
      </trkpt>
      <trkpt lat="43.42046" lon="6.46138">
        <ele>1308.4916992</ele>
        <time>2012-05-06T06:39:22Z</time>
      </trkpt>
      <trkpt lat="43.42039" lon="6.46149">
        <ele>1308.4916992</ele>
        <time>2012-05-06T06:39:24Z</time>
      </trkpt>
      <trkpt lat="43.42035" lon="6.46161">
        <ele>1308.4916992</ele>
        <time>2012-05-06T06:39:26Z</time>
      </trkpt>
      <trkpt lat="43.42033" lon="6.46192">
        <ele>1308.4916992</ele>
        <time>2012-05-06T06:39:30Z</time>
      </trkpt>
      <trkpt lat="43.42035" lon="6.46231">
        <ele>1307.5302734</ele>
        <time>2012-05-06T06:39:35Z</time>
      </trkpt>
      <trkpt lat="43.42035" lon="6.46247">
        <ele>1305.607666</ele>
        <time>2012-05-06T06:39:37Z</time>
      </trkpt>
      <trkpt lat="43.42033" lon="6.46265">
        <ele>1303.6850586</ele>
        <time>2012-05-06T06:39:39Z</time>
      </trkpt>
      <trkpt lat="43.42052" lon="6.46294">
        <ele>1300.8010254</ele>
        <time>2012-05-06T06:39:43Z</time>
      </trkpt>
      <trkpt lat="43.4206" lon="6.46326">
        <ele>1300.8010254</ele>
        <time>2012-05-06T06:39:47Z</time>
      </trkpt>
      <trkpt lat="43.42061" lon="6.46356">
        <ele>1300.8010254</ele>
        <time>2012-05-06T06:39:51Z</time>
      </trkpt>
      <trkpt lat="43.42064" lon="6.46402">
        <ele>1299.8398438</ele>
        <time>2012-05-06T06:39:57Z</time>
      </trkpt>
      <trkpt lat="43.42056" lon="6.4643">
        <ele>1299.3591309</ele>
        <time>2012-05-06T06:40:01Z</time>
      </trkpt>
      <trkpt lat="43.42044" lon="6.46449">
        <ele>1298.3977051</ele>
        <time>2012-05-06T06:40:04Z</time>
      </trkpt>
      <trkpt lat="43.4204" lon="6.46456">
        <ele>1297.4365234</ele>
        <time>2012-05-06T06:40:05Z</time>
      </trkpt>
      <trkpt lat="43.42034" lon="6.46473">
        <ele>1296.4753418</ele>
        <time>2012-05-06T06:40:07Z</time>
      </trkpt>
      <trkpt lat="43.42034" lon="6.46491">
        <ele>1295.9946289</ele>
        <time>2012-05-06T06:40:09Z</time>
      </trkpt>
      <trkpt lat="43.42029" lon="6.46516">
        <ele>1294.5524902</ele>
        <time>2012-05-06T06:40:12Z</time>
      </trkpt>
      <trkpt lat="43.42024" lon="6.46531">
        <ele>1294.5524902</ele>
        <time>2012-05-06T06:40:14Z</time>
      </trkpt>
      <trkpt lat="43.41988" lon="6.46553">
        <ele>1293.5913086</ele>
        <time>2012-05-06T06:40:22Z</time>
      </trkpt>
      <trkpt lat="43.41971" lon="6.46547">
        <ele>1290.2265625</ele>
        <time>2012-05-06T06:40:27Z</time>
      </trkpt>
      <trkpt lat="43.41959" lon="6.46542">
        <ele>1286.3813477</ele>
        <time>2012-05-06T06:40:31Z</time>
      </trkpt>
      <trkpt lat="43.41956" lon="6.46541">
        <ele>1285.9006348</ele>
        <time>2012-05-06T06:40:32Z</time>
      </trkpt>
      <trkpt lat="43.4195" lon="6.4654">
        <ele>1284.4587402</ele>
        <time>2012-05-06T06:40:34Z</time>
      </trkpt>
      <trkpt lat="43.41936" lon="6.46528">
        <ele>1281.0942383</ele>
        <time>2012-05-06T06:40:37Z</time>
      </trkpt>
      <trkpt lat="43.41925" lon="6.4652">
        <ele>1282.5361328</ele>
        <time>2012-05-06T06:40:40Z</time>
      </trkpt>
      <trkpt lat="43.41907" lon="6.46497">
        <ele>1284.9394531</ele>
        <time>2012-05-06T06:40:47Z</time>
      </trkpt>
      <trkpt lat="43.41897" lon="6.46482">
        <ele>1286.8618164</ele>
        <time>2012-05-06T06:40:51Z</time>
      </trkpt>
      <trkpt lat="43.41891" lon="6.46467">
        <ele>1287.3425293</ele>
        <time>2012-05-06T06:40:54Z</time>
      </trkpt>
      <trkpt lat="43.41873" lon="6.46427">
        <ele>1289.2651367</ele>
        <time>2012-05-06T06:41:02Z</time>
      </trkpt>
      <trkpt lat="43.41867" lon="6.46419">
        <ele>1289.2651367</ele>
        <time>2012-05-06T06:41:04Z</time>
      </trkpt>
      <trkpt lat="43.41837" lon="6.46374">
        <ele>1291.1877441</ele>
        <time>2012-05-06T06:41:16Z</time>
      </trkpt>
      <trkpt lat="43.41819" lon="6.46341">
        <ele>1292.630127</ele>
        <time>2012-05-06T06:41:26Z</time>
      </trkpt>
      <trkpt lat="43.41804" lon="6.4633">
        <ele>1292.1494141</ele>
        <time>2012-05-06T06:41:35Z</time>
      </trkpt>
      <trkpt lat="43.41802" lon="6.46329">
        <ele>1290.7070313</ele>
        <time>2012-05-06T06:41:36Z</time>
      </trkpt>
      <trkpt lat="43.41783" lon="6.46343">
        <ele>1287.3425293</ele>
        <time>2012-05-06T06:41:41Z</time>
      </trkpt>
      <trkpt lat="43.41768" lon="6.46362">
        <ele>1287.3425293</ele>
        <time>2012-05-06T06:41:46Z</time>
      </trkpt>
      <trkpt lat="43.41763" lon="6.4637">
        <ele>1286.8618164</ele>
        <time>2012-05-06T06:41:48Z</time>
      </trkpt>
      <trkpt lat="43.41741" lon="6.46412">
        <ele>1285.9006348</ele>
        <time>2012-05-06T06:41:55Z</time>
      </trkpt>
      <trkpt lat="43.41741" lon="6.4645">
        <ele>1284.9394531</ele>
        <time>2012-05-06T06:42:00Z</time>
      </trkpt>
      <trkpt lat="43.41741" lon="6.46491">
        <ele>1284.4587402</ele>
        <time>2012-05-06T06:42:06Z</time>
      </trkpt>
      <trkpt lat="43.41747" lon="6.46511">
        <ele>1283.9780273</ele>
        <time>2012-05-06T06:42:10Z</time>
      </trkpt>
      <trkpt lat="43.41756" lon="6.46525">
        <ele>1282.5361328</ele>
        <time>2012-05-06T06:42:13Z</time>
      </trkpt>
      <trkpt lat="43.41779" lon="6.46536">
        <ele>1283.9780273</ele>
        <time>2012-05-06T06:42:19Z</time>
      </trkpt>
      <trkpt lat="43.41784" lon="6.4654">
        <ele>1284.9394531</ele>
        <time>2012-05-06T06:42:21Z</time>
      </trkpt>
      <trkpt lat="43.41792" lon="6.46549">
        <ele>1283.4973145</ele>
        <time>2012-05-06T06:42:24Z</time>
      </trkpt>
      <trkpt lat="43.41792" lon="6.46562">
        <ele>1280.6135254</ele>
        <time>2012-05-06T06:42:28Z</time>
      </trkpt>
      <trkpt lat="43.41794" lon="6.46583">
        <ele>1276.7683105</ele>
        <time>2012-05-06T06:42:33Z</time>
      </trkpt>
      <trkpt lat="43.41798" lon="6.46586">
        <ele>1276.7683105</ele>
        <time>2012-05-06T06:42:34Z</time>
      </trkpt>
      <trkpt lat="43.4181" lon="6.46583">
        <ele>1274.3647461</ele>
        <time>2012-05-06T06:42:38Z</time>
      </trkpt>
      <trkpt lat="43.41814" lon="6.46585">
        <ele>1273.4035645</ele>
        <time>2012-05-06T06:42:40Z</time>
      </trkpt>
      <trkpt lat="43.41836" lon="6.46604">
        <ele>1276.7683105</ele>
        <time>2012-05-06T06:42:49Z</time>
      </trkpt>
      <trkpt lat="43.41849" lon="6.46611">
        <ele>1278.690918</ele>
        <time>2012-05-06T06:42:54Z</time>
      </trkpt>
      <trkpt lat="43.41859" lon="6.46616">
        <ele>1280.6135254</ele>
        <time>2012-05-06T06:42:58Z</time>
      </trkpt>
      <trkpt lat="43.41877" lon="6.46628">
        <ele>1283.4973145</ele>
        <time>2012-05-06T06:43:06Z</time>
      </trkpt>
      <trkpt lat="43.41899" lon="6.46646">
        <ele>1282.5361328</ele>
        <time>2012-05-06T06:43:17Z</time>
      </trkpt>
      <trkpt lat="43.41907" lon="6.46643">
        <ele>1278.690918</ele>
        <time>2012-05-06T06:43:22Z</time>
      </trkpt>
      <trkpt lat="43.41916" lon="6.46643">
        <ele>1275.3259277</ele>
        <time>2012-05-06T06:43:24Z</time>
      </trkpt>
      <trkpt lat="43.41937" lon="6.4664">
        <ele>1279.6520996</ele>
        <time>2012-05-06T06:43:29Z</time>
      </trkpt>
      <trkpt lat="43.4194" lon="6.4664">
        <ele>1279.6520996</ele>
        <time>2012-05-06T06:43:31Z</time>
      </trkpt>
      <trkpt lat="43.4195" lon="6.46651">
        <ele>1278.690918</ele>
        <time>2012-05-06T06:43:35Z</time>
      </trkpt>
      <trkpt lat="43.41972" lon="6.46681">
        <ele>1278.2102051</ele>
        <time>2012-05-06T06:43:44Z</time>
      </trkpt>
      <trkpt lat="43.41975" lon="6.46684">
        <ele>1278.2102051</ele>
        <time>2012-05-06T06:43:45Z</time>
      </trkpt>
      <trkpt lat="43.42006" lon="6.46703">
        <ele>1278.690918</ele>
        <time>2012-05-06T06:43:53Z</time>
      </trkpt>
      <trkpt lat="43.42012" lon="6.46724">
        <ele>1275.3259277</ele>
        <time>2012-05-06T06:43:57Z</time>
      </trkpt>
      <trkpt lat="43.42006" lon="6.46736">
        <ele>1273.8840332</ele>
        <time>2012-05-06T06:43:59Z</time>
      </trkpt>
      <trkpt lat="43.41989" lon="6.46766">
        <ele>1269.0776367</ele>
        <time>2012-05-06T06:44:04Z</time>
      </trkpt>
      <trkpt lat="43.41984" lon="6.46792">
        <ele>1267.1550293</ele>
        <time>2012-05-06T06:44:10Z</time>
      </trkpt>
      <trkpt lat="43.41983" lon="6.4681">
        <ele>1263.7902832</ele>
        <time>2012-05-06T06:44:15Z</time>
      </trkpt>
      <trkpt lat="43.41989" lon="6.46816">
        <ele>1259.9448242</ele>
        <time>2012-05-06T06:44:17Z</time>
      </trkpt>
      <trkpt lat="43.41995" lon="6.4682">
        <ele>1258.5029297</ele>
        <time>2012-05-06T06:44:18Z</time>
      </trkpt>
      <trkpt lat="43.42015" lon="6.46827">
        <ele>1260.4257813</ele>
        <time>2012-05-06T06:44:22Z</time>
      </trkpt>
      <trkpt lat="43.42024" lon="6.46814">
        <ele>1262.8291016</ele>
        <time>2012-05-06T06:44:27Z</time>
      </trkpt>
      <trkpt lat="43.42025" lon="6.46809">
        <ele>1263.3098145</ele>
        <time>2012-05-06T06:44:29Z</time>
      </trkpt>
      <trkpt lat="43.42029" lon="6.46805">
        <ele>1265.7131348</ele>
        <time>2012-05-06T06:44:40Z</time>
      </trkpt>
      <trkpt lat="43.42036" lon="6.46804">
        <ele>1266.6743164</ele>
        <time>2012-05-06T06:44:48Z</time>
      </trkpt>
      <trkpt lat="43.42061" lon="6.4681">
        <ele>1268.1162109</ele>
        <time>2012-05-06T06:45:00Z</time>
      </trkpt>
      <trkpt lat="43.42069" lon="6.46806">
        <ele>1269.5583496</ele>
        <time>2012-05-06T06:45:04Z</time>
      </trkpt>
      <trkpt lat="43.42088" lon="6.46813">
        <ele>1272.4421387</ele>
        <time>2012-05-06T06:45:15Z</time>
      </trkpt>
      <trkpt lat="43.421" lon="6.46811">
        <ele>1275.8066406</ele>
        <time>2012-05-06T06:45:25Z</time>
      </trkpt>
      <trkpt lat="43.42103" lon="6.4681">
        <ele>1276.2875977</ele>
        <time>2012-05-06T06:45:28Z</time>
      </trkpt>
      <trkpt lat="43.42122" lon="6.46809">
        <ele>1275.8066406</ele>
        <time>2012-05-06T06:45:36Z</time>
      </trkpt>
      <trkpt lat="43.42147" lon="6.46811">
        <ele>1279.1713867</ele>
        <time>2012-05-06T06:45:45Z</time>
      </trkpt>
      <trkpt lat="43.42166" lon="6.46822">
        <ele>1279.1713867</ele>
        <time>2012-05-06T06:45:53Z</time>
      </trkpt>
      <trkpt lat="43.42175" lon="6.46826">
        <ele>1276.2875977</ele>
        <time>2012-05-06T06:45:55Z</time>
      </trkpt>
      <trkpt lat="43.42201" lon="6.46832">
        <ele>1278.690918</ele>
        <time>2012-05-06T06:46:01Z</time>
      </trkpt>
      <trkpt lat="43.42197" lon="6.46858">
        <ele>1277.2490234</ele>
        <time>2012-05-06T06:46:10Z</time>
      </trkpt>
      <trkpt lat="43.42188" lon="6.46914">
        <ele>1275.8066406</ele>
        <time>2012-05-06T06:46:20Z</time>
      </trkpt>
      <trkpt lat="43.42185" lon="6.46926">
        <ele>1275.3259277</ele>
        <time>2012-05-06T06:46:22Z</time>
      </trkpt>
      <trkpt lat="43.42182" lon="6.46955">
        <ele>1272.9228516</ele>
        <time>2012-05-06T06:46:26Z</time>
      </trkpt>
      <trkpt lat="43.42165" lon="6.46999">
        <ele>1271.4807129</ele>
        <time>2012-05-06T06:46:32Z</time>
      </trkpt>
      <trkpt lat="43.42149" lon="6.47024">
        <ele>1270.5195313</ele>
        <time>2012-05-06T06:46:36Z</time>
      </trkpt>
      <trkpt lat="43.42108" lon="6.47042">
        <ele>1269.5583496</ele>
        <time>2012-05-06T06:46:44Z</time>
      </trkpt>
      <trkpt lat="43.42092" lon="6.47054">
        <ele>1268.1162109</ele>
        <time>2012-05-06T06:46:48Z</time>
      </trkpt>
      <trkpt lat="43.42069" lon="6.47074">
        <ele>1266.1936035</ele>
        <time>2012-05-06T06:46:53Z</time>
      </trkpt>
      <trkpt lat="43.42056" lon="6.47083">
        <ele>1264.751709</ele>
        <time>2012-05-06T06:46:55Z</time>
      </trkpt>
      <trkpt lat="43.42046" lon="6.47095">
        <ele>1263.7902832</ele>
        <time>2012-05-06T06:46:57Z</time>
      </trkpt>
      <trkpt lat="43.42015" lon="6.47129">
        <ele>1259.9448242</ele>
        <time>2012-05-06T06:47:06Z</time>
      </trkpt>
      <trkpt lat="43.42011" lon="6.47134">
        <ele>1260.4257813</ele>
        <time>2012-05-06T06:47:07Z</time>
      </trkpt>
      <trkpt lat="43.42013" lon="6.47142">
        <ele>1261.387207</ele>
        <time>2012-05-06T06:47:11Z</time>
      </trkpt>
      <trkpt lat="43.4206" lon="6.47131">
        <ele>1262.3483887</ele>
        <time>2012-05-06T06:47:25Z</time>
      </trkpt>
      <trkpt lat="43.42109" lon="6.47079">
        <ele>1265.2324219</ele>
        <time>2012-05-06T06:47:41Z</time>
      </trkpt>
      <trkpt lat="43.42157" lon="6.47039">
        <ele>1266.6743164</ele>
        <time>2012-05-06T06:47:56Z</time>
      </trkpt>
      <trkpt lat="43.42181" lon="6.47018">
        <ele>1266.1936035</ele>
        <time>2012-05-06T06:48:03Z</time>
      </trkpt>
      <trkpt lat="43.42212" lon="6.46997">
        <ele>1268.1162109</ele>
        <time>2012-05-06T06:48:12Z</time>
      </trkpt>
      <trkpt lat="43.42215" lon="6.46992">
        <ele>1269.0776367</ele>
        <time>2012-05-06T06:48:14Z</time>
      </trkpt>
      <trkpt lat="43.42222" lon="6.4697">
        <ele>1271.0002441</ele>
        <time>2012-05-06T06:48:21Z</time>
      </trkpt>
      <trkpt lat="43.42247" lon="6.46952">
        <ele>1273.8840332</ele>
        <time>2012-05-06T06:48:33Z</time>
      </trkpt>
      <trkpt lat="43.42277" lon="6.46919">
        <ele>1276.7683105</ele>
        <time>2012-05-06T06:48:48Z</time>
      </trkpt>
      <trkpt lat="43.42291" lon="6.46903">
        <ele>1278.690918</ele>
        <time>2012-05-06T06:48:55Z</time>
      </trkpt>
      <trkpt lat="43.42302" lon="6.46894">
        <ele>1280.1328125</ele>
        <time>2012-05-06T06:49:01Z</time>
      </trkpt>
      <trkpt lat="43.42322" lon="6.46874">
        <ele>1280.1328125</ele>
        <time>2012-05-06T06:49:11Z</time>
      </trkpt>
      <trkpt lat="43.42351" lon="6.46868">
        <ele>1278.2102051</ele>
        <time>2012-05-06T06:49:18Z</time>
      </trkpt>
      <trkpt lat="43.42418" lon="6.4687">
        <ele>1278.2102051</ele>
        <time>2012-05-06T06:49:33Z</time>
      </trkpt>
      <trkpt lat="43.42433" lon="6.46873">
        <ele>1278.2102051</ele>
        <time>2012-05-06T06:49:36Z</time>
      </trkpt>
      <trkpt lat="43.42447" lon="6.46874">
        <ele>1278.2102051</ele>
        <time>2012-05-06T06:49:39Z</time>
      </trkpt>
      <trkpt lat="43.42465" lon="6.46872">
        <ele>1278.690918</ele>
        <time>2012-05-06T06:49:43Z</time>
      </trkpt>
      <trkpt lat="43.42519" lon="6.46867">
        <ele>1281.574707</ele>
        <time>2012-05-06T06:49:57Z</time>
      </trkpt>
      <trkpt lat="43.42555" lon="6.4688">
        <ele>1284.4587402</ele>
        <time>2012-05-06T06:50:09Z</time>
      </trkpt>
      <trkpt lat="43.42562" lon="6.4693">
        <ele>1286.3813477</ele>
        <time>2012-05-06T06:50:20Z</time>
      </trkpt>
      <trkpt lat="43.42578" lon="6.46939">
        <ele>1284.9394531</ele>
        <time>2012-05-06T06:50:25Z</time>
      </trkpt>
      <trkpt lat="43.42604" lon="6.46933">
        <ele>1283.0166016</ele>
        <time>2012-05-06T06:50:30Z</time>
      </trkpt>
      <trkpt lat="43.42636" lon="6.46924">
        <ele>1279.1713867</ele>
        <time>2012-05-06T06:50:35Z</time>
      </trkpt>
      <trkpt lat="43.42672" lon="6.46916">
        <ele>1276.2875977</ele>
        <time>2012-05-06T06:50:40Z</time>
      </trkpt>
      <trkpt lat="43.42686" lon="6.4694">
        <ele>1276.7683105</ele>
        <time>2012-05-06T06:50:46Z</time>
      </trkpt>
      <trkpt lat="43.42686" lon="6.46964">
        <ele>1277.2490234</ele>
        <time>2012-05-06T06:50:50Z</time>
      </trkpt>
      <trkpt lat="43.42685" lon="6.46999">
        <ele>1277.7294922</ele>
        <time>2012-05-06T06:50:56Z</time>
      </trkpt>
      <trkpt lat="43.42682" lon="6.47033">
        <ele>1278.690918</ele>
        <time>2012-05-06T06:51:02Z</time>
      </trkpt>
      <trkpt lat="43.42671" lon="6.47053">
        <ele>1278.2102051</ele>
        <time>2012-05-06T06:51:06Z</time>
      </trkpt>
      <trkpt lat="43.42664" lon="6.47061">
        <ele>1277.7294922</ele>
        <time>2012-05-06T06:51:08Z</time>
      </trkpt>
      <trkpt lat="43.4264" lon="6.47074">
        <ele>1277.7294922</ele>
        <time>2012-05-06T06:51:13Z</time>
      </trkpt>
      <trkpt lat="43.42621" lon="6.4711">
        <ele>1277.7294922</ele>
        <time>2012-05-06T06:51:20Z</time>
      </trkpt>
      <trkpt lat="43.42618" lon="6.4717">
        <ele>1281.0942383</ele>
        <time>2012-05-06T06:51:32Z</time>
      </trkpt>
      <trkpt lat="43.426" lon="6.47223">
        <ele>1283.9780273</ele>
        <time>2012-05-06T06:51:44Z</time>
      </trkpt>
      <trkpt lat="43.42596" lon="6.47245">
        <ele>1284.9394531</ele>
        <time>2012-05-06T06:51:49Z</time>
      </trkpt>
      <trkpt lat="43.42617" lon="6.47246">
        <ele>1285.9006348</ele>
        <time>2012-05-06T06:51:57Z</time>
      </trkpt>
      <trkpt lat="43.4263" lon="6.47248">
        <ele>1285.9006348</ele>
        <time>2012-05-06T06:52:01Z</time>
      </trkpt>
      <trkpt lat="43.42639" lon="6.47295">
        <ele>1288.784668</ele>
        <time>2012-05-06T06:52:11Z</time>
      </trkpt>
      <trkpt lat="43.42662" lon="6.47324">
        <ele>1289.2651367</ele>
        <time>2012-05-06T06:52:22Z</time>
      </trkpt>
      <trkpt lat="43.42683" lon="6.47338">
        <ele>1291.1877441</ele>
        <time>2012-05-06T06:52:32Z</time>
      </trkpt>
      <trkpt lat="43.42683" lon="6.47337">
        <ele>1291.668457</ele>
        <time>2012-05-06T06:54:32Z</time>
      </trkpt>
      <trkpt lat="43.42701" lon="6.47365">
        <ele>1293.1105957</ele>
        <time>2012-05-06T06:54:43Z</time>
      </trkpt>
      <trkpt lat="43.42727" lon="6.47399">
        <ele>1296.4753418</ele>
        <time>2012-05-06T06:54:56Z</time>
      </trkpt>
      <trkpt lat="43.4274" lon="6.47419">
        <ele>1299.8398438</ele>
        <time>2012-05-06T06:55:04Z</time>
      </trkpt>
      <trkpt lat="43.42752" lon="6.47448">
        <ele>1302.7236328</ele>
        <time>2012-05-06T06:55:14Z</time>
      </trkpt>
      <trkpt lat="43.42773" lon="6.47467">
        <ele>1306.0881348</ele>
        <time>2012-05-06T06:55:26Z</time>
      </trkpt>
      <trkpt lat="43.42797" lon="6.47473">
        <ele>1308.9724121</ele>
        <time>2012-05-06T06:55:38Z</time>
      </trkpt>
      <trkpt lat="43.42821" lon="6.47469">
        <ele>1312.3369141</ele>
        <time>2012-05-06T06:55:51Z</time>
      </trkpt>
      <trkpt lat="43.42832" lon="6.47469">
        <ele>1313.2983398</ele>
        <time>2012-05-06T06:55:57Z</time>
      </trkpt>
      <trkpt lat="43.4285" lon="6.47465">
        <ele>1314.7402344</ele>
        <time>2012-05-06T06:56:06Z</time>
      </trkpt>
      <trkpt lat="43.4288" lon="6.47467">
        <ele>1316.6628418</ele>
        <time>2012-05-06T06:56:20Z</time>
      </trkpt>
      <trkpt lat="43.42887" lon="6.47437">
        <ele>1317.1435547</ele>
        <time>2012-05-06T06:56:31Z</time>
      </trkpt>
      <trkpt lat="43.42887" lon="6.4741">
        <ele>1320.0273438</ele>
        <time>2012-05-06T06:56:45Z</time>
      </trkpt>
      <trkpt lat="43.42907" lon="6.47395">
        <ele>1321.4692383</ele>
        <time>2012-05-06T06:57:01Z</time>
      </trkpt>
      <trkpt lat="43.42916" lon="6.4736">
        <ele>1320.9887695</ele>
        <time>2012-05-06T06:57:10Z</time>
      </trkpt>
      <trkpt lat="43.42933" lon="6.47306">
        <ele>1321.4692383</ele>
        <time>2012-05-06T06:57:23Z</time>
      </trkpt>
      <trkpt lat="43.42957" lon="6.47245">
        <ele>1321.9499512</ele>
        <time>2012-05-06T06:57:37Z</time>
      </trkpt>
      <trkpt lat="43.42982" lon="6.47207">
        <ele>1324.3535156</ele>
        <time>2012-05-06T06:57:49Z</time>
      </trkpt>
      <trkpt lat="43.43008" lon="6.47164">
        <ele>1325.7954102</ele>
        <time>2012-05-06T06:58:02Z</time>
      </trkpt>
      <trkpt lat="43.43033" lon="6.4713">
        <ele>1326.276123</ele>
        <time>2012-05-06T06:58:13Z</time>
      </trkpt>
      <trkpt lat="43.43061" lon="6.47082">
        <ele>1327.7180176</ele>
        <time>2012-05-06T06:58:25Z</time>
      </trkpt>
      <trkpt lat="43.43099" lon="6.47071">
        <ele>1328.1987305</ele>
        <time>2012-05-06T06:58:37Z</time>
      </trkpt>
      <trkpt lat="43.43112" lon="6.47066">
        <ele>1327.7180176</ele>
        <time>2012-05-06T06:58:41Z</time>
      </trkpt>
      <trkpt lat="43.43151" lon="6.47034">
        <ele>1327.7180176</ele>
        <time>2012-05-06T06:58:52Z</time>
      </trkpt>
      <trkpt lat="43.43172" lon="6.47033">
        <ele>1327.2375488</ele>
        <time>2012-05-06T06:58:58Z</time>
      </trkpt>
      <trkpt lat="43.43202" lon="6.47021">
        <ele>1327.7180176</ele>
        <time>2012-05-06T06:59:06Z</time>
      </trkpt>
      <trkpt lat="43.43241" lon="6.47043">
        <ele>1329.1599121</ele>
        <time>2012-05-06T06:59:18Z</time>
      </trkpt>
      <trkpt lat="43.43265" lon="6.47063">
        <ele>1330.1213379</ele>
        <time>2012-05-06T06:59:27Z</time>
      </trkpt>
      <trkpt lat="43.43268" lon="6.47062">
        <ele>1330.1213379</ele>
        <time>2012-05-06T06:59:44Z</time>
      </trkpt>
      <trkpt lat="43.43268" lon="6.47062">
        <ele>1328.6794434</ele>
        <time>2012-05-06T06:59:48Z</time>
      </trkpt>
      <trkpt lat="43.43261" lon="6.4705">
        <ele>1323.8725586</ele>
        <time>2012-05-06T06:59:51Z</time>
      </trkpt>
      <trkpt lat="43.43259" lon="6.47029">
        <ele>1320.0273438</ele>
        <time>2012-05-06T06:59:55Z</time>
      </trkpt>
      <trkpt lat="43.43263" lon="6.47022">
        <ele>1318.1047363</ele>
        <time>2012-05-06T06:59:57Z</time>
      </trkpt>
      <trkpt lat="43.4327" lon="6.47016">
        <ele>1316.1821289</ele>
        <time>2012-05-06T06:59:59Z</time>
      </trkpt>
      <trkpt lat="43.43276" lon="6.47001">
        <ele>1313.2983398</ele>
        <time>2012-05-06T07:00:02Z</time>
      </trkpt>
      <trkpt lat="43.43278" lon="6.46976">
        <ele>1310.4143066</ele>
        <time>2012-05-06T07:00:07Z</time>
      </trkpt>
      <trkpt lat="43.43284" lon="6.46961">
        <ele>1307.0495605</ele>
        <time>2012-05-06T07:00:09Z</time>
      </trkpt>
      <trkpt lat="43.43285" lon="6.46949">
        <ele>1306.5688477</ele>
        <time>2012-05-06T07:00:11Z</time>
      </trkpt>
      <trkpt lat="43.43264" lon="6.46948">
        <ele>1305.1269531</ele>
        <time>2012-05-06T07:00:19Z</time>
      </trkpt>
      <trkpt lat="43.43264" lon="6.46945">
        <ele>1303.6850586</ele>
        <time>2012-05-06T07:00:20Z</time>
      </trkpt>
      <trkpt lat="43.43268" lon="6.46934">
        <ele>1302.2429199</ele>
        <time>2012-05-06T07:00:22Z</time>
      </trkpt>
      <trkpt lat="43.43283" lon="6.46908">
        <ele>1297.9172363</ele>
        <time>2012-05-06T07:00:27Z</time>
      </trkpt>
      <trkpt lat="43.43288" lon="6.46905">
        <ele>1297.4365234</ele>
        <time>2012-05-06T07:00:28Z</time>
      </trkpt>
      <trkpt lat="43.43285" lon="6.46889">
        <ele>1293.5913086</ele>
        <time>2012-05-06T07:00:34Z</time>
      </trkpt>
      <trkpt lat="43.43276" lon="6.46889">
        <ele>1293.1105957</ele>
        <time>2012-05-06T07:00:36Z</time>
      </trkpt>
      <trkpt lat="43.43263" lon="6.46885">
        <ele>1291.668457</ele>
        <time>2012-05-06T07:00:39Z</time>
      </trkpt>
      <trkpt lat="43.43262" lon="6.46882">
        <ele>1291.1877441</ele>
        <time>2012-05-06T07:00:42Z</time>
      </trkpt>
      <trkpt lat="43.43257" lon="6.46863">
        <ele>1285.9006348</ele>
        <time>2012-05-06T07:00:46Z</time>
      </trkpt>
      <trkpt lat="43.43256" lon="6.46857">
        <ele>1284.9394531</ele>
        <time>2012-05-06T07:00:47Z</time>
      </trkpt>
      <trkpt lat="43.43254" lon="6.46822">
        <ele>1280.1328125</ele>
        <time>2012-05-06T07:00:54Z</time>
      </trkpt>
      <trkpt lat="43.43262" lon="6.46824">
        <ele>1280.1328125</ele>
        <time>2012-05-06T07:00:57Z</time>
      </trkpt>
      <trkpt lat="43.43287" lon="6.46818">
        <ele>1278.2102051</ele>
        <time>2012-05-06T07:01:05Z</time>
      </trkpt>
      <trkpt lat="43.433" lon="6.46818">
        <ele>1276.2875977</ele>
        <time>2012-05-06T07:01:08Z</time>
      </trkpt>
      <trkpt lat="43.43327" lon="6.46801">
        <ele>1274.3647461</ele>
        <time>2012-05-06T07:01:15Z</time>
      </trkpt>
      <trkpt lat="43.43369" lon="6.46821">
        <ele>1276.7683105</ele>
        <time>2012-05-06T07:01:27Z</time>
      </trkpt>
      <trkpt lat="43.43415" lon="6.46827">
        <ele>1279.1713867</ele>
        <time>2012-05-06T07:01:41Z</time>
      </trkpt>
      <trkpt lat="43.4344" lon="6.46818">
        <ele>1278.2102051</ele>
        <time>2012-05-06T07:01:48Z</time>
      </trkpt>
      <trkpt lat="43.43452" lon="6.46813">
        <ele>1277.7294922</ele>
        <time>2012-05-06T07:01:51Z</time>
      </trkpt>
      <trkpt lat="43.43466" lon="6.46815">
        <ele>1279.6520996</ele>
        <time>2012-05-06T07:01:55Z</time>
      </trkpt>
      <trkpt lat="43.43468" lon="6.46814">
        <ele>1279.6520996</ele>
        <time>2012-05-06T07:01:56Z</time>
      </trkpt>
      <trkpt lat="43.43497" lon="6.46804">
        <ele>1282.0554199</ele>
        <time>2012-05-06T07:02:08Z</time>
      </trkpt>
      <trkpt lat="43.43499" lon="6.46804">
        <ele>1282.0554199</ele>
        <time>2012-05-06T07:02:09Z</time>
      </trkpt>
      <trkpt lat="43.43529" lon="6.46811">
        <ele>1284.4587402</ele>
        <time>2012-05-06T07:02:23Z</time>
      </trkpt>
      <trkpt lat="43.43552" lon="6.46826">
        <ele>1282.5361328</ele>
        <time>2012-05-06T07:02:33Z</time>
      </trkpt>
      <trkpt lat="43.43571" lon="6.46846">
        <ele>1281.0942383</ele>
        <time>2012-05-06T07:02:37Z</time>
      </trkpt>
      <trkpt lat="43.43577" lon="6.4685">
        <ele>1282.0554199</ele>
        <time>2012-05-06T07:02:39Z</time>
      </trkpt>
      <trkpt lat="43.43583" lon="6.46857">
        <ele>1283.0166016</ele>
        <time>2012-05-06T07:02:43Z</time>
      </trkpt>
      <trkpt lat="43.43595" lon="6.46865">
        <ele>1284.4587402</ele>
        <time>2012-05-06T07:02:53Z</time>
      </trkpt>
      <trkpt lat="43.43607" lon="6.46873">
        <ele>1287.3425293</ele>
        <time>2012-05-06T07:03:06Z</time>
      </trkpt>
      <trkpt lat="43.4361" lon="6.46876">
        <ele>1288.784668</ele>
        <time>2012-05-06T07:03:11Z</time>
      </trkpt>
      <trkpt lat="43.4362" lon="6.4689">
        <ele>1291.668457</ele>
        <time>2012-05-06T07:03:25Z</time>
      </trkpt>
      <trkpt lat="43.43623" lon="6.46894">
        <ele>1292.1494141</ele>
        <time>2012-05-06T07:03:30Z</time>
      </trkpt>
      <trkpt lat="43.43626" lon="6.46912">
        <ele>1292.1494141</ele>
        <time>2012-05-06T07:03:40Z</time>
      </trkpt>
      <trkpt lat="43.43605" lon="6.46923">
        <ele>1295.513916</ele>
        <time>2012-05-06T07:03:51Z</time>
      </trkpt>
      <trkpt lat="43.43587" lon="6.46935">
        <ele>1298.3977051</ele>
        <time>2012-05-06T07:04:03Z</time>
      </trkpt>
      <trkpt lat="43.4358" lon="6.46938">
        <ele>1299.8398438</ele>
        <time>2012-05-06T07:04:09Z</time>
      </trkpt>
      <trkpt lat="43.43574" lon="6.46949">
        <ele>1301.2817383</ele>
        <time>2012-05-06T07:04:20Z</time>
      </trkpt>
      <trkpt lat="43.43566" lon="6.46954">
        <ele>1303.6850586</ele>
        <time>2012-05-06T07:04:34Z</time>
      </trkpt>
      <trkpt lat="43.43561" lon="6.46963">
        <ele>1306.0881348</ele>
        <time>2012-05-06T07:04:47Z</time>
      </trkpt>
      <trkpt lat="43.43557" lon="6.46965">
        <ele>1306.5688477</ele>
        <time>2012-05-06T07:04:52Z</time>
      </trkpt>
      <trkpt lat="43.43549" lon="6.46969">
        <ele>1308.4916992</ele>
        <time>2012-05-06T07:05:01Z</time>
      </trkpt>
      <trkpt lat="43.43546" lon="6.46971">
        <ele>1308.9724121</ele>
        <time>2012-05-06T07:05:04Z</time>
      </trkpt>
      <trkpt lat="43.43543" lon="6.46973">
        <ele>1309.453125</ele>
        <time>2012-05-06T07:05:08Z</time>
      </trkpt>
      <trkpt lat="43.43535" lon="6.46987">
        <ele>1312.3369141</ele>
        <time>2012-05-06T07:05:25Z</time>
      </trkpt>
      <trkpt lat="43.43528" lon="6.46997">
        <ele>1314.2595215</ele>
        <time>2012-05-06T07:05:38Z</time>
      </trkpt>
      <trkpt lat="43.43514" lon="6.47005">
        <ele>1315.7016602</ele>
        <time>2012-05-06T07:05:52Z</time>
      </trkpt>
      <trkpt lat="43.43496" lon="6.47015">
        <ele>1317.6240234</ele>
        <time>2012-05-06T07:06:07Z</time>
      </trkpt>
      <trkpt lat="43.43494" lon="6.47017">
        <ele>1317.6240234</ele>
        <time>2012-05-06T07:06:10Z</time>
      </trkpt>
      <trkpt lat="43.43477" lon="6.47017">
        <ele>1319.546875</ele>
        <time>2012-05-06T07:06:24Z</time>
      </trkpt>
      <trkpt lat="43.43461" lon="6.47021">
        <ele>1321.9499512</ele>
        <time>2012-05-06T07:06:40Z</time>
      </trkpt>
      <trkpt lat="43.4345" lon="6.47024">
        <ele>1322.911377</ele>
        <time>2012-05-06T07:06:49Z</time>
      </trkpt>
      <trkpt lat="43.43438" lon="6.47031">
        <ele>1324.8342285</ele>
        <time>2012-05-06T07:07:02Z</time>
      </trkpt>
      <trkpt lat="43.43428" lon="6.47041">
        <ele>1325.7954102</ele>
        <time>2012-05-06T07:07:14Z</time>
      </trkpt>
      <trkpt lat="43.43394" lon="6.47072">
        <ele>1328.1987305</ele>
        <time>2012-05-06T07:07:31Z</time>
      </trkpt>
      <trkpt lat="43.43368" lon="6.47081">
        <ele>1330.1213379</ele>
        <time>2012-05-06T07:07:44Z</time>
      </trkpt>
      <trkpt lat="43.43348" lon="6.47085">
        <ele>1332.5246582</ele>
        <time>2012-05-06T07:07:54Z</time>
      </trkpt>
      <trkpt lat="43.43346" lon="6.47088">
        <ele>1333.005127</ele>
        <time>2012-05-06T07:07:56Z</time>
      </trkpt>
      <trkpt lat="43.43337" lon="6.47094">
        <ele>1334.4472656</ele>
        <time>2012-05-06T07:08:02Z</time>
      </trkpt>
      <trkpt lat="43.43323" lon="6.47108">
        <ele>1337.8117676</ele>
        <time>2012-05-06T07:08:15Z</time>
      </trkpt>
      <trkpt lat="43.43316" lon="6.47118">
        <ele>1339.734375</ele>
        <time>2012-05-06T07:08:33Z</time>
      </trkpt>
      <trkpt lat="43.43313" lon="6.47124">
        <ele>1340.6958008</ele>
        <time>2012-05-06T07:08:37Z</time>
      </trkpt>
      <trkpt lat="43.43305" lon="6.47137">
        <ele>1343.0991211</ele>
        <time>2012-05-06T07:08:51Z</time>
      </trkpt>
      <trkpt lat="43.43298" lon="6.47146">
        <ele>1345.0217285</ele>
        <time>2012-05-06T07:09:07Z</time>
      </trkpt>
      <trkpt lat="43.43293" lon="6.47149">
        <ele>1345.9831543</ele>
        <time>2012-05-06T07:09:25Z</time>
      </trkpt>
      <trkpt lat="43.43288" lon="6.47158">
        <ele>1346.9443359</ele>
        <time>2012-05-06T07:09:33Z</time>
      </trkpt>
      <trkpt lat="43.43281" lon="6.47177">
        <ele>1349.3476563</ele>
        <time>2012-05-06T07:09:47Z</time>
      </trkpt>
      <trkpt lat="43.4328" lon="6.47195">
        <ele>1351.7509766</ele>
        <time>2012-05-06T07:10:01Z</time>
      </trkpt>
      <trkpt lat="43.4328" lon="6.47198">
        <ele>1352.2314453</ele>
        <time>2012-05-06T07:10:03Z</time>
      </trkpt>
      <trkpt lat="43.4328" lon="6.47203">
        <ele>1353.1928711</ele>
        <time>2012-05-06T07:10:17Z</time>
      </trkpt>
      <trkpt lat="43.4328" lon="6.47222">
        <ele>1355.5961914</ele>
        <time>2012-05-06T07:11:10Z</time>
      </trkpt>
      <trkpt lat="43.43276" lon="6.47239">
        <ele>1358.9609375</ele>
        <time>2012-05-06T07:11:25Z</time>
      </trkpt>
      <trkpt lat="43.43274" lon="6.47251">
        <ele>1361.8449707</ele>
        <time>2012-05-06T07:11:39Z</time>
      </trkpt>
      <trkpt lat="43.43272" lon="6.47261">
        <ele>1363.2868652</ele>
        <time>2012-05-06T07:11:48Z</time>
      </trkpt>
      <trkpt lat="43.43273" lon="6.47267">
        <ele>1364.7287598</ele>
        <time>2012-05-06T07:12:02Z</time>
      </trkpt>
      <trkpt lat="43.43277" lon="6.47268">
        <ele>1364.2480469</ele>
        <time>2012-05-06T07:12:06Z</time>
      </trkpt>
      <trkpt lat="43.43281" lon="6.47267">
        <ele>1364.7287598</ele>
        <time>2012-05-06T07:12:08Z</time>
      </trkpt>
      <trkpt lat="43.43288" lon="6.4726">
        <ele>1364.7287598</ele>
        <time>2012-05-06T07:12:13Z</time>
      </trkpt>
      <trkpt lat="43.4332" lon="6.47264">
        <ele>1365.2094727</ele>
        <time>2012-05-06T07:12:25Z</time>
      </trkpt>
      <trkpt lat="43.43349" lon="6.47267">
        <ele>1363.767334</ele>
        <time>2012-05-06T07:12:33Z</time>
      </trkpt>
      <trkpt lat="43.43365" lon="6.47276">
        <ele>1362.3254395</ele>
        <time>2012-05-06T07:12:37Z</time>
      </trkpt>
      <trkpt lat="43.43387" lon="6.47268">
        <ele>1360.8835449</ele>
        <time>2012-05-06T07:12:43Z</time>
      </trkpt>
      <trkpt lat="43.43399" lon="6.47272">
        <ele>1359.4416504</ele>
        <time>2012-05-06T07:12:49Z</time>
      </trkpt>
      <trkpt lat="43.43402" lon="6.47272">
        <ele>1358.4802246</ele>
        <time>2012-05-06T07:12:51Z</time>
      </trkpt>
      <trkpt lat="43.43411" lon="6.47273">
        <ele>1354.6347656</ele>
        <time>2012-05-06T07:12:55Z</time>
      </trkpt>
      <trkpt lat="43.43421" lon="6.47279">
        <ele>1352.2314453</ele>
        <time>2012-05-06T07:13:04Z</time>
      </trkpt>
      <trkpt lat="43.43425" lon="6.47285">
        <ele>1350.309082</ele>
        <time>2012-05-06T07:13:20Z</time>
      </trkpt>
      <trkpt lat="43.43425" lon="6.47286">
        <ele>1348.8669434</ele>
        <time>2012-05-06T07:13:35Z</time>
      </trkpt>
      <trkpt lat="43.43442" lon="6.47297">
        <ele>1342.6186523</ele>
        <time>2012-05-06T07:13:40Z</time>
      </trkpt>
      <trkpt lat="43.43454" lon="6.47294">
        <ele>1339.2536621</ele>
        <time>2012-05-06T07:13:42Z</time>
      </trkpt>
      <trkpt lat="43.43479" lon="6.47293">
        <ele>1333.005127</ele>
        <time>2012-05-06T07:13:49Z</time>
      </trkpt>
      <trkpt lat="43.43478" lon="6.473">
        <ele>1331.0827637</ele>
        <time>2012-05-06T07:13:50Z</time>
      </trkpt>
      <trkpt lat="43.43477" lon="6.47318">
        <ele>1327.7180176</ele>
        <time>2012-05-06T07:13:52Z</time>
      </trkpt>
      <trkpt lat="43.43476" lon="6.47352">
        <ele>1322.4306641</ele>
        <time>2012-05-06T07:13:55Z</time>
      </trkpt>
      <trkpt lat="43.43475" lon="6.47378">
        <ele>1318.1047363</ele>
        <time>2012-05-06T07:13:57Z</time>
      </trkpt>
      <trkpt lat="43.43472" lon="6.4739">
        <ele>1317.6240234</ele>
        <time>2012-05-06T07:13:58Z</time>
      </trkpt>
      <trkpt lat="43.43475" lon="6.47438">
        <ele>1314.2595215</ele>
        <time>2012-05-06T07:14:03Z</time>
      </trkpt>
      <trkpt lat="43.43485" lon="6.47465">
        <ele>1314.2595215</ele>
        <time>2012-05-06T07:14:09Z</time>
      </trkpt>
      <trkpt lat="43.4348" lon="6.47472">
        <ele>1310.8950195</ele>
        <time>2012-05-06T07:14:13Z</time>
      </trkpt>
      <trkpt lat="43.43478" lon="6.47472">
        <ele>1310.4143066</ele>
        <time>2012-05-06T07:14:14Z</time>
      </trkpt>
      <trkpt lat="43.43471" lon="6.47471">
        <ele>1308.4916992</ele>
        <time>2012-05-06T07:14:17Z</time>
      </trkpt>
      <trkpt lat="43.43461" lon="6.47473">
        <ele>1304.6462402</ele>
        <time>2012-05-06T07:14:21Z</time>
      </trkpt>
      <trkpt lat="43.43458" lon="6.47474">
        <ele>1303.2043457</ele>
        <time>2012-05-06T07:14:24Z</time>
      </trkpt>
      <trkpt lat="43.43454" lon="6.47471">
        <ele>1302.2429199</ele>
        <time>2012-05-06T07:14:26Z</time>
      </trkpt>
      <trkpt lat="43.43452" lon="6.47467">
        <ele>1302.2429199</ele>
        <time>2012-05-06T07:14:28Z</time>
      </trkpt>
      <trkpt lat="43.43445" lon="6.47464">
        <ele>1301.2817383</ele>
        <time>2012-05-06T07:14:31Z</time>
      </trkpt>
      <trkpt lat="43.43427" lon="6.47457">
        <ele>1300.8010254</ele>
        <time>2012-05-06T07:14:40Z</time>
      </trkpt>
      <trkpt lat="43.43425" lon="6.47458">
        <ele>1300.3205566</ele>
        <time>2012-05-06T07:14:46Z</time>
      </trkpt>
      <trkpt lat="43.43423" lon="6.47483">
        <ele>1297.4365234</ele>
        <time>2012-05-06T07:14:52Z</time>
      </trkpt>
      <trkpt lat="43.43424" lon="6.47494">
        <ele>1296.4753418</ele>
        <time>2012-05-06T07:14:54Z</time>
      </trkpt>
      <trkpt lat="43.43425" lon="6.47516">
        <ele>1296.4753418</ele>
        <time>2012-05-06T07:14:57Z</time>
      </trkpt>
      <trkpt lat="43.43435" lon="6.47532">
        <ele>1294.5524902</ele>
        <time>2012-05-06T07:15:01Z</time>
      </trkpt>
      <trkpt lat="43.43446" lon="6.47554">
        <ele>1290.7070313</ele>
        <time>2012-05-06T07:15:05Z</time>
      </trkpt>
      <trkpt lat="43.43458" lon="6.47574">
        <ele>1289.2651367</ele>
        <time>2012-05-06T07:15:08Z</time>
      </trkpt>
      <trkpt lat="43.43466" lon="6.47606">
        <ele>1286.8618164</ele>
        <time>2012-05-06T07:15:12Z</time>
      </trkpt>
      <trkpt lat="43.4347" lon="6.4762">
        <ele>1285.9006348</ele>
        <time>2012-05-06T07:15:14Z</time>
      </trkpt>
      <trkpt lat="43.43482" lon="6.47638">
        <ele>1284.9394531</ele>
        <time>2012-05-06T07:15:17Z</time>
      </trkpt>
      <trkpt lat="43.43494" lon="6.47656">
        <ele>1283.0166016</ele>
        <time>2012-05-06T07:15:22Z</time>
      </trkpt>
      <trkpt lat="43.435" lon="6.4768">
        <ele>1280.6135254</ele>
        <time>2012-05-06T07:15:27Z</time>
      </trkpt>
      <trkpt lat="43.43496" lon="6.47702">
        <ele>1279.1713867</ele>
        <time>2012-05-06T07:15:32Z</time>
      </trkpt>
      <trkpt lat="43.43499" lon="6.47711">
        <ele>1278.2102051</ele>
        <time>2012-05-06T07:15:39Z</time>
      </trkpt>
      <trkpt lat="43.43504" lon="6.47713">
        <ele>1276.7683105</ele>
        <time>2012-05-06T07:15:41Z</time>
      </trkpt>
      <trkpt lat="43.4351" lon="6.4772">
        <ele>1275.8066406</ele>
        <time>2012-05-06T07:15:43Z</time>
      </trkpt>
      <trkpt lat="43.43524" lon="6.47733">
        <ele>1275.3259277</ele>
        <time>2012-05-06T07:15:48Z</time>
      </trkpt>
      <trkpt lat="43.43534" lon="6.47727">
        <ele>1273.8840332</ele>
        <time>2012-05-06T07:15:53Z</time>
      </trkpt>
      <trkpt lat="43.43546" lon="6.47736">
        <ele>1273.4035645</ele>
        <time>2012-05-06T07:15:57Z</time>
      </trkpt>
      <trkpt lat="43.4356" lon="6.47768">
        <ele>1273.8840332</ele>
        <time>2012-05-06T07:16:05Z</time>
      </trkpt>
      <trkpt lat="43.43568" lon="6.4778">
        <ele>1273.8840332</ele>
        <time>2012-05-06T07:16:09Z</time>
      </trkpt>
      <trkpt lat="43.43571" lon="6.47796">
        <ele>1273.4035645</ele>
        <time>2012-05-06T07:16:13Z</time>
      </trkpt>
      <trkpt lat="43.43572" lon="6.47843">
        <ele>1272.9228516</ele>
        <time>2012-05-06T07:16:24Z</time>
      </trkpt>
      <trkpt lat="43.43571" lon="6.47892">
        <ele>1271.4807129</ele>
        <time>2012-05-06T07:16:32Z</time>
      </trkpt>
      <trkpt lat="43.43564" lon="6.47915">
        <ele>1269.0776367</ele>
        <time>2012-05-06T07:16:37Z</time>
      </trkpt>
      <trkpt lat="43.43555" lon="6.47925">
        <ele>1267.1550293</ele>
        <time>2012-05-06T07:16:39Z</time>
      </trkpt>
      <trkpt lat="43.43546" lon="6.47952">
        <ele>1266.6743164</ele>
        <time>2012-05-06T07:16:44Z</time>
      </trkpt>
      <trkpt lat="43.43565" lon="6.47961">
        <ele>1264.751709</ele>
        <time>2012-05-06T07:16:48Z</time>
      </trkpt>
      <trkpt lat="43.43579" lon="6.47967">
        <ele>1262.3483887</ele>
        <time>2012-05-06T07:16:51Z</time>
      </trkpt>
      <trkpt lat="43.43606" lon="6.47975">
        <ele>1260.4257813</ele>
        <time>2012-05-06T07:16:56Z</time>
      </trkpt>
      <trkpt lat="43.43621" lon="6.48018">
        <ele>1263.3098145</ele>
        <time>2012-05-06T07:17:08Z</time>
      </trkpt>
      <trkpt lat="43.43606" lon="6.48042">
        <ele>1265.7131348</ele>
        <time>2012-05-06T07:17:19Z</time>
      </trkpt>
      <trkpt lat="43.43602" lon="6.48046">
        <ele>1266.1936035</ele>
        <time>2012-05-06T07:17:22Z</time>
      </trkpt>
      <trkpt lat="43.43592" lon="6.48087">
        <ele>1267.635498</ele>
        <time>2012-05-06T07:17:36Z</time>
      </trkpt>
      <trkpt lat="43.43589" lon="6.48097">
        <ele>1268.5969238</ele>
        <time>2012-05-06T07:17:39Z</time>
      </trkpt>
      <trkpt lat="43.43582" lon="6.48114">
        <ele>1269.5583496</ele>
        <time>2012-05-06T07:17:45Z</time>
      </trkpt>
      <trkpt lat="43.43587" lon="6.48152">
        <ele>1271.4807129</ele>
        <time>2012-05-06T07:17:57Z</time>
      </trkpt>
      <trkpt lat="43.43588" lon="6.48156">
        <ele>1271.9614258</ele>
        <time>2012-05-06T07:17:58Z</time>
      </trkpt>
      <trkpt lat="43.43573" lon="6.48192">
        <ele>1273.4035645</ele>
        <time>2012-05-06T07:18:11Z</time>
      </trkpt>
      <trkpt lat="43.43568" lon="6.48213">
        <ele>1274.3647461</ele>
        <time>2012-05-06T07:18:17Z</time>
      </trkpt>
      <trkpt lat="43.4356" lon="6.48239">
        <ele>1275.3259277</ele>
        <time>2012-05-06T07:18:25Z</time>
      </trkpt>
      <trkpt lat="43.43548" lon="6.48277">
        <ele>1276.7683105</ele>
        <time>2012-05-06T07:18:37Z</time>
      </trkpt>
      <trkpt lat="43.43533" lon="6.4831">
        <ele>1275.8066406</ele>
        <time>2012-05-06T07:18:45Z</time>
      </trkpt>
      <trkpt lat="43.43536" lon="6.48333">
        <ele>1275.8066406</ele>
        <time>2012-05-06T07:18:50Z</time>
      </trkpt>
      <trkpt lat="43.4355" lon="6.48375">
        <ele>1276.7683105</ele>
        <time>2012-05-06T07:19:01Z</time>
      </trkpt>
      <trkpt lat="43.43552" lon="6.48379">
        <ele>1276.7683105</ele>
        <time>2012-05-06T07:19:02Z</time>
      </trkpt>
      <trkpt lat="43.43556" lon="6.48397">
        <ele>1276.7683105</ele>
        <time>2012-05-06T07:19:07Z</time>
      </trkpt>
      <trkpt lat="43.43553" lon="6.48448">
        <ele>1276.7683105</ele>
        <time>2012-05-06T07:19:19Z</time>
      </trkpt>
      <trkpt lat="43.43554" lon="6.48453">
        <ele>1276.7683105</ele>
        <time>2012-05-06T07:19:20Z</time>
      </trkpt>
      <trkpt lat="43.43545" lon="6.48501">
        <ele>1277.2490234</ele>
        <time>2012-05-06T07:19:32Z</time>
      </trkpt>
      <trkpt lat="43.43544" lon="6.48517">
        <ele>1277.7294922</ele>
        <time>2012-05-06T07:19:36Z</time>
      </trkpt>
      <trkpt lat="43.43539" lon="6.4853">
        <ele>1278.2102051</ele>
        <time>2012-05-06T07:19:39Z</time>
      </trkpt>
      <trkpt lat="43.43517" lon="6.48562">
        <ele>1279.6520996</ele>
        <time>2012-05-06T07:19:49Z</time>
      </trkpt>
      <trkpt lat="43.4351" lon="6.48569">
        <ele>1279.6520996</ele>
        <time>2012-05-06T07:19:52Z</time>
      </trkpt>
      <trkpt lat="43.43477" lon="6.48578">
        <ele>1280.6135254</ele>
        <time>2012-05-06T07:20:03Z</time>
      </trkpt>
      <trkpt lat="43.43451" lon="6.48589">
        <ele>1279.1713867</ele>
        <time>2012-05-06T07:20:10Z</time>
      </trkpt>
      <trkpt lat="43.43452" lon="6.48615">
        <ele>1280.1328125</ele>
        <time>2012-05-06T07:20:16Z</time>
      </trkpt>
      <trkpt lat="43.4347" lon="6.48648">
        <ele>1282.5361328</ele>
        <time>2012-05-06T07:20:26Z</time>
      </trkpt>
      <trkpt lat="43.4348" lon="6.48705">
        <ele>1282.0554199</ele>
        <time>2012-05-06T07:20:38Z</time>
      </trkpt>
      <trkpt lat="43.43467" lon="6.48754">
        <ele>1283.4973145</ele>
        <time>2012-05-06T07:20:50Z</time>
      </trkpt>
      <trkpt lat="43.43435" lon="6.48759">
        <ele>1283.4973145</ele>
        <time>2012-05-06T07:21:00Z</time>
      </trkpt>
      <trkpt lat="43.43399" lon="6.48736">
        <ele>1285.4199219</ele>
        <time>2012-05-06T07:21:12Z</time>
      </trkpt>
      <trkpt lat="43.43365" lon="6.48726">
        <ele>1287.3425293</ele>
        <time>2012-05-06T07:21:23Z</time>
      </trkpt>
      <trkpt lat="43.43336" lon="6.48715">
        <ele>1289.2651367</ele>
        <time>2012-05-06T07:21:35Z</time>
      </trkpt>
      <trkpt lat="43.43332" lon="6.48712">
        <ele>1289.7458496</ele>
        <time>2012-05-06T07:21:37Z</time>
      </trkpt>
      <trkpt lat="43.43297" lon="6.4872">
        <ele>1291.668457</ele>
        <time>2012-05-06T07:21:48Z</time>
      </trkpt>
      <trkpt lat="43.43257" lon="6.48722">
        <ele>1293.1105957</ele>
        <time>2012-05-06T07:22:01Z</time>
      </trkpt>
      <trkpt lat="43.43226" lon="6.48715">
        <ele>1294.5524902</ele>
        <time>2012-05-06T07:22:14Z</time>
      </trkpt>
      <trkpt lat="43.4319" lon="6.48705">
        <ele>1295.513916</ele>
        <time>2012-05-06T07:22:28Z</time>
      </trkpt>
      <trkpt lat="43.43172" lon="6.48682">
        <ele>1297.4365234</ele>
        <time>2012-05-06T07:22:38Z</time>
      </trkpt>
      <trkpt lat="43.43145" lon="6.48675">
        <ele>1298.878418</ele>
        <time>2012-05-06T07:22:49Z</time>
      </trkpt>
      <trkpt lat="43.43124" lon="6.4865">
        <ele>1300.3205566</ele>
        <time>2012-05-06T07:23:01Z</time>
      </trkpt>
      <trkpt lat="43.43108" lon="6.4861">
        <ele>1301.2817383</ele>
        <time>2012-05-06T07:23:15Z</time>
      </trkpt>
      <trkpt lat="43.43099" lon="6.48601">
        <ele>1302.2429199</ele>
        <time>2012-05-06T07:23:21Z</time>
      </trkpt>
      <trkpt lat="43.43097" lon="6.48603">
        <ele>1302.7236328</ele>
        <time>2012-05-06T07:23:23Z</time>
      </trkpt>
      <trkpt lat="43.43096" lon="6.48619">
        <ele>1303.2043457</ele>
        <time>2012-05-06T07:23:28Z</time>
      </trkpt>
      <trkpt lat="43.43098" lon="6.48656">
        <ele>1303.6850586</ele>
        <time>2012-05-06T07:23:39Z</time>
      </trkpt>
      <trkpt lat="43.43081" lon="6.48674">
        <ele>1303.6850586</ele>
        <time>2012-05-06T07:23:48Z</time>
      </trkpt>
      <trkpt lat="43.43059" lon="6.48699">
        <ele>1303.6850586</ele>
        <time>2012-05-06T07:23:57Z</time>
      </trkpt>
      <trkpt lat="43.43045" lon="6.48701">
        <ele>1301.7624512</ele>
        <time>2012-05-06T07:24:01Z</time>
      </trkpt>
      <trkpt lat="43.43056" lon="6.48723">
        <ele>1304.1657715</ele>
        <time>2012-05-06T07:24:10Z</time>
      </trkpt>
      <trkpt lat="43.43092" lon="6.48726">
        <ele>1304.6462402</ele>
        <time>2012-05-06T07:24:23Z</time>
      </trkpt>
      <trkpt lat="43.43096" lon="6.48727">
        <ele>1304.1657715</ele>
        <time>2012-05-06T07:24:24Z</time>
      </trkpt>
      <trkpt lat="43.43139" lon="6.48757">
        <ele>1304.1657715</ele>
        <time>2012-05-06T07:24:36Z</time>
      </trkpt>
      <trkpt lat="43.43158" lon="6.48802">
        <ele>1305.607666</ele>
        <time>2012-05-06T07:24:47Z</time>
      </trkpt>
      <trkpt lat="43.43192" lon="6.48831">
        <ele>1307.5302734</ele>
        <time>2012-05-06T07:24:59Z</time>
      </trkpt>
      <trkpt lat="43.43232" lon="6.4886">
        <ele>1308.9724121</ele>
        <time>2012-05-06T07:25:13Z</time>
      </trkpt>
      <trkpt lat="43.43236" lon="6.489">
        <ele>1309.9335938</ele>
        <time>2012-05-06T07:25:23Z</time>
      </trkpt>
      <trkpt lat="43.43233" lon="6.4895">
        <ele>1311.3757324</ele>
        <time>2012-05-06T07:25:35Z</time>
      </trkpt>
      <trkpt lat="43.43245" lon="6.48964">
        <ele>1311.3757324</ele>
        <time>2012-05-06T07:25:41Z</time>
      </trkpt>
      <trkpt lat="43.4326" lon="6.48956">
        <ele>1311.8564453</ele>
        <time>2012-05-06T07:25:48Z</time>
      </trkpt>
      <trkpt lat="43.43292" lon="6.48929">
        <ele>1312.817627</ele>
        <time>2012-05-06T07:26:00Z</time>
      </trkpt>
      <trkpt lat="43.43325" lon="6.48943">
        <ele>1313.7788086</ele>
        <time>2012-05-06T07:26:10Z</time>
      </trkpt>
      <trkpt lat="43.43351" lon="6.48986">
        <ele>1314.7402344</ele>
        <time>2012-05-06T07:26:22Z</time>
      </trkpt>
      <trkpt lat="43.43349" lon="6.49025">
        <ele>1316.1821289</ele>
        <time>2012-05-06T07:26:31Z</time>
      </trkpt>
      <trkpt lat="43.43349" lon="6.49068">
        <ele>1318.1047363</ele>
        <time>2012-05-06T07:26:42Z</time>
      </trkpt>
      <trkpt lat="43.43358" lon="6.49111">
        <ele>1319.546875</ele>
        <time>2012-05-06T07:26:53Z</time>
      </trkpt>
      <trkpt lat="43.4336" lon="6.49133">
        <ele>1320.5080566</ele>
        <time>2012-05-06T07:26:59Z</time>
      </trkpt>
      <trkpt lat="43.43361" lon="6.4917">
        <ele>1322.4306641</ele>
        <time>2012-05-06T07:27:10Z</time>
      </trkpt>
      <trkpt lat="43.43361" lon="6.49174">
        <ele>1322.4306641</ele>
        <time>2012-05-06T07:27:11Z</time>
      </trkpt>
      <trkpt lat="43.43361" lon="6.4918">
        <ele>1322.911377</ele>
        <time>2012-05-06T07:27:13Z</time>
      </trkpt>
      <trkpt lat="43.43361" lon="6.49226">
        <ele>1324.8342285</ele>
        <time>2012-05-06T07:27:27Z</time>
      </trkpt>
      <trkpt lat="43.43358" lon="6.49266">
        <ele>1326.276123</ele>
        <time>2012-05-06T07:27:39Z</time>
      </trkpt>
      <trkpt lat="43.43348" lon="6.49312">
        <ele>1327.7180176</ele>
        <time>2012-05-06T07:27:52Z</time>
      </trkpt>
      <trkpt lat="43.43331" lon="6.49352">
        <ele>1329.640625</ele>
        <time>2012-05-06T07:28:05Z</time>
      </trkpt>
      <trkpt lat="43.43317" lon="6.49389">
        <ele>1329.640625</ele>
        <time>2012-05-06T07:28:18Z</time>
      </trkpt>
      <trkpt lat="43.43324" lon="6.49449">
        <ele>1329.640625</ele>
        <time>2012-05-06T07:28:32Z</time>
      </trkpt>
      <trkpt lat="43.43319" lon="6.4951">
        <ele>1331.0827637</ele>
        <time>2012-05-06T07:28:46Z</time>
      </trkpt>
      <trkpt lat="43.43313" lon="6.49589">
        <ele>1332.5246582</ele>
        <time>2012-05-06T07:29:03Z</time>
      </trkpt>
      <trkpt lat="43.43309" lon="6.49672">
        <ele>1332.5246582</ele>
        <time>2012-05-06T07:29:20Z</time>
      </trkpt>
      <trkpt lat="43.43293" lon="6.49728">
        <ele>1333.9665527</ele>
        <time>2012-05-06T07:29:33Z</time>
      </trkpt>
      <trkpt lat="43.43278" lon="6.49804">
        <ele>1335.4084473</ele>
        <time>2012-05-06T07:29:49Z</time>
      </trkpt>
      <trkpt lat="43.43269" lon="6.49878">
        <ele>1335.4084473</ele>
        <time>2012-05-06T07:30:04Z</time>
      </trkpt>
      <trkpt lat="43.43268" lon="6.49883">
        <ele>1335.4084473</ele>
        <time>2012-05-06T07:30:05Z</time>
      </trkpt>
      <trkpt lat="43.43262" lon="6.49899">
        <ele>1334.9279785</ele>
        <time>2012-05-06T07:30:08Z</time>
      </trkpt>
      <trkpt lat="43.43249" lon="6.49914">
        <ele>1334.4472656</ele>
        <time>2012-05-06T07:30:12Z</time>
      </trkpt>
      <trkpt lat="43.43237" lon="6.4992">
        <ele>1335.8891602</ele>
        <time>2012-05-06T07:30:15Z</time>
      </trkpt>
      <trkpt lat="43.43235" lon="6.49923">
        <ele>1335.8891602</ele>
        <time>2012-05-06T07:30:16Z</time>
      </trkpt>
      <trkpt lat="43.43213" lon="6.49949">
        <ele>1333.4858398</ele>
        <time>2012-05-06T07:30:22Z</time>
      </trkpt>
      <trkpt lat="43.43195" lon="6.49964">
        <ele>1331.0827637</ele>
        <time>2012-05-06T07:30:25Z</time>
      </trkpt>
      <trkpt lat="43.4319" lon="6.4997">
        <ele>1330.1213379</ele>
        <time>2012-05-06T07:30:26Z</time>
      </trkpt>
      <trkpt lat="43.43178" lon="6.49984">
        <ele>1328.6794434</ele>
        <time>2012-05-06T07:30:28Z</time>
      </trkpt>
      <trkpt lat="43.43138" lon="6.49998">
        <ele>1324.8342285</ele>
        <time>2012-05-06T07:30:33Z</time>
      </trkpt>
      <trkpt lat="43.43121" lon="6.50004">
        <ele>1322.911377</ele>
        <time>2012-05-06T07:30:35Z</time>
      </trkpt>
      <trkpt lat="43.43088" lon="6.50044">
        <ele>1320.0273438</ele>
        <time>2012-05-06T07:30:42Z</time>
      </trkpt>
      <trkpt lat="43.43074" lon="6.50066">
        <ele>1318.1047363</ele>
        <time>2012-05-06T07:30:45Z</time>
      </trkpt>
      <trkpt lat="43.43054" lon="6.50077">
        <ele>1315.7016602</ele>
        <time>2012-05-06T07:30:48Z</time>
      </trkpt>
      <trkpt lat="43.43033" lon="6.50081">
        <ele>1315.7016602</ele>
        <time>2012-05-06T07:30:51Z</time>
      </trkpt>
      <trkpt lat="43.43015" lon="6.50079">
        <ele>1316.1821289</ele>
        <time>2012-05-06T07:30:54Z</time>
      </trkpt>
      <trkpt lat="43.43009" lon="6.5005">
        <ele>1312.3369141</ele>
        <time>2012-05-06T07:31:00Z</time>
      </trkpt>
      <trkpt lat="43.43002" lon="6.50045">
        <ele>1311.3757324</ele>
        <time>2012-05-06T07:31:02Z</time>
      </trkpt>
      <trkpt lat="43.42988" lon="6.50042">
        <ele>1309.453125</ele>
        <time>2012-05-06T07:31:05Z</time>
      </trkpt>
      <trkpt lat="43.42977" lon="6.50036">
        <ele>1306.0881348</ele>
        <time>2012-05-06T07:31:08Z</time>
      </trkpt>
      <trkpt lat="43.42974" lon="6.50038">
        <ele>1305.607666</ele>
        <time>2012-05-06T07:31:09Z</time>
      </trkpt>
      <trkpt lat="43.42959" lon="6.50048">
        <ele>1303.6850586</ele>
        <time>2012-05-06T07:31:13Z</time>
      </trkpt>
      <trkpt lat="43.42945" lon="6.50047">
        <ele>1300.8010254</ele>
        <time>2012-05-06T07:31:16Z</time>
      </trkpt>
      <trkpt lat="43.4294" lon="6.5004">
        <ele>1300.3205566</ele>
        <time>2012-05-06T07:31:18Z</time>
      </trkpt>
      <trkpt lat="43.42937" lon="6.50037">
        <ele>1299.3591309</ele>
        <time>2012-05-06T07:31:19Z</time>
      </trkpt>
      <trkpt lat="43.42929" lon="6.50027">
        <ele>1295.9946289</ele>
        <time>2012-05-06T07:31:24Z</time>
      </trkpt>
      <trkpt lat="43.42925" lon="6.50033">
        <ele>1295.9946289</ele>
        <time>2012-05-06T07:31:26Z</time>
      </trkpt>
      <trkpt lat="43.42916" lon="6.50041">
        <ele>1292.1494141</ele>
        <time>2012-05-06T07:31:32Z</time>
      </trkpt>
      <trkpt lat="43.42914" lon="6.50037">
        <ele>1291.668457</ele>
        <time>2012-05-06T07:31:33Z</time>
      </trkpt>
      <trkpt lat="43.42908" lon="6.50029">
        <ele>1289.2651367</ele>
        <time>2012-05-06T07:31:38Z</time>
      </trkpt>
      <trkpt lat="43.42907" lon="6.5003">
        <ele>1288.3039551</ele>
        <time>2012-05-06T07:31:40Z</time>
      </trkpt>
      <trkpt lat="43.42901" lon="6.50023">
        <ele>1284.9394531</ele>
        <time>2012-05-06T07:31:49Z</time>
      </trkpt>
      <trkpt lat="43.429" lon="6.50019">
        <ele>1282.5361328</ele>
        <time>2012-05-06T07:32:03Z</time>
      </trkpt>
      <trkpt lat="43.42906" lon="6.49985">
        <ele>1278.690918</ele>
        <time>2012-05-06T07:32:12Z</time>
      </trkpt>
      <trkpt lat="43.4291" lon="6.49979">
        <ele>1276.7683105</ele>
        <time>2012-05-06T07:32:14Z</time>
      </trkpt>
      <trkpt lat="43.42914" lon="6.49965">
        <ele>1272.9228516</ele>
        <time>2012-05-06T07:32:19Z</time>
      </trkpt>
      <trkpt lat="43.42917" lon="6.49956">
        <ele>1270.5195313</ele>
        <time>2012-05-06T07:32:21Z</time>
      </trkpt>
      <trkpt lat="43.42925" lon="6.49945">
        <ele>1270.0388184</ele>
        <time>2012-05-06T07:32:29Z</time>
      </trkpt>
      <trkpt lat="43.42924" lon="6.49945">
        <ele>1269.0776367</ele>
        <time>2012-05-06T07:32:35Z</time>
      </trkpt>
      <trkpt lat="43.42922" lon="6.49941">
        <ele>1268.1162109</ele>
        <time>2012-05-06T07:32:38Z</time>
      </trkpt>
      <trkpt lat="43.42918" lon="6.4994">
        <ele>1266.6743164</ele>
        <time>2012-05-06T07:32:45Z</time>
      </trkpt>
      <trkpt lat="43.42914" lon="6.49942">
        <ele>1265.7131348</ele>
        <time>2012-05-06T07:32:51Z</time>
      </trkpt>
      <trkpt lat="43.42908" lon="6.49944">
        <ele>1264.751709</ele>
        <time>2012-05-06T07:33:01Z</time>
      </trkpt>
      <trkpt lat="43.42908" lon="6.4994">
        <ele>1263.3098145</ele>
        <time>2012-05-06T07:33:04Z</time>
      </trkpt>
      <trkpt lat="43.42906" lon="6.49933">
        <ele>1260.4257813</ele>
        <time>2012-05-06T07:33:16Z</time>
      </trkpt>
      <trkpt lat="43.42906" lon="6.49929">
        <ele>1258.5029297</ele>
        <time>2012-05-06T07:33:24Z</time>
      </trkpt>
      <trkpt lat="43.42896" lon="6.49933">
        <ele>1256.0996094</ele>
        <time>2012-05-06T07:33:32Z</time>
      </trkpt>
      <trkpt lat="43.42895" lon="6.4993">
        <ele>1255.1384277</ele>
        <time>2012-05-06T07:33:42Z</time>
      </trkpt>
      <trkpt lat="43.42891" lon="6.49933">
        <ele>1253.6965332</ele>
        <time>2012-05-06T07:33:49Z</time>
      </trkpt>
      <trkpt lat="43.42895" lon="6.49927">
        <ele>1253.2158203</ele>
        <time>2012-05-06T07:33:55Z</time>
      </trkpt>
      <trkpt lat="43.42897" lon="6.4992">
        <ele>1251.7739258</ele>
        <time>2012-05-06T07:33:58Z</time>
      </trkpt>
      <trkpt lat="43.42895" lon="6.49913">
        <ele>1249.3706055</ele>
        <time>2012-05-06T07:34:14Z</time>
      </trkpt>
      <trkpt lat="43.42891" lon="6.49906">
        <ele>1246.4868164</ele>
        <time>2012-05-06T07:34:18Z</time>
      </trkpt>
      <trkpt lat="43.4289" lon="6.49907">
        <ele>1246.0061035</ele>
        <time>2012-05-06T07:34:19Z</time>
      </trkpt>
      <trkpt lat="43.4289" lon="6.499">
        <ele>1244.5639648</ele>
        <time>2012-05-06T07:34:23Z</time>
      </trkpt>
      <trkpt lat="43.42894" lon="6.49888">
        <ele>1242.1606445</ele>
        <time>2012-05-06T07:34:28Z</time>
      </trkpt>
      <trkpt lat="43.42896" lon="6.4988">
        <ele>1239.7573242</ele>
        <time>2012-05-06T07:34:38Z</time>
      </trkpt>
      <trkpt lat="43.4289" lon="6.49882">
        <ele>1238.7961426</ele>
        <time>2012-05-06T07:34:46Z</time>
      </trkpt>
      <trkpt lat="43.42866" lon="6.49884">
        <ele>1234.9509277</ele>
        <time>2012-05-06T07:34:52Z</time>
      </trkpt>
      <trkpt lat="43.42857" lon="6.49896">
        <ele>1233.5087891</ele>
        <time>2012-05-06T07:34:54Z</time>
      </trkpt>
      <trkpt lat="43.42853" lon="6.49908">
        <ele>1233.5087891</ele>
        <time>2012-05-06T07:34:56Z</time>
      </trkpt>
      <trkpt lat="43.42849" lon="6.49916">
        <ele>1233.5087891</ele>
        <time>2012-05-06T07:34:58Z</time>
      </trkpt>
      <trkpt lat="43.42848" lon="6.49922">
        <ele>1233.989502</ele>
        <time>2012-05-06T07:35:00Z</time>
      </trkpt>
      <trkpt lat="43.42834" lon="6.49956">
        <ele>1233.989502</ele>
        <time>2012-05-06T07:35:08Z</time>
      </trkpt>
      <trkpt lat="43.42828" lon="6.49989">
        <ele>1236.873291</ele>
        <time>2012-05-06T07:35:18Z</time>
      </trkpt>
      <trkpt lat="43.42827" lon="6.50029">
        <ele>1234.4702148</ele>
        <time>2012-05-06T07:35:28Z</time>
      </trkpt>
      <trkpt lat="43.42828" lon="6.50041">
        <ele>1234.9509277</ele>
        <time>2012-05-06T07:35:30Z</time>
      </trkpt>
      <trkpt lat="43.42831" lon="6.50071">
        <ele>1234.9509277</ele>
        <time>2012-05-06T07:35:35Z</time>
      </trkpt>
      <trkpt lat="43.42836" lon="6.50084">
        <ele>1235.9121094</ele>
        <time>2012-05-06T07:35:38Z</time>
      </trkpt>
      <trkpt lat="43.4284" lon="6.50114">
        <ele>1234.4702148</ele>
        <time>2012-05-06T07:35:44Z</time>
      </trkpt>
      <trkpt lat="43.42852" lon="6.50154">
        <ele>1233.5087891</ele>
        <time>2012-05-06T07:35:52Z</time>
      </trkpt>
      <trkpt lat="43.42864" lon="6.50188">
        <ele>1232.5476074</ele>
        <time>2012-05-06T07:35:59Z</time>
      </trkpt>
      <trkpt lat="43.42892" lon="6.5022">
        <ele>1233.989502</ele>
        <time>2012-05-06T07:36:10Z</time>
      </trkpt>
      <trkpt lat="43.42926" lon="6.50249">
        <ele>1233.989502</ele>
        <time>2012-05-06T07:36:21Z</time>
      </trkpt>
      <trkpt lat="43.42939" lon="6.50259">
        <ele>1233.5087891</ele>
        <time>2012-05-06T07:36:25Z</time>
      </trkpt>
      <trkpt lat="43.42951" lon="6.50266">
        <ele>1233.0280762</ele>
        <time>2012-05-06T07:36:28Z</time>
      </trkpt>
      <trkpt lat="43.4297" lon="6.50272">
        <ele>1234.4702148</ele>
        <time>2012-05-06T07:36:33Z</time>
      </trkpt>
      <trkpt lat="43.42978" lon="6.50272">
        <ele>1235.9121094</ele>
        <time>2012-05-06T07:36:36Z</time>
      </trkpt>
      <trkpt lat="43.43005" lon="6.50285">
        <ele>1235.9121094</ele>
        <time>2012-05-06T07:36:44Z</time>
      </trkpt>
      <trkpt lat="43.43036" lon="6.50298">
        <ele>1234.9509277</ele>
        <time>2012-05-06T07:36:51Z</time>
      </trkpt>
      <trkpt lat="43.4305" lon="6.50307">
        <ele>1233.989502</ele>
        <time>2012-05-06T07:36:54Z</time>
      </trkpt>
      <trkpt lat="43.43071" lon="6.50316">
        <ele>1235.9121094</ele>
        <time>2012-05-06T07:37:02Z</time>
      </trkpt>
      <trkpt lat="43.43072" lon="6.50317">
        <ele>1235.9121094</ele>
        <time>2012-05-06T07:37:03Z</time>
      </trkpt>
      <trkpt lat="43.43083" lon="6.50333">
        <ele>1235.4313965</ele>
        <time>2012-05-06T07:37:09Z</time>
      </trkpt>
      <trkpt lat="43.43088" lon="6.50345">
        <ele>1233.5087891</ele>
        <time>2012-05-06T07:37:11Z</time>
      </trkpt>
      <trkpt lat="43.43114" lon="6.5038">
        <ele>1235.9121094</ele>
        <time>2012-05-06T07:37:20Z</time>
      </trkpt>
      <trkpt lat="43.43122" lon="6.50387">
        <ele>1236.873291</ele>
        <time>2012-05-06T07:37:23Z</time>
      </trkpt>
      <trkpt lat="43.43132" lon="6.50409">
        <ele>1234.4702148</ele>
        <time>2012-05-06T07:37:27Z</time>
      </trkpt>
      <trkpt lat="43.43139" lon="6.5042">
        <ele>1233.989502</ele>
        <time>2012-05-06T07:37:29Z</time>
      </trkpt>
      <trkpt lat="43.43154" lon="6.50455">
        <ele>1233.989502</ele>
        <time>2012-05-06T07:37:36Z</time>
      </trkpt>
      <trkpt lat="43.43159" lon="6.5047">
        <ele>1233.989502</ele>
        <time>2012-05-06T07:37:39Z</time>
      </trkpt>
      <trkpt lat="43.43168" lon="6.5049">
        <ele>1233.0280762</ele>
        <time>2012-05-06T07:37:42Z</time>
      </trkpt>
      <trkpt lat="43.43175" lon="6.50522">
        <ele>1233.5087891</ele>
        <time>2012-05-06T07:37:47Z</time>
      </trkpt>
      <trkpt lat="43.43188" lon="6.50577">
        <ele>1232.5476074</ele>
        <time>2012-05-06T07:37:57Z</time>
      </trkpt>
      <trkpt lat="43.43192" lon="6.50598">
        <ele>1232.0668945</ele>
        <time>2012-05-06T07:38:00Z</time>
      </trkpt>
      <trkpt lat="43.432" lon="6.50617">
        <ele>1232.0668945</ele>
        <time>2012-05-06T07:38:04Z</time>
      </trkpt>
      <trkpt lat="43.43211" lon="6.50666">
        <ele>1233.989502</ele>
        <time>2012-05-06T07:38:15Z</time>
      </trkpt>
      <trkpt lat="43.43225" lon="6.50716">
        <ele>1234.4702148</ele>
        <time>2012-05-06T07:38:25Z</time>
      </trkpt>
      <trkpt lat="43.43227" lon="6.50733">
        <ele>1234.9509277</ele>
        <time>2012-05-06T07:38:27Z</time>
      </trkpt>
      <trkpt lat="43.43226" lon="6.50762">
        <ele>1233.989502</ele>
        <time>2012-05-06T07:38:32Z</time>
      </trkpt>
      <trkpt lat="43.43234" lon="6.50786">
        <ele>1233.5087891</ele>
        <time>2012-05-06T07:38:36Z</time>
      </trkpt>
      <trkpt lat="43.43238" lon="6.50802">
        <ele>1233.5087891</ele>
        <time>2012-05-06T07:38:39Z</time>
      </trkpt>
      <trkpt lat="43.4324" lon="6.50843">
        <ele>1232.0668945</ele>
        <time>2012-05-06T07:38:45Z</time>
      </trkpt>
      <trkpt lat="43.43238" lon="6.50864">
        <ele>1232.0668945</ele>
        <time>2012-05-06T07:38:48Z</time>
      </trkpt>
      <trkpt lat="43.43236" lon="6.50877">
        <ele>1231.5861816</ele>
        <time>2012-05-06T07:38:50Z</time>
      </trkpt>
      <trkpt lat="43.4324" lon="6.5093">
        <ele>1234.4702148</ele>
        <time>2012-05-06T07:39:01Z</time>
      </trkpt>
      <trkpt lat="43.43239" lon="6.50951">
        <ele>1235.9121094</ele>
        <time>2012-05-06T07:39:07Z</time>
      </trkpt>
      <trkpt lat="43.43237" lon="6.51002">
        <ele>1238.7961426</ele>
        <time>2012-05-06T07:39:20Z</time>
      </trkpt>
      <trkpt lat="43.43244" lon="6.51044">
        <ele>1241.6799316</ele>
        <time>2012-05-06T07:39:32Z</time>
      </trkpt>
      <trkpt lat="43.43242" lon="6.51049">
        <ele>1242.6413574</ele>
        <time>2012-05-06T07:39:44Z</time>
      </trkpt>
      <trkpt lat="43.43236" lon="6.51047">
        <ele>1242.1606445</ele>
        <time>2012-05-06T07:39:48Z</time>
      </trkpt>
      <trkpt lat="43.43232" lon="6.51049">
        <ele>1242.1606445</ele>
        <time>2012-05-06T07:40:06Z</time>
      </trkpt>
      <trkpt lat="43.43231" lon="6.51049">
        <ele>1243.1218262</ele>
        <time>2012-05-06T07:47:30Z</time>
      </trkpt>
      <trkpt lat="43.43222" lon="6.51046">
        <ele>1243.1218262</ele>
        <time>2012-05-06T07:47:35Z</time>
      </trkpt>
      <trkpt lat="43.43185" lon="6.51039">
        <ele>1243.1218262</ele>
        <time>2012-05-06T07:47:50Z</time>
      </trkpt>
      <trkpt lat="43.43178" lon="6.51038">
        <ele>1243.6025391</ele>
        <time>2012-05-06T07:47:53Z</time>
      </trkpt>
      <trkpt lat="43.43171" lon="6.51014">
        <ele>1244.0834961</ele>
        <time>2012-05-06T07:48:01Z</time>
      </trkpt>
      <trkpt lat="43.43166" lon="6.5099">
        <ele>1246.9672852</ele>
        <time>2012-05-06T07:48:09Z</time>
      </trkpt>
      <trkpt lat="43.4316" lon="6.50956">
        <ele>1250.3320313</ele>
        <time>2012-05-06T07:48:21Z</time>
      </trkpt>
      <trkpt lat="43.43164" lon="6.5094">
        <ele>1252.2543945</ele>
        <time>2012-05-06T07:48:28Z</time>
      </trkpt>
      <trkpt lat="43.43165" lon="6.50915">
        <ele>1254.6577148</ele>
        <time>2012-05-06T07:48:38Z</time>
      </trkpt>
      <trkpt lat="43.43165" lon="6.50906">
        <ele>1255.6191406</ele>
        <time>2012-05-06T07:48:42Z</time>
      </trkpt>
      <trkpt lat="43.43162" lon="6.50872">
        <ele>1257.0610352</ele>
        <time>2012-05-06T07:48:54Z</time>
      </trkpt>
      <trkpt lat="43.43154" lon="6.50857">
        <ele>1258.9836426</ele>
        <time>2012-05-06T07:49:03Z</time>
      </trkpt>
      <trkpt lat="43.43151" lon="6.50854">
        <ele>1258.9836426</ele>
        <time>2012-05-06T07:49:20Z</time>
      </trkpt>
      <trkpt lat="43.4314" lon="6.50846">
        <ele>1261.8679199</ele>
        <time>2012-05-06T07:49:30Z</time>
      </trkpt>
      <trkpt lat="43.43136" lon="6.50837">
        <ele>1262.8291016</ele>
        <time>2012-05-06T07:49:34Z</time>
      </trkpt>
      <trkpt lat="43.43138" lon="6.50816">
        <ele>1265.2324219</ele>
        <time>2012-05-06T07:49:47Z</time>
      </trkpt>
      <trkpt lat="43.43135" lon="6.50798">
        <ele>1266.6743164</ele>
        <time>2012-05-06T07:50:01Z</time>
      </trkpt>
      <trkpt lat="43.43135" lon="6.50794">
        <ele>1267.635498</ele>
        <time>2012-05-06T07:50:03Z</time>
      </trkpt>
      <trkpt lat="43.43133" lon="6.50789">
        <ele>1268.5969238</ele>
        <time>2012-05-06T07:50:06Z</time>
      </trkpt>
      <trkpt lat="43.43128" lon="6.50776">
        <ele>1269.0776367</ele>
        <time>2012-05-06T07:50:11Z</time>
      </trkpt>
      <trkpt lat="43.43124" lon="6.50767">
        <ele>1271.4807129</ele>
        <time>2012-05-06T07:50:21Z</time>
      </trkpt>
      <trkpt lat="43.43123" lon="6.50765">
        <ele>1271.4807129</ele>
        <time>2012-05-06T07:50:23Z</time>
      </trkpt>
      <trkpt lat="43.4312" lon="6.50753">
        <ele>1273.4035645</ele>
        <time>2012-05-06T07:50:32Z</time>
      </trkpt>
      <trkpt lat="43.43114" lon="6.50735">
        <ele>1275.3259277</ele>
        <time>2012-05-06T07:50:47Z</time>
      </trkpt>
      <trkpt lat="43.43112" lon="6.50733">
        <ele>1275.8066406</ele>
        <time>2012-05-06T07:50:49Z</time>
      </trkpt>
      <trkpt lat="43.43093" lon="6.50718">
        <ele>1278.690918</ele>
        <time>2012-05-06T07:51:02Z</time>
      </trkpt>
      <trkpt lat="43.43083" lon="6.50707">
        <ele>1279.6520996</ele>
        <time>2012-05-06T07:51:09Z</time>
      </trkpt>
      <trkpt lat="43.4308" lon="6.50694">
        <ele>1281.0942383</ele>
        <time>2012-05-06T07:51:14Z</time>
      </trkpt>
      <trkpt lat="43.43072" lon="6.50682">
        <ele>1282.5361328</ele>
        <time>2012-05-06T07:51:26Z</time>
      </trkpt>
      <trkpt lat="43.43064" lon="6.50674">
        <ele>1284.4587402</ele>
        <time>2012-05-06T07:51:44Z</time>
      </trkpt>
      <trkpt lat="43.43053" lon="6.50665">
        <ele>1286.3813477</ele>
        <time>2012-05-06T07:51:59Z</time>
      </trkpt>
      <trkpt lat="43.43054" lon="6.50659">
        <ele>1286.8618164</ele>
        <time>2012-05-06T07:52:04Z</time>
      </trkpt>
      <trkpt lat="43.43045" lon="6.5064">
        <ele>1290.2265625</ele>
        <time>2012-05-06T07:52:23Z</time>
      </trkpt>
      <trkpt lat="43.43041" lon="6.5061">
        <ele>1293.1105957</ele>
        <time>2012-05-06T07:52:43Z</time>
      </trkpt>
      <trkpt lat="43.43041" lon="6.50607">
        <ele>1293.5913086</ele>
        <time>2012-05-06T07:52:45Z</time>
      </trkpt>
      <trkpt lat="43.43037" lon="6.50597">
        <ele>1294.0720215</ele>
        <time>2012-05-06T07:52:52Z</time>
      </trkpt>
      <trkpt lat="43.43033" lon="6.50595">
        <ele>1294.5524902</ele>
        <time>2012-05-06T07:52:55Z</time>
      </trkpt>
      <trkpt lat="43.43029" lon="6.50589">
        <ele>1295.513916</ele>
        <time>2012-05-06T07:53:01Z</time>
      </trkpt>
      <trkpt lat="43.43018" lon="6.50576">
        <ele>1297.4365234</ele>
        <time>2012-05-06T07:53:13Z</time>
      </trkpt>
      <trkpt lat="43.4301" lon="6.50562">
        <ele>1299.8398438</ele>
        <time>2012-05-06T07:53:28Z</time>
      </trkpt>
      <trkpt lat="43.42996" lon="6.50551">
        <ele>1302.7236328</ele>
        <time>2012-05-06T07:53:47Z</time>
      </trkpt>
      <trkpt lat="43.42977" lon="6.50547">
        <ele>1304.6462402</ele>
        <time>2012-05-06T07:54:02Z</time>
      </trkpt>
      <trkpt lat="43.42969" lon="6.50542">
        <ele>1305.607666</ele>
        <time>2012-05-06T07:54:11Z</time>
      </trkpt>
      <trkpt lat="43.42955" lon="6.50536">
        <ele>1308.0112305</ele>
        <time>2012-05-06T07:54:28Z</time>
      </trkpt>
      <trkpt lat="43.42938" lon="6.50531">
        <ele>1310.4143066</ele>
        <time>2012-05-06T07:54:46Z</time>
      </trkpt>
      <trkpt lat="43.42931" lon="6.50533">
        <ele>1311.8564453</ele>
        <time>2012-05-06T07:54:54Z</time>
      </trkpt>
      <trkpt lat="43.42928" lon="6.50532">
        <ele>1312.3369141</ele>
        <time>2012-05-06T07:54:57Z</time>
      </trkpt>
      <trkpt lat="43.42924" lon="6.50536">
        <ele>1313.2983398</ele>
        <time>2012-05-06T07:55:02Z</time>
      </trkpt>
      <trkpt lat="43.42923" lon="6.50538">
        <ele>1313.2983398</ele>
        <time>2012-05-06T07:55:04Z</time>
      </trkpt>
      <trkpt lat="43.4291" lon="6.50542">
        <ele>1315.2209473</ele>
        <time>2012-05-06T07:55:18Z</time>
      </trkpt>
      <trkpt lat="43.42897" lon="6.50549">
        <ele>1317.1435547</ele>
        <time>2012-05-06T07:55:33Z</time>
      </trkpt>
      <trkpt lat="43.42883" lon="6.50554">
        <ele>1319.546875</ele>
        <time>2012-05-06T07:55:49Z</time>
      </trkpt>
      <trkpt lat="43.42868" lon="6.5055">
        <ele>1321.4692383</ele>
        <time>2012-05-06T07:56:05Z</time>
      </trkpt>
      <trkpt lat="43.42859" lon="6.50544">
        <ele>1322.4306641</ele>
        <time>2012-05-06T07:56:15Z</time>
      </trkpt>
      <trkpt lat="43.42846" lon="6.50545">
        <ele>1323.8725586</ele>
        <time>2012-05-06T07:56:29Z</time>
      </trkpt>
      <trkpt lat="43.42833" lon="6.50539">
        <ele>1325.7954102</ele>
        <time>2012-05-06T07:56:43Z</time>
      </trkpt>
      <trkpt lat="43.4282" lon="6.50535">
        <ele>1327.2375488</ele>
        <time>2012-05-06T07:56:57Z</time>
      </trkpt>
      <trkpt lat="43.42815" lon="6.50532">
        <ele>1327.7180176</ele>
        <time>2012-05-06T07:57:03Z</time>
      </trkpt>
      <trkpt lat="43.42809" lon="6.50529">
        <ele>1328.6794434</ele>
        <time>2012-05-06T07:57:11Z</time>
      </trkpt>
      <trkpt lat="43.42795" lon="6.50522">
        <ele>1331.5632324</ele>
        <time>2012-05-06T07:57:28Z</time>
      </trkpt>
      <trkpt lat="43.42782" lon="6.50519">
        <ele>1333.005127</ele>
        <time>2012-05-06T07:57:41Z</time>
      </trkpt>
      <trkpt lat="43.42767" lon="6.50521">
        <ele>1334.4472656</ele>
        <time>2012-05-06T07:57:52Z</time>
      </trkpt>
      <trkpt lat="43.42767" lon="6.50528">
        <ele>1335.4084473</ele>
        <time>2012-05-06T07:57:59Z</time>
      </trkpt>
      <trkpt lat="43.42754" lon="6.50532">
        <ele>1335.8891602</ele>
        <time>2012-05-06T07:58:08Z</time>
      </trkpt>
      <trkpt lat="43.4273" lon="6.50535">
        <ele>1337.3310547</ele>
        <time>2012-05-06T07:58:21Z</time>
      </trkpt>
      <trkpt lat="43.42714" lon="6.50519">
        <ele>1339.2536621</ele>
        <time>2012-05-06T07:58:34Z</time>
      </trkpt>
      <trkpt lat="43.42694" lon="6.50497">
        <ele>1341.1765137</ele>
        <time>2012-05-06T07:58:49Z</time>
      </trkpt>
      <trkpt lat="43.42675" lon="6.50471">
        <ele>1342.1379395</ele>
        <time>2012-05-06T07:59:02Z</time>
      </trkpt>
      <trkpt lat="43.42672" lon="6.50428">
        <ele>1344.0605469</ele>
        <time>2012-05-06T07:59:17Z</time>
      </trkpt>
      <trkpt lat="43.42663" lon="6.504">
        <ele>1345.9831543</ele>
        <time>2012-05-06T07:59:29Z</time>
      </trkpt>
      <trkpt lat="43.42644" lon="6.50371">
        <ele>1347.9057617</ele>
        <time>2012-05-06T07:59:43Z</time>
      </trkpt>
      <trkpt lat="43.42621" lon="6.50349">
        <ele>1348.8669434</ele>
        <time>2012-05-06T07:59:57Z</time>
      </trkpt>
      <trkpt lat="43.42594" lon="6.5032">
        <ele>1350.309082</ele>
        <time>2012-05-06T08:00:12Z</time>
      </trkpt>
      <trkpt lat="43.42591" lon="6.50306">
        <ele>1350.309082</ele>
        <time>2012-05-06T08:00:17Z</time>
      </trkpt>
      <trkpt lat="43.42601" lon="6.50258">
        <ele>1353.1928711</ele>
        <time>2012-05-06T08:00:33Z</time>
      </trkpt>
      <trkpt lat="43.42585" lon="6.50236">
        <ele>1355.1154785</ele>
        <time>2012-05-06T08:00:44Z</time>
      </trkpt>
      <trkpt lat="43.42548" lon="6.50235">
        <ele>1356.5576172</ele>
        <time>2012-05-06T08:01:00Z</time>
      </trkpt>
      <trkpt lat="43.42533" lon="6.50231">
        <ele>1357.0383301</ele>
        <time>2012-05-06T08:01:06Z</time>
      </trkpt>
      <trkpt lat="43.42511" lon="6.502">
        <ele>1357.9997559</ele>
        <time>2012-05-06T08:01:20Z</time>
      </trkpt>
      <trkpt lat="43.42496" lon="6.50158">
        <ele>1359.4416504</ele>
        <time>2012-05-06T08:01:33Z</time>
      </trkpt>
      <trkpt lat="43.42473" lon="6.50148">
        <ele>1360.402832</ele>
        <time>2012-05-06T08:01:44Z</time>
      </trkpt>
      <trkpt lat="43.42447" lon="6.50123">
        <ele>1362.3254395</ele>
        <time>2012-05-06T08:01:57Z</time>
      </trkpt>
      <trkpt lat="43.4242" lon="6.50108">
        <ele>1364.2480469</ele>
        <time>2012-05-06T08:02:10Z</time>
      </trkpt>
      <trkpt lat="43.42406" lon="6.5011">
        <ele>1365.2094727</ele>
        <time>2012-05-06T08:02:15Z</time>
      </trkpt>
      <trkpt lat="43.424" lon="6.50115">
        <ele>1365.6901855</ele>
        <time>2012-05-06T08:02:18Z</time>
      </trkpt>
      <trkpt lat="43.42397" lon="6.50127">
        <ele>1365.6901855</ele>
        <time>2012-05-06T08:02:22Z</time>
      </trkpt>
      <trkpt lat="43.42386" lon="6.50183">
        <ele>1366.6513672</ele>
        <time>2012-05-06T08:02:38Z</time>
      </trkpt>
      <trkpt lat="43.42375" lon="6.50232">
        <ele>1367.6125488</ele>
        <time>2012-05-06T08:02:50Z</time>
      </trkpt>
      <trkpt lat="43.42352" lon="6.5027">
        <ele>1368.0932617</ele>
        <time>2012-05-06T08:03:01Z</time>
      </trkpt>
      <trkpt lat="43.42334" lon="6.50303">
        <ele>1369.0546875</ele>
        <time>2012-05-06T08:03:12Z</time>
      </trkpt>
      <trkpt lat="43.42324" lon="6.50333">
        <ele>1370.496582</ele>
        <time>2012-05-06T08:03:22Z</time>
      </trkpt>
      <trkpt lat="43.42297" lon="6.50359">
        <ele>1370.9772949</ele>
        <time>2012-05-06T08:03:33Z</time>
      </trkpt>
      <trkpt lat="43.42292" lon="6.50361">
        <ele>1370.9772949</ele>
        <time>2012-05-06T08:03:35Z</time>
      </trkpt>
      <trkpt lat="43.42287" lon="6.5035">
        <ele>1370.9772949</ele>
        <time>2012-05-06T08:03:39Z</time>
      </trkpt>
      <trkpt lat="43.42286" lon="6.50302">
        <ele>1372.4194336</ele>
        <time>2012-05-06T08:03:50Z</time>
      </trkpt>
      <trkpt lat="43.42282" lon="6.50298">
        <ele>1371.9384766</ele>
        <time>2012-05-06T08:03:51Z</time>
      </trkpt>
      <trkpt lat="43.42271" lon="6.50241">
        <ele>1372.9001465</ele>
        <time>2012-05-06T08:04:03Z</time>
      </trkpt>
      <trkpt lat="43.42261" lon="6.50205">
        <ele>1372.9001465</ele>
        <time>2012-05-06T08:04:13Z</time>
      </trkpt>
      <trkpt lat="43.42247" lon="6.50158">
        <ele>1373.3808594</ele>
        <time>2012-05-06T08:04:24Z</time>
      </trkpt>
      <trkpt lat="43.42236" lon="6.50143">
        <ele>1373.8613281</ele>
        <time>2012-05-06T08:04:28Z</time>
      </trkpt>
      <trkpt lat="43.42213" lon="6.5013">
        <ele>1373.8613281</ele>
        <time>2012-05-06T08:04:34Z</time>
      </trkpt>
      <trkpt lat="43.42169" lon="6.50088">
        <ele>1374.8227539</ele>
        <time>2012-05-06T08:04:47Z</time>
      </trkpt>
      <trkpt lat="43.42152" lon="6.50038">
        <ele>1376.2646484</ele>
        <time>2012-05-06T08:04:58Z</time>
      </trkpt>
      <trkpt lat="43.42118" lon="6.50029">
        <ele>1376.7453613</ele>
        <time>2012-05-06T08:05:08Z</time>
      </trkpt>
      <trkpt lat="43.42111" lon="6.50041">
        <ele>1377.2260742</ele>
        <time>2012-05-06T08:05:11Z</time>
      </trkpt>
      <trkpt lat="43.42079" lon="6.50087">
        <ele>1380.1098633</ele>
        <time>2012-05-06T08:05:26Z</time>
      </trkpt>
      <trkpt lat="43.42076" lon="6.50109">
        <ele>1380.5905762</ele>
        <time>2012-05-06T08:05:32Z</time>
      </trkpt>
      <trkpt lat="43.42066" lon="6.50107">
        <ele>1381.5517578</ele>
        <time>2012-05-06T08:05:38Z</time>
      </trkpt>
      <trkpt lat="43.42031" lon="6.50086">
        <ele>1382.0324707</ele>
        <time>2012-05-06T08:05:50Z</time>
      </trkpt>
      <trkpt lat="43.42019" lon="6.50052">
        <ele>1382.0324707</ele>
        <time>2012-05-06T08:05:58Z</time>
      </trkpt>
      <trkpt lat="43.41996" lon="6.49991">
        <ele>1382.9936523</ele>
        <time>2012-05-06T08:06:11Z</time>
      </trkpt>
      <trkpt lat="43.41991" lon="6.49983">
        <ele>1382.9936523</ele>
        <time>2012-05-06T08:06:13Z</time>
      </trkpt>
      <trkpt lat="43.41978" lon="6.4997">
        <ele>1382.9936523</ele>
        <time>2012-05-06T08:06:17Z</time>
      </trkpt>
      <trkpt lat="43.41956" lon="6.49959">
        <ele>1383.4743652</ele>
        <time>2012-05-06T08:06:23Z</time>
      </trkpt>
      <trkpt lat="43.41941" lon="6.49949">
        <ele>1383.9550781</ele>
        <time>2012-05-06T08:06:27Z</time>
      </trkpt>
      <trkpt lat="43.41932" lon="6.49941">
        <ele>1383.9550781</ele>
        <time>2012-05-06T08:06:30Z</time>
      </trkpt>
      <trkpt lat="43.41907" lon="6.49901">
        <ele>1383.9550781</ele>
        <time>2012-05-06T08:06:39Z</time>
      </trkpt>
      <trkpt lat="43.41896" lon="6.49894">
        <ele>1384.435791</ele>
        <time>2012-05-06T08:06:42Z</time>
      </trkpt>
      <trkpt lat="43.41865" lon="6.49877">
        <ele>1384.435791</ele>
        <time>2012-05-06T08:06:50Z</time>
      </trkpt>
      <trkpt lat="43.41856" lon="6.49847">
        <ele>1384.9165039</ele>
        <time>2012-05-06T08:06:56Z</time>
      </trkpt>
      <trkpt lat="43.41858" lon="6.49832">
        <ele>1384.9165039</ele>
        <time>2012-05-06T08:06:59Z</time>
      </trkpt>
      <trkpt lat="43.4186" lon="6.49821">
        <ele>1384.9165039</ele>
        <time>2012-05-06T08:07:01Z</time>
      </trkpt>
      <trkpt lat="43.41855" lon="6.49793">
        <ele>1385.3969727</ele>
        <time>2012-05-06T08:07:06Z</time>
      </trkpt>
      <trkpt lat="43.41811" lon="6.49741">
        <ele>1385.8776855</ele>
        <time>2012-05-06T08:07:20Z</time>
      </trkpt>
      <trkpt lat="43.41772" lon="6.49692">
        <ele>1386.3583984</ele>
        <time>2012-05-06T08:07:33Z</time>
      </trkpt>
      <trkpt lat="43.41765" lon="6.49686">
        <ele>1386.3583984</ele>
        <time>2012-05-06T08:07:35Z</time>
      </trkpt>
      <trkpt lat="43.41743" lon="6.49667">
        <ele>1386.8388672</ele>
        <time>2012-05-06T08:07:41Z</time>
      </trkpt>
      <trkpt lat="43.41719" lon="6.49682">
        <ele>1387.800293</ele>
        <time>2012-05-06T08:07:48Z</time>
      </trkpt>
      <trkpt lat="43.41721" lon="6.49748">
        <ele>1389.7231445</ele>
        <time>2012-05-06T08:08:01Z</time>
      </trkpt>
      <trkpt lat="43.41742" lon="6.49784">
        <ele>1392.1264648</ele>
        <time>2012-05-06T08:08:14Z</time>
      </trkpt>
      <trkpt lat="43.41764" lon="6.49818">
        <ele>1394.0490723</ele>
        <time>2012-05-06T08:08:29Z</time>
      </trkpt>
      <trkpt lat="43.41782" lon="6.49847">
        <ele>1396.4523926</ele>
        <time>2012-05-06T08:08:42Z</time>
      </trkpt>
      <trkpt lat="43.41803" lon="6.49876">
        <ele>1397.8942871</ele>
        <time>2012-05-06T08:08:55Z</time>
      </trkpt>
      <trkpt lat="43.41817" lon="6.49907">
        <ele>1399.8168945</ele>
        <time>2012-05-06T08:09:08Z</time>
      </trkpt>
      <trkpt lat="43.41816" lon="6.49952">
        <ele>1399.8168945</ele>
        <time>2012-05-06T08:09:22Z</time>
      </trkpt>
      <trkpt lat="43.41839" lon="6.50009">
        <ele>1401.2587891</ele>
        <time>2012-05-06T08:09:37Z</time>
      </trkpt>
      <trkpt lat="43.41872" lon="6.50059">
        <ele>1401.2587891</ele>
        <time>2012-05-06T08:09:52Z</time>
      </trkpt>
      <trkpt lat="43.41907" lon="6.5008">
        <ele>1401.739502</ele>
        <time>2012-05-06T08:10:04Z</time>
      </trkpt>
      <trkpt lat="43.41955" lon="6.50102">
        <ele>1402.2199707</ele>
        <time>2012-05-06T08:10:18Z</time>
      </trkpt>
      <trkpt lat="43.41953" lon="6.50142">
        <ele>1402.2199707</ele>
        <time>2012-05-06T08:10:28Z</time>
      </trkpt>
      <trkpt lat="43.41951" lon="6.50198">
        <ele>1401.739502</ele>
        <time>2012-05-06T08:10:40Z</time>
      </trkpt>
      <trkpt lat="43.41954" lon="6.5025">
        <ele>1401.2587891</ele>
        <time>2012-05-06T08:10:51Z</time>
      </trkpt>
      <trkpt lat="43.41964" lon="6.50304">
        <ele>1401.2587891</ele>
        <time>2012-05-06T08:11:03Z</time>
      </trkpt>
      <trkpt lat="43.41972" lon="6.50338">
        <ele>1400.7780762</ele>
        <time>2012-05-06T08:11:11Z</time>
      </trkpt>
      <trkpt lat="43.41963" lon="6.50343">
        <ele>1400.7780762</ele>
        <time>2012-05-06T08:11:16Z</time>
      </trkpt>
      <trkpt lat="43.41944" lon="6.50317">
        <ele>1401.739502</ele>
        <time>2012-05-06T08:11:27Z</time>
      </trkpt>
      <trkpt lat="43.41914" lon="6.50298">
        <ele>1403.1813965</ele>
        <time>2012-05-06T08:11:42Z</time>
      </trkpt>
      <trkpt lat="43.41897" lon="6.5029">
        <ele>1403.1813965</ele>
        <time>2012-05-06T08:11:51Z</time>
      </trkpt>
      <trkpt lat="43.4189" lon="6.5025">
        <ele>1404.1430664</ele>
        <time>2012-05-06T08:12:06Z</time>
      </trkpt>
      <trkpt lat="43.41859" lon="6.5025">
        <ele>1404.1430664</ele>
        <time>2012-05-06T08:12:19Z</time>
      </trkpt>
      <trkpt lat="43.41827" lon="6.50237">
        <ele>1404.1430664</ele>
        <time>2012-05-06T08:12:31Z</time>
      </trkpt>
      <trkpt lat="43.41789" lon="6.50206">
        <ele>1403.6621094</ele>
        <time>2012-05-06T08:12:43Z</time>
      </trkpt>
      <trkpt lat="43.41768" lon="6.50207">
        <ele>1403.6621094</ele>
        <time>2012-05-06T08:12:49Z</time>
      </trkpt>
      <trkpt lat="43.41745" lon="6.50189">
        <ele>1403.6621094</ele>
        <time>2012-05-06T08:12:56Z</time>
      </trkpt>
      <trkpt lat="43.41727" lon="6.50173">
        <ele>1403.6621094</ele>
        <time>2012-05-06T08:13:02Z</time>
      </trkpt>
      <trkpt lat="43.41721" lon="6.50162">
        <ele>1403.6621094</ele>
        <time>2012-05-06T08:13:04Z</time>
      </trkpt>
      <trkpt lat="43.41695" lon="6.50102">
        <ele>1404.1430664</ele>
        <time>2012-05-06T08:13:17Z</time>
      </trkpt>
      <trkpt lat="43.41644" lon="6.5006">
        <ele>1404.1430664</ele>
        <time>2012-05-06T08:13:31Z</time>
      </trkpt>
      <trkpt lat="43.41634" lon="6.50054">
        <ele>1404.1430664</ele>
        <time>2012-05-06T08:13:33Z</time>
      </trkpt>
      <trkpt lat="43.41594" lon="6.50019">
        <ele>1404.1430664</ele>
        <time>2012-05-06T08:13:45Z</time>
      </trkpt>
      <trkpt lat="43.41584" lon="6.50032">
        <ele>1403.1813965</ele>
        <time>2012-05-06T08:13:50Z</time>
      </trkpt>
      <trkpt lat="43.41581" lon="6.50056">
        <ele>1402.7006836</ele>
        <time>2012-05-06T08:13:54Z</time>
      </trkpt>
      <trkpt lat="43.41577" lon="6.50094">
        <ele>1401.739502</ele>
        <time>2012-05-06T08:14:00Z</time>
      </trkpt>
      <trkpt lat="43.41576" lon="6.50149">
        <ele>1400.2976074</ele>
        <time>2012-05-06T08:14:08Z</time>
      </trkpt>
      <trkpt lat="43.41579" lon="6.50163">
        <ele>1399.8168945</ele>
        <time>2012-05-06T08:14:10Z</time>
      </trkpt>
      <trkpt lat="43.4158" lon="6.50177">
        <ele>1399.3361816</ele>
        <time>2012-05-06T08:14:12Z</time>
      </trkpt>
      <trkpt lat="43.41576" lon="6.50233">
        <ele>1397.4135742</ele>
        <time>2012-05-06T08:14:20Z</time>
      </trkpt>
      <trkpt lat="43.41571" lon="6.50258">
        <ele>1397.4135742</ele>
        <time>2012-05-06T08:14:24Z</time>
      </trkpt>
      <trkpt lat="43.41572" lon="6.50272">
        <ele>1396.9328613</ele>
        <time>2012-05-06T08:14:26Z</time>
      </trkpt>
      <trkpt lat="43.41562" lon="6.50295">
        <ele>1397.4135742</ele>
        <time>2012-05-06T08:14:34Z</time>
      </trkpt>
      <trkpt lat="43.4156" lon="6.50288">
        <ele>1397.4135742</ele>
        <time>2012-05-06T08:14:36Z</time>
      </trkpt>
      <trkpt lat="43.41544" lon="6.50252">
        <ele>1397.4135742</ele>
        <time>2012-05-06T08:14:46Z</time>
      </trkpt>
      <trkpt lat="43.41544" lon="6.50234">
        <ele>1396.9328613</ele>
        <time>2012-05-06T08:14:49Z</time>
      </trkpt>
      <trkpt lat="43.41537" lon="6.50214">
        <ele>1397.4135742</ele>
        <time>2012-05-06T08:14:53Z</time>
      </trkpt>
      <trkpt lat="43.41527" lon="6.50204">
        <ele>1396.9328613</ele>
        <time>2012-05-06T08:14:56Z</time>
      </trkpt>
      <trkpt lat="43.4152" lon="6.50186">
        <ele>1397.4135742</ele>
        <time>2012-05-06T08:15:00Z</time>
      </trkpt>
      <trkpt lat="43.41495" lon="6.50141">
        <ele>1398.8554688</ele>
        <time>2012-05-06T08:15:12Z</time>
      </trkpt>
      <trkpt lat="43.41464" lon="6.50085">
        <ele>1398.8554688</ele>
        <time>2012-05-06T08:15:26Z</time>
      </trkpt>
      <trkpt lat="43.41428" lon="6.50069">
        <ele>1399.3361816</ele>
        <time>2012-05-06T08:15:37Z</time>
      </trkpt>
      <trkpt lat="43.41395" lon="6.50068">
        <ele>1400.7780762</ele>
        <time>2012-05-06T08:15:47Z</time>
      </trkpt>
      <trkpt lat="43.41399" lon="6.50027">
        <ele>1401.2587891</ele>
        <time>2012-05-06T08:15:56Z</time>
      </trkpt>
      <trkpt lat="43.4138" lon="6.49999">
        <ele>1401.739502</ele>
        <time>2012-05-06T08:16:04Z</time>
      </trkpt>
      <trkpt lat="43.41347" lon="6.49984">
        <ele>1402.7006836</ele>
        <time>2012-05-06T08:16:13Z</time>
      </trkpt>
      <trkpt lat="43.41338" lon="6.4996">
        <ele>1402.7006836</ele>
        <time>2012-05-06T08:16:18Z</time>
      </trkpt>
      <trkpt lat="43.41326" lon="6.49939">
        <ele>1403.1813965</ele>
        <time>2012-05-06T08:16:23Z</time>
      </trkpt>
      <trkpt lat="43.41323" lon="6.49913">
        <ele>1403.6621094</ele>
        <time>2012-05-06T08:16:28Z</time>
      </trkpt>
      <trkpt lat="43.41318" lon="6.49884">
        <ele>1403.6621094</ele>
        <time>2012-05-06T08:16:33Z</time>
      </trkpt>
      <trkpt lat="43.41307" lon="6.4982">
        <ele>1404.6235352</ele>
        <time>2012-05-06T08:16:46Z</time>
      </trkpt>
      <trkpt lat="43.41283" lon="6.49783">
        <ele>1405.104248</ele>
        <time>2012-05-06T08:16:57Z</time>
      </trkpt>
      <trkpt lat="43.41245" lon="6.4977">
        <ele>1407.0268555</ele>
        <time>2012-05-06T08:17:09Z</time>
      </trkpt>
      <trkpt lat="43.41216" lon="6.49779">
        <ele>1407.9882813</ele>
        <time>2012-05-06T08:17:19Z</time>
      </trkpt>
      <trkpt lat="43.41188" lon="6.49748">
        <ele>1408.9494629</ele>
        <time>2012-05-06T08:17:32Z</time>
      </trkpt>
      <trkpt lat="43.41157" lon="6.49715">
        <ele>1410.8720703</ele>
        <time>2012-05-06T08:17:46Z</time>
      </trkpt>
      <trkpt lat="43.4113" lon="6.4969">
        <ele>1412.7946777</ele>
        <time>2012-05-06T08:17:59Z</time>
      </trkpt>
      <trkpt lat="43.41115" lon="6.49652">
        <ele>1414.7172852</ele>
        <time>2012-05-06T08:18:14Z</time>
      </trkpt>
      <trkpt lat="43.41098" lon="6.49603">
        <ele>1416.1591797</ele>
        <time>2012-05-06T08:18:30Z</time>
      </trkpt>
      <trkpt lat="43.41087" lon="6.4957">
        <ele>1413.2753906</ele>
        <time>2012-05-06T08:18:42Z</time>
      </trkpt>
      <trkpt lat="43.41085" lon="6.49568">
        <ele>1417.1206055</ele>
        <time>2012-05-06T08:18:43Z</time>
      </trkpt>
      <trkpt lat="43.41081" lon="6.49562">
        <ele>1417.6010742</ele>
        <time>2012-05-06T08:18:45Z</time>
      </trkpt>
      <trkpt lat="43.41058" lon="6.49522">
        <ele>1418.5625</ele>
        <time>2012-05-06T08:19:00Z</time>
      </trkpt>
      <trkpt lat="43.41053" lon="6.4951">
        <ele>1417.6010742</ele>
        <time>2012-05-06T08:19:03Z</time>
      </trkpt>
      <trkpt lat="43.41047" lon="6.49475">
        <ele>1413.7558594</ele>
        <time>2012-05-06T08:19:08Z</time>
      </trkpt>
      <trkpt lat="43.41046" lon="6.49453">
        <ele>1413.7558594</ele>
        <time>2012-05-06T08:19:11Z</time>
      </trkpt>
      <trkpt lat="43.41042" lon="6.49425">
        <ele>1411.3527832</ele>
        <time>2012-05-06T08:19:17Z</time>
      </trkpt>
      <trkpt lat="43.41044" lon="6.49401">
        <ele>1406.0654297</ele>
        <time>2012-05-06T08:19:20Z</time>
      </trkpt>
      <trkpt lat="43.41045" lon="6.49381">
        <ele>1403.1813965</ele>
        <time>2012-05-06T08:19:22Z</time>
      </trkpt>
      <trkpt lat="43.41058" lon="6.49348">
        <ele>1395.9716797</ele>
        <time>2012-05-06T08:19:26Z</time>
      </trkpt>
      <trkpt lat="43.41073" lon="6.49311">
        <ele>1387.800293</ele>
        <time>2012-05-06T08:19:30Z</time>
      </trkpt>
      <trkpt lat="43.41076" lon="6.49288">
        <ele>1381.5517578</ele>
        <time>2012-05-06T08:19:32Z</time>
      </trkpt>
      <trkpt lat="43.41086" lon="6.49248">
        <ele>1375.3032227</ele>
        <time>2012-05-06T08:19:35Z</time>
      </trkpt>
      <trkpt lat="43.41101" lon="6.49209">
        <ele>1370.9772949</ele>
        <time>2012-05-06T08:19:38Z</time>
      </trkpt>
      <trkpt lat="43.41114" lon="6.49175">
        <ele>1370.0158691</ele>
        <time>2012-05-06T08:19:41Z</time>
      </trkpt>
      <trkpt lat="43.4112" lon="6.49158">
        <ele>1368.5739746</ele>
        <time>2012-05-06T08:19:43Z</time>
      </trkpt>
      <trkpt lat="43.41126" lon="6.49132">
        <ele>1363.2868652</ele>
        <time>2012-05-06T08:19:46Z</time>
      </trkpt>
      <trkpt lat="43.41129" lon="6.4911">
        <ele>1359.4416504</ele>
        <time>2012-05-06T08:19:48Z</time>
      </trkpt>
      <trkpt lat="43.41132" lon="6.49083">
        <ele>1356.0769043</ele>
        <time>2012-05-06T08:19:50Z</time>
      </trkpt>
      <trkpt lat="43.41132" lon="6.49056">
        <ele>1354.1542969</ele>
        <time>2012-05-06T08:19:52Z</time>
      </trkpt>
      <trkpt lat="43.4113" lon="6.49018">
        <ele>1352.7121582</ele>
        <time>2012-05-06T08:19:55Z</time>
      </trkpt>
      <trkpt lat="43.41118" lon="6.48974">
        <ele>1348.3862305</ele>
        <time>2012-05-06T08:19:59Z</time>
      </trkpt>
      <trkpt lat="43.4111" lon="6.48937">
        <ele>1343.0991211</ele>
        <time>2012-05-06T08:20:02Z</time>
      </trkpt>
      <trkpt lat="43.41106" lon="6.48879">
        <ele>1336.8503418</ele>
        <time>2012-05-06T08:20:06Z</time>
      </trkpt>
      <trkpt lat="43.41107" lon="6.48849">
        <ele>1335.8891602</ele>
        <time>2012-05-06T08:20:08Z</time>
      </trkpt>
      <trkpt lat="43.41117" lon="6.48742">
        <ele>1337.8117676</ele>
        <time>2012-05-06T08:20:18Z</time>
      </trkpt>
      <trkpt lat="43.41114" lon="6.48697">
        <ele>1341.1765137</ele>
        <time>2012-05-06T08:20:29Z</time>
      </trkpt>
      <trkpt lat="43.41122" lon="6.48639">
        <ele>1339.734375</ele>
        <time>2012-05-06T08:20:42Z</time>
      </trkpt>
      <trkpt lat="43.41124" lon="6.48607">
        <ele>1337.3310547</ele>
        <time>2012-05-06T08:20:47Z</time>
      </trkpt>
      <trkpt lat="43.41116" lon="6.48587">
        <ele>1333.4858398</ele>
        <time>2012-05-06T08:20:50Z</time>
      </trkpt>
      <trkpt lat="43.41108" lon="6.48568">
        <ele>1332.5246582</ele>
        <time>2012-05-06T08:20:52Z</time>
      </trkpt>
      <trkpt lat="43.41103" lon="6.48549">
        <ele>1331.0827637</ele>
        <time>2012-05-06T08:20:54Z</time>
      </trkpt>
      <trkpt lat="43.41086" lon="6.4853">
        <ele>1327.7180176</ele>
        <time>2012-05-06T08:20:58Z</time>
      </trkpt>
      <trkpt lat="43.41082" lon="6.48526">
        <ele>1325.7954102</ele>
        <time>2012-05-06T08:20:59Z</time>
      </trkpt>
      <trkpt lat="43.4107" lon="6.48499">
        <ele>1320.5080566</ele>
        <time>2012-05-06T08:21:03Z</time>
      </trkpt>
      <trkpt lat="43.41067" lon="6.48492">
        <ele>1318.5854492</ele>
        <time>2012-05-06T08:21:04Z</time>
      </trkpt>
      <trkpt lat="43.41055" lon="6.48469">
        <ele>1314.7402344</ele>
        <time>2012-05-06T08:21:08Z</time>
      </trkpt>
      <trkpt lat="43.41038" lon="6.48434">
        <ele>1308.9724121</ele>
        <time>2012-05-06T08:21:13Z</time>
      </trkpt>
      <trkpt lat="43.41025" lon="6.48415">
        <ele>1305.607666</ele>
        <time>2012-05-06T08:21:16Z</time>
      </trkpt>
      <trkpt lat="43.41018" lon="6.48382">
        <ele>1300.3205566</ele>
        <time>2012-05-06T08:21:21Z</time>
      </trkpt>
      <trkpt lat="43.41018" lon="6.48354">
        <ele>1296.4753418</ele>
        <time>2012-05-06T08:21:24Z</time>
      </trkpt>
      <trkpt lat="43.41013" lon="6.48321">
        <ele>1293.1105957</ele>
        <time>2012-05-06T08:21:27Z</time>
      </trkpt>
      <trkpt lat="43.41016" lon="6.48263">
        <ele>1289.7458496</ele>
        <time>2012-05-06T08:21:32Z</time>
      </trkpt>
      <trkpt lat="43.41019" lon="6.48203">
        <ele>1284.9394531</ele>
        <time>2012-05-06T08:21:37Z</time>
      </trkpt>
      <trkpt lat="43.41019" lon="6.48191">
        <ele>1284.4587402</ele>
        <time>2012-05-06T08:21:38Z</time>
      </trkpt>
      <trkpt lat="43.41028" lon="6.48118">
        <ele>1280.1328125</ele>
        <time>2012-05-06T08:21:44Z</time>
      </trkpt>
      <trkpt lat="43.4105" lon="6.48051">
        <ele>1275.8066406</ele>
        <time>2012-05-06T08:21:50Z</time>
      </trkpt>
      <trkpt lat="43.41067" lon="6.48029">
        <ele>1272.4421387</ele>
        <time>2012-05-06T08:21:53Z</time>
      </trkpt>
      <trkpt lat="43.41077" lon="6.47997">
        <ele>1268.1162109</ele>
        <time>2012-05-06T08:21:57Z</time>
      </trkpt>
      <trkpt lat="43.41076" lon="6.47963">
        <ele>1263.3098145</ele>
        <time>2012-05-06T08:22:01Z</time>
      </trkpt>
      <trkpt lat="43.41075" lon="6.47955">
        <ele>1262.8291016</ele>
        <time>2012-05-06T08:22:02Z</time>
      </trkpt>
      <trkpt lat="43.41064" lon="6.47929">
        <ele>1258.9836426</ele>
        <time>2012-05-06T08:22:06Z</time>
      </trkpt>
      <trkpt lat="43.41052" lon="6.47904">
        <ele>1254.1772461</ele>
        <time>2012-05-06T08:22:11Z</time>
      </trkpt>
      <trkpt lat="43.41069" lon="6.47901">
        <ele>1250.8125</ele>
        <time>2012-05-06T08:22:17Z</time>
      </trkpt>
      <trkpt lat="43.41076" lon="6.47887">
        <ele>1247.447998</ele>
        <time>2012-05-06T08:22:20Z</time>
      </trkpt>
      <trkpt lat="43.4108" lon="6.47865">
        <ele>1244.0834961</ele>
        <time>2012-05-06T08:22:23Z</time>
      </trkpt>
      <trkpt lat="43.41082" lon="6.47847">
        <ele>1242.1606445</ele>
        <time>2012-05-06T08:22:26Z</time>
      </trkpt>
      <trkpt lat="43.41077" lon="6.47837">
        <ele>1241.6799316</ele>
        <time>2012-05-06T08:22:29Z</time>
      </trkpt>
      <trkpt lat="43.41078" lon="6.47807">
        <ele>1240.7185059</ele>
        <time>2012-05-06T08:22:37Z</time>
      </trkpt>
      <trkpt lat="43.41065" lon="6.47787">
        <ele>1240.2380371</ele>
        <time>2012-05-06T08:22:42Z</time>
      </trkpt>
      <trkpt lat="43.41054" lon="6.47785">
        <ele>1242.6413574</ele>
        <time>2012-05-06T08:22:46Z</time>
      </trkpt>
      <trkpt lat="43.41027" lon="6.47799">
        <ele>1243.6025391</ele>
        <time>2012-05-06T08:22:56Z</time>
      </trkpt>
      <trkpt lat="43.40992" lon="6.47797">
        <ele>1244.0834961</ele>
        <time>2012-05-06T08:23:07Z</time>
      </trkpt>
      <trkpt lat="43.40958" lon="6.47785">
        <ele>1244.0834961</ele>
        <time>2012-05-06T08:23:17Z</time>
      </trkpt>
      <trkpt lat="43.40914" lon="6.47806">
        <ele>1243.1218262</ele>
        <time>2012-05-06T08:23:28Z</time>
      </trkpt>
      <trkpt lat="43.40902" lon="6.4781">
        <ele>1243.1218262</ele>
        <time>2012-05-06T08:23:31Z</time>
      </trkpt>
      <trkpt lat="43.40888" lon="6.47812">
        <ele>1243.1218262</ele>
        <time>2012-05-06T08:23:34Z</time>
      </trkpt>
      <trkpt lat="43.40869" lon="6.47807">
        <ele>1243.1218262</ele>
        <time>2012-05-06T08:23:38Z</time>
      </trkpt>
      <trkpt lat="43.4086" lon="6.47806">
        <ele>1243.1218262</ele>
        <time>2012-05-06T08:23:40Z</time>
      </trkpt>
      <trkpt lat="43.40827" lon="6.47791">
        <ele>1243.1218262</ele>
        <time>2012-05-06T08:23:48Z</time>
      </trkpt>
      <trkpt lat="43.40819" lon="6.47785">
        <ele>1243.1218262</ele>
        <time>2012-05-06T08:23:50Z</time>
      </trkpt>
      <trkpt lat="43.40806" lon="6.47768">
        <ele>1243.1218262</ele>
        <time>2012-05-06T08:23:54Z</time>
      </trkpt>
      <trkpt lat="43.40802" lon="6.47743">
        <ele>1243.6025391</ele>
        <time>2012-05-06T08:23:58Z</time>
      </trkpt>
      <trkpt lat="43.40809" lon="6.4769">
        <ele>1243.1218262</ele>
        <time>2012-05-06T08:24:07Z</time>
      </trkpt>
      <trkpt lat="43.40811" lon="6.47679">
        <ele>1243.1218262</ele>
        <time>2012-05-06T08:24:09Z</time>
      </trkpt>
      <trkpt lat="43.40816" lon="6.47658">
        <ele>1243.1218262</ele>
        <time>2012-05-06T08:24:13Z</time>
      </trkpt>
      <trkpt lat="43.40845" lon="6.47569">
        <ele>1243.1218262</ele>
        <time>2012-05-06T08:24:30Z</time>
      </trkpt>
      <trkpt lat="43.4085" lon="6.47552">
        <ele>1243.1218262</ele>
        <time>2012-05-06T08:24:33Z</time>
      </trkpt>
      <trkpt lat="43.40876" lon="6.47467">
        <ele>1242.1606445</ele>
        <time>2012-05-06T08:24:48Z</time>
      </trkpt>
      <trkpt lat="43.40883" lon="6.47442">
        <ele>1241.6799316</ele>
        <time>2012-05-06T08:24:52Z</time>
      </trkpt>
      <trkpt lat="43.40879" lon="6.47408">
        <ele>1242.6413574</ele>
        <time>2012-05-06T08:24:58Z</time>
      </trkpt>
      <trkpt lat="43.40868" lon="6.47395">
        <ele>1242.1606445</ele>
        <time>2012-05-06T08:25:01Z</time>
      </trkpt>
      <trkpt lat="43.40847" lon="6.47379">
        <ele>1242.1606445</ele>
        <time>2012-05-06T08:25:06Z</time>
      </trkpt>
      <trkpt lat="43.408" lon="6.47353">
        <ele>1242.6413574</ele>
        <time>2012-05-06T08:25:19Z</time>
      </trkpt>
      <trkpt lat="43.40796" lon="6.47352">
        <ele>1242.6413574</ele>
        <time>2012-05-06T08:25:20Z</time>
      </trkpt>
      <trkpt lat="43.40749" lon="6.47328">
        <ele>1242.6413574</ele>
        <time>2012-05-06T08:25:32Z</time>
      </trkpt>
      <trkpt lat="43.40735" lon="6.47322">
        <ele>1242.1606445</ele>
        <time>2012-05-06T08:25:35Z</time>
      </trkpt>
      <trkpt lat="43.40721" lon="6.47304">
        <ele>1241.1992188</ele>
        <time>2012-05-06T08:25:39Z</time>
      </trkpt>
      <trkpt lat="43.40701" lon="6.47281">
        <ele>1241.1992188</ele>
        <time>2012-05-06T08:25:44Z</time>
      </trkpt>
      <trkpt lat="43.40657" lon="6.47242">
        <ele>1242.1606445</ele>
        <time>2012-05-06T08:25:57Z</time>
      </trkpt>
      <trkpt lat="43.40633" lon="6.4723">
        <ele>1242.6413574</ele>
        <time>2012-05-06T08:26:03Z</time>
      </trkpt>
      <trkpt lat="43.40592" lon="6.47214">
        <ele>1243.1218262</ele>
        <time>2012-05-06T08:26:13Z</time>
      </trkpt>
      <trkpt lat="43.40521" lon="6.47195">
        <ele>1242.1606445</ele>
        <time>2012-05-06T08:26:29Z</time>
      </trkpt>
      <trkpt lat="43.40489" lon="6.47192">
        <ele>1242.6413574</ele>
        <time>2012-05-06T08:26:38Z</time>
      </trkpt>
      <trkpt lat="43.40478" lon="6.47191">
        <ele>1243.1218262</ele>
        <time>2012-05-06T08:26:41Z</time>
      </trkpt>
      <trkpt lat="43.40421" lon="6.47189">
        <ele>1243.6025391</ele>
        <time>2012-05-06T08:26:55Z</time>
      </trkpt>
      <trkpt lat="43.4037" lon="6.47195">
        <ele>1244.0834961</ele>
        <time>2012-05-06T08:27:08Z</time>
      </trkpt>
      <trkpt lat="43.4035" lon="6.47204">
        <ele>1244.0834961</ele>
        <time>2012-05-06T08:27:13Z</time>
      </trkpt>
      <trkpt lat="43.40338" lon="6.4721">
        <ele>1244.0834961</ele>
        <time>2012-05-06T08:27:16Z</time>
      </trkpt>
      <trkpt lat="43.40315" lon="6.47222">
        <ele>1244.0834961</ele>
        <time>2012-05-06T08:27:22Z</time>
      </trkpt>
      <trkpt lat="43.40261" lon="6.47236">
        <ele>1243.1218262</ele>
        <time>2012-05-06T08:27:35Z</time>
      </trkpt>
      <trkpt lat="43.40246" lon="6.47241">
        <ele>1243.1218262</ele>
        <time>2012-05-06T08:27:39Z</time>
      </trkpt>
      <trkpt lat="43.40198" lon="6.47266">
        <ele>1243.6025391</ele>
        <time>2012-05-06T08:27:52Z</time>
      </trkpt>
      <trkpt lat="43.40162" lon="6.47279">
        <ele>1244.0834961</ele>
        <time>2012-05-06T08:28:03Z</time>
      </trkpt>
      <trkpt lat="43.40117" lon="6.47299">
        <ele>1245.0446777</ele>
        <time>2012-05-06T08:28:16Z</time>
      </trkpt>
      <trkpt lat="43.4011" lon="6.47267">
        <ele>1245.5253906</ele>
        <time>2012-05-06T08:28:26Z</time>
      </trkpt>
      <trkpt lat="43.40109" lon="6.47216">
        <ele>1245.5253906</ele>
        <time>2012-05-06T08:28:37Z</time>
      </trkpt>
      <trkpt lat="43.40088" lon="6.47175">
        <ele>1247.447998</ele>
        <time>2012-05-06T08:28:48Z</time>
      </trkpt>
      <trkpt lat="43.40085" lon="6.47124">
        <ele>1249.3706055</ele>
        <time>2012-05-06T08:29:01Z</time>
      </trkpt>
      <trkpt lat="43.40084" lon="6.47088">
        <ele>1251.2932129</ele>
        <time>2012-05-06T08:29:14Z</time>
      </trkpt>
      <trkpt lat="43.40084" lon="6.47086">
        <ele>1251.2932129</ele>
        <time>2012-05-06T08:29:30Z</time>
      </trkpt>
      <trkpt lat="43.40084" lon="6.47087">
        <ele>1251.2932129</ele>
        <time>2012-05-06T08:34:26Z</time>
      </trkpt>
      <trkpt lat="43.40072" lon="6.47084">
        <ele>1251.2932129</ele>
        <time>2012-05-06T08:34:33Z</time>
      </trkpt>
      <trkpt lat="43.4004" lon="6.47037">
        <ele>1252.7351074</ele>
        <time>2012-05-06T08:34:51Z</time>
      </trkpt>
      <trkpt lat="43.4004" lon="6.46992">
        <ele>1252.2543945</ele>
        <time>2012-05-06T08:35:02Z</time>
      </trkpt>
      <trkpt lat="43.40041" lon="6.46975">
        <ele>1251.7739258</ele>
        <time>2012-05-06T08:35:05Z</time>
      </trkpt>
      <trkpt lat="43.40041" lon="6.46935">
        <ele>1251.7739258</ele>
        <time>2012-05-06T08:35:12Z</time>
      </trkpt>
      <trkpt lat="43.40042" lon="6.46918">
        <ele>1252.2543945</ele>
        <time>2012-05-06T08:35:15Z</time>
      </trkpt>
      <trkpt lat="43.40046" lon="6.4689">
        <ele>1250.8125</ele>
        <time>2012-05-06T08:35:19Z</time>
      </trkpt>
      <trkpt lat="43.40048" lon="6.46866">
        <ele>1248.8898926</ele>
        <time>2012-05-06T08:35:22Z</time>
      </trkpt>
      <trkpt lat="43.40063" lon="6.46834">
        <ele>1245.0446777</ele>
        <time>2012-05-06T08:35:26Z</time>
      </trkpt>
      <trkpt lat="43.40074" lon="6.46794">
        <ele>1246.0061035</ele>
        <time>2012-05-06T08:35:32Z</time>
      </trkpt>
      <trkpt lat="43.40086" lon="6.46768">
        <ele>1245.5253906</ele>
        <time>2012-05-06T08:35:38Z</time>
      </trkpt>
      <trkpt lat="43.40093" lon="6.46755">
        <ele>1245.0446777</ele>
        <time>2012-05-06T08:35:40Z</time>
      </trkpt>
      <trkpt lat="43.40108" lon="6.46706">
        <ele>1246.4868164</ele>
        <time>2012-05-06T08:35:49Z</time>
      </trkpt>
      <trkpt lat="43.4011" lon="6.46677">
        <ele>1248.8898926</ele>
        <time>2012-05-06T08:35:56Z</time>
      </trkpt>
      <trkpt lat="43.40119" lon="6.46632">
        <ele>1252.2543945</ele>
        <time>2012-05-06T08:36:10Z</time>
      </trkpt>
      <trkpt lat="43.40123" lon="6.4661">
        <ele>1252.7351074</ele>
        <time>2012-05-06T08:36:16Z</time>
      </trkpt>
      <trkpt lat="43.40112" lon="6.46575">
        <ele>1250.8125</ele>
        <time>2012-05-06T08:36:23Z</time>
      </trkpt>
      <trkpt lat="43.40103" lon="6.46554">
        <ele>1252.7351074</ele>
        <time>2012-05-06T08:36:28Z</time>
      </trkpt>
      <trkpt lat="43.40076" lon="6.4654">
        <ele>1255.1384277</ele>
        <time>2012-05-06T08:36:40Z</time>
      </trkpt>
      <trkpt lat="43.40045" lon="6.46527">
        <ele>1257.541748</ele>
        <time>2012-05-06T08:36:55Z</time>
      </trkpt>
      <trkpt lat="43.40037" lon="6.46526">
        <ele>1258.9836426</ele>
        <time>2012-05-06T08:36:59Z</time>
      </trkpt>
      <trkpt lat="43.40029" lon="6.46529">
        <ele>1260.4257813</ele>
        <time>2012-05-06T08:37:04Z</time>
      </trkpt>
      <trkpt lat="43.39994" lon="6.46544">
        <ele>1260.9064941</ele>
        <time>2012-05-06T08:37:18Z</time>
      </trkpt>
      <trkpt lat="43.39968" lon="6.46553">
        <ele>1260.9064941</ele>
        <time>2012-05-06T08:37:26Z</time>
      </trkpt>
      <trkpt lat="43.39965" lon="6.46502">
        <ele>1262.3483887</ele>
        <time>2012-05-06T08:37:38Z</time>
      </trkpt>
      <trkpt lat="43.39969" lon="6.46437">
        <ele>1264.2709961</ele>
        <time>2012-05-06T08:37:53Z</time>
      </trkpt>
      <trkpt lat="43.39948" lon="6.46397">
        <ele>1264.751709</ele>
        <time>2012-05-06T08:38:04Z</time>
      </trkpt>
      <trkpt lat="43.39914" lon="6.46367">
        <ele>1266.6743164</ele>
        <time>2012-05-06T08:38:17Z</time>
      </trkpt>
      <trkpt lat="43.39885" lon="6.46344">
        <ele>1268.1162109</ele>
        <time>2012-05-06T08:38:29Z</time>
      </trkpt>
      <trkpt lat="43.3986" lon="6.4631">
        <ele>1270.5195313</ele>
        <time>2012-05-06T08:38:42Z</time>
      </trkpt>
      <trkpt lat="43.39841" lon="6.46268">
        <ele>1272.9228516</ele>
        <time>2012-05-06T08:38:57Z</time>
      </trkpt>
      <trkpt lat="43.39819" lon="6.46244">
        <ele>1275.3259277</ele>
        <time>2012-05-06T08:39:10Z</time>
      </trkpt>
      <trkpt lat="43.398" lon="6.46223">
        <ele>1277.7294922</ele>
        <time>2012-05-06T08:39:26Z</time>
      </trkpt>
      <trkpt lat="43.39783" lon="6.46206">
        <ele>1279.6520996</ele>
        <time>2012-05-06T08:39:40Z</time>
      </trkpt>
      <trkpt lat="43.39761" lon="6.4618">
        <ele>1278.690918</ele>
        <time>2012-05-06T08:39:53Z</time>
      </trkpt>
      <trkpt lat="43.39755" lon="6.46171">
        <ele>1278.2102051</ele>
        <time>2012-05-06T08:39:55Z</time>
      </trkpt>
      <trkpt lat="43.39742" lon="6.4615">
        <ele>1276.2875977</ele>
        <time>2012-05-06T08:39:59Z</time>
      </trkpt>
      <trkpt lat="43.39738" lon="6.46145">
        <ele>1275.8066406</ele>
        <time>2012-05-06T08:40:00Z</time>
      </trkpt>
      <trkpt lat="43.39722" lon="6.46127">
        <ele>1276.2875977</ele>
        <time>2012-05-06T08:40:04Z</time>
      </trkpt>
      <trkpt lat="43.39716" lon="6.46118">
        <ele>1275.8066406</ele>
        <time>2012-05-06T08:40:06Z</time>
      </trkpt>
      <trkpt lat="43.39672" lon="6.46079">
        <ele>1273.8840332</ele>
        <time>2012-05-06T08:40:18Z</time>
      </trkpt>
      <trkpt lat="43.39669" lon="6.46077">
        <ele>1273.8840332</ele>
        <time>2012-05-06T08:40:19Z</time>
      </trkpt>
      <trkpt lat="43.39651" lon="6.46065">
        <ele>1271.9614258</ele>
        <time>2012-05-06T08:40:23Z</time>
      </trkpt>
      <trkpt lat="43.3964" lon="6.46058">
        <ele>1270.0388184</ele>
        <time>2012-05-06T08:40:25Z</time>
      </trkpt>
      <trkpt lat="43.39629" lon="6.46047">
        <ele>1269.5583496</ele>
        <time>2012-05-06T08:40:27Z</time>
      </trkpt>
      <trkpt lat="43.39622" lon="6.46033">
        <ele>1269.0776367</ele>
        <time>2012-05-06T08:40:29Z</time>
      </trkpt>
      <trkpt lat="43.39599" lon="6.45996">
        <ele>1270.0388184</ele>
        <time>2012-05-06T08:40:38Z</time>
      </trkpt>
      <trkpt lat="43.3956" lon="6.45953">
        <ele>1269.0776367</ele>
        <time>2012-05-06T08:40:51Z</time>
      </trkpt>
      <trkpt lat="43.39547" lon="6.45933">
        <ele>1267.1550293</ele>
        <time>2012-05-06T08:40:55Z</time>
      </trkpt>
      <trkpt lat="43.39534" lon="6.45907">
        <ele>1265.2324219</ele>
        <time>2012-05-06T08:40:59Z</time>
      </trkpt>
      <trkpt lat="43.39511" lon="6.45871">
        <ele>1265.2324219</ele>
        <time>2012-05-06T08:41:07Z</time>
      </trkpt>
      <trkpt lat="43.39506" lon="6.45867">
        <ele>1264.751709</ele>
        <time>2012-05-06T08:41:08Z</time>
      </trkpt>
      <trkpt lat="43.39488" lon="6.45832">
        <ele>1264.2709961</ele>
        <time>2012-05-06T08:41:14Z</time>
      </trkpt>
      <trkpt lat="43.39472" lon="6.45798">
        <ele>1262.8291016</ele>
        <time>2012-05-06T08:41:20Z</time>
      </trkpt>
      <trkpt lat="43.39454" lon="6.45749">
        <ele>1262.8291016</ele>
        <time>2012-05-06T08:41:29Z</time>
      </trkpt>
      <trkpt lat="43.39452" lon="6.45725">
        <ele>1260.9064941</ele>
        <time>2012-05-06T08:41:32Z</time>
      </trkpt>
      <trkpt lat="43.39451" lon="6.45717">
        <ele>1261.387207</ele>
        <time>2012-05-06T08:41:33Z</time>
      </trkpt>
      <trkpt lat="43.39452" lon="6.45687">
        <ele>1262.3483887</ele>
        <time>2012-05-06T08:41:38Z</time>
      </trkpt>
      <trkpt lat="43.39467" lon="6.4562">
        <ele>1260.9064941</ele>
        <time>2012-05-06T08:41:49Z</time>
      </trkpt>
      <trkpt lat="43.39468" lon="6.4561">
        <ele>1260.4257813</ele>
        <time>2012-05-06T08:41:51Z</time>
      </trkpt>
      <trkpt lat="43.39468" lon="6.45591">
        <ele>1257.541748</ele>
        <time>2012-05-06T08:41:54Z</time>
      </trkpt>
      <trkpt lat="43.39468" lon="6.45575">
        <ele>1257.0610352</ele>
        <time>2012-05-06T08:41:57Z</time>
      </trkpt>
      <trkpt lat="43.39457" lon="6.45583">
        <ele>1256.0996094</ele>
        <time>2012-05-06T08:42:02Z</time>
      </trkpt>
      <trkpt lat="43.39448" lon="6.45615">
        <ele>1256.0996094</ele>
        <time>2012-05-06T08:42:07Z</time>
      </trkpt>
      <trkpt lat="43.3941" lon="6.45644">
        <ele>1254.6577148</ele>
        <time>2012-05-06T08:42:16Z</time>
      </trkpt>
      <trkpt lat="43.394" lon="6.45623">
        <ele>1254.6577148</ele>
        <time>2012-05-06T08:42:21Z</time>
      </trkpt>
      <trkpt lat="43.39401" lon="6.45596">
        <ele>1254.6577148</ele>
        <time>2012-05-06T08:42:25Z</time>
      </trkpt>
      <trkpt lat="43.39396" lon="6.4557">
        <ele>1254.6577148</ele>
        <time>2012-05-06T08:42:29Z</time>
      </trkpt>
      <trkpt lat="43.39374" lon="6.45527">
        <ele>1253.6965332</ele>
        <time>2012-05-06T08:42:36Z</time>
      </trkpt>
      <trkpt lat="43.39375" lon="6.45514">
        <ele>1253.2158203</ele>
        <time>2012-05-06T08:42:43Z</time>
      </trkpt>
      <trkpt lat="43.3939" lon="6.45515">
        <ele>1252.7351074</ele>
        <time>2012-05-06T08:42:47Z</time>
      </trkpt>
      <trkpt lat="43.39396" lon="6.45515">
        <ele>1252.7351074</ele>
        <time>2012-05-06T08:43:01Z</time>
      </trkpt>
      <trkpt lat="43.39407" lon="6.45517">
        <ele>1251.7739258</ele>
        <time>2012-05-06T08:43:05Z</time>
      </trkpt>
      <trkpt lat="43.39415" lon="6.45521">
        <ele>1251.2932129</ele>
        <time>2012-05-06T08:43:07Z</time>
      </trkpt>
      <trkpt lat="43.39453" lon="6.45528">
        <ele>1250.8125</ele>
        <time>2012-05-06T08:43:16Z</time>
      </trkpt>
      <trkpt lat="43.39466" lon="6.4552">
        <ele>1251.2932129</ele>
        <time>2012-05-06T08:43:21Z</time>
      </trkpt>
      <trkpt lat="43.39491" lon="6.4551">
        <ele>1251.2932129</ele>
        <time>2012-05-06T08:43:28Z</time>
      </trkpt>
      <trkpt lat="43.39553" lon="6.45506">
        <ele>1250.3320313</ele>
        <time>2012-05-06T08:43:41Z</time>
      </trkpt>
      <trkpt lat="43.3958" lon="6.45518">
        <ele>1250.8125</ele>
        <time>2012-05-06T08:43:50Z</time>
      </trkpt>
      <trkpt lat="43.39595" lon="6.45526">
        <ele>1250.3320313</ele>
        <time>2012-05-06T08:43:58Z</time>
      </trkpt>
      <trkpt lat="43.39606" lon="6.45524">
        <ele>1250.8125</ele>
        <time>2012-05-06T08:44:14Z</time>
      </trkpt>
      <trkpt lat="43.39607" lon="6.45524">
        <ele>1250.8125</ele>
        <time>2012-05-06T08:44:50Z</time>
      </trkpt>
      <trkpt lat="43.39606" lon="6.45525">
        <ele>1250.8125</ele>
        <time>2012-05-06T08:49:05Z</time>
      </trkpt>
      <trkpt lat="43.39624" lon="6.45557">
        <ele>1252.7351074</ele>
        <time>2012-05-06T08:49:19Z</time>
      </trkpt>
      <trkpt lat="43.39646" lon="6.45576">
        <ele>1255.1384277</ele>
        <time>2012-05-06T08:49:30Z</time>
      </trkpt>
      <trkpt lat="43.3967" lon="6.456">
        <ele>1255.6191406</ele>
        <time>2012-05-06T08:49:42Z</time>
      </trkpt>
      <trkpt lat="43.39704" lon="6.4563">
        <ele>1255.6191406</ele>
        <time>2012-05-06T08:49:58Z</time>
      </trkpt>
      <trkpt lat="43.39709" lon="6.45635">
        <ele>1257.541748</ele>
        <time>2012-05-06T08:50:02Z</time>
      </trkpt>
      <trkpt lat="43.39714" lon="6.45648">
        <ele>1258.0224609</ele>
        <time>2012-05-06T08:50:07Z</time>
      </trkpt>
      <trkpt lat="43.39731" lon="6.45679">
        <ele>1258.9836426</ele>
        <time>2012-05-06T08:50:18Z</time>
      </trkpt>
      <trkpt lat="43.39738" lon="6.45682">
        <ele>1259.4643555</ele>
        <time>2012-05-06T08:50:22Z</time>
      </trkpt>
      <trkpt lat="43.39755" lon="6.45703">
        <ele>1260.9064941</ele>
        <time>2012-05-06T08:50:33Z</time>
      </trkpt>
      <trkpt lat="43.39772" lon="6.45732">
        <ele>1261.8679199</ele>
        <time>2012-05-06T08:50:45Z</time>
      </trkpt>
      <trkpt lat="43.39788" lon="6.45759">
        <ele>1265.2324219</ele>
        <time>2012-05-06T08:50:58Z</time>
      </trkpt>
      <trkpt lat="43.39792" lon="6.45768">
        <ele>1266.6743164</ele>
        <time>2012-05-06T08:51:12Z</time>
      </trkpt>
      <trkpt lat="43.39793" lon="6.45771">
        <ele>1267.1550293</ele>
        <time>2012-05-06T08:52:25Z</time>
      </trkpt>
      <trkpt lat="43.39793" lon="6.45771">
        <ele>1267.1550293</ele>
        <time>2012-05-06T08:52:29Z</time>
      </trkpt>
      <trkpt lat="43.39803" lon="6.45793">
        <ele>1267.635498</ele>
        <time>2012-05-06T08:52:40Z</time>
      </trkpt>
      <trkpt lat="43.39818" lon="6.45819">
        <ele>1265.7131348</ele>
        <time>2012-05-06T08:52:49Z</time>
      </trkpt>
      <trkpt lat="43.39828" lon="6.45833">
        <ele>1264.2709961</ele>
        <time>2012-05-06T08:52:54Z</time>
      </trkpt>
      <trkpt lat="43.39849" lon="6.45836">
        <ele>1260.9064941</ele>
        <time>2012-05-06T08:53:05Z</time>
      </trkpt>
      <trkpt lat="43.3985" lon="6.45835">
        <ele>1259.9448242</ele>
        <time>2012-05-06T08:53:13Z</time>
      </trkpt>
      <trkpt lat="43.39854" lon="6.45834">
        <ele>1258.9836426</ele>
        <time>2012-05-06T08:53:16Z</time>
      </trkpt>
      <trkpt lat="43.39855" lon="6.45833">
        <ele>1258.9836426</ele>
        <time>2012-05-06T08:53:18Z</time>
      </trkpt>
      <trkpt lat="43.39865" lon="6.45828">
        <ele>1255.1384277</ele>
        <time>2012-05-06T08:53:25Z</time>
      </trkpt>
      <trkpt lat="43.39868" lon="6.45829">
        <ele>1253.6965332</ele>
        <time>2012-05-06T08:53:27Z</time>
      </trkpt>
      <trkpt lat="43.39876" lon="6.45826">
        <ele>1249.8513184</ele>
        <time>2012-05-06T08:53:31Z</time>
      </trkpt>
      <trkpt lat="43.39887" lon="6.45817">
        <ele>1248.8898926</ele>
        <time>2012-05-06T08:53:38Z</time>
      </trkpt>
      <trkpt lat="43.39894" lon="6.45819">
        <ele>1250.3320313</ele>
        <time>2012-05-06T08:53:44Z</time>
      </trkpt>
      <trkpt lat="43.39898" lon="6.45818">
        <ele>1250.8125</ele>
        <time>2012-05-06T08:53:48Z</time>
      </trkpt>
      <trkpt lat="43.39904" lon="6.45821">
        <ele>1252.2543945</ele>
        <time>2012-05-06T08:53:55Z</time>
      </trkpt>
      <trkpt lat="43.39912" lon="6.45837">
        <ele>1254.6577148</ele>
        <time>2012-05-06T08:54:10Z</time>
      </trkpt>
      <trkpt lat="43.39915" lon="6.45842">
        <ele>1255.1384277</ele>
        <time>2012-05-06T08:54:14Z</time>
      </trkpt>
      <trkpt lat="43.39925" lon="6.45859">
        <ele>1256.5803223</ele>
        <time>2012-05-06T08:54:28Z</time>
      </trkpt>
      <trkpt lat="43.3994" lon="6.45889">
        <ele>1257.541748</ele>
        <time>2012-05-06T08:54:39Z</time>
      </trkpt>
      <trkpt lat="43.39947" lon="6.45932">
        <ele>1258.5029297</ele>
        <time>2012-05-06T08:54:50Z</time>
      </trkpt>
      <trkpt lat="43.39946" lon="6.45936">
        <ele>1258.9836426</ele>
        <time>2012-05-06T08:54:52Z</time>
      </trkpt>
      <trkpt lat="43.39957" lon="6.45952">
        <ele>1261.387207</ele>
        <time>2012-05-06T08:55:02Z</time>
      </trkpt>
      <trkpt lat="43.39977" lon="6.45983">
        <ele>1262.3483887</ele>
        <time>2012-05-06T08:55:15Z</time>
      </trkpt>
      <trkpt lat="43.39989" lon="6.46001">
        <ele>1264.751709</ele>
        <time>2012-05-06T08:55:26Z</time>
      </trkpt>
      <trkpt lat="43.39991" lon="6.46004">
        <ele>1265.2324219</ele>
        <time>2012-05-06T08:55:28Z</time>
      </trkpt>
      <trkpt lat="43.40003" lon="6.46013">
        <ele>1266.6743164</ele>
        <time>2012-05-06T08:55:36Z</time>
      </trkpt>
      <trkpt lat="43.40031" lon="6.46016">
        <ele>1268.1162109</ele>
        <time>2012-05-06T08:55:49Z</time>
      </trkpt>
      <trkpt lat="43.40048" lon="6.46023">
        <ele>1266.1936035</ele>
        <time>2012-05-06T08:55:54Z</time>
      </trkpt>
      <trkpt lat="43.40056" lon="6.46033">
        <ele>1264.751709</ele>
        <time>2012-05-06T08:55:57Z</time>
      </trkpt>
      <trkpt lat="43.40073" lon="6.46034">
        <ele>1261.387207</ele>
        <time>2012-05-06T08:56:01Z</time>
      </trkpt>
      <trkpt lat="43.40078" lon="6.46032">
        <ele>1261.8679199</ele>
        <time>2012-05-06T08:56:02Z</time>
      </trkpt>
      <trkpt lat="43.40084" lon="6.46029">
        <ele>1262.8291016</ele>
        <time>2012-05-06T08:56:04Z</time>
      </trkpt>
      <trkpt lat="43.401" lon="6.46022">
        <ele>1262.3483887</ele>
        <time>2012-05-06T08:56:12Z</time>
      </trkpt>
      <trkpt lat="43.40115" lon="6.46027">
        <ele>1259.9448242</ele>
        <time>2012-05-06T08:56:18Z</time>
      </trkpt>
      <trkpt lat="43.40126" lon="6.46041">
        <ele>1258.0224609</ele>
        <time>2012-05-06T08:56:24Z</time>
      </trkpt>
      <trkpt lat="43.40147" lon="6.4607">
        <ele>1256.0996094</ele>
        <time>2012-05-06T08:56:32Z</time>
      </trkpt>
      <trkpt lat="43.40164" lon="6.46093">
        <ele>1253.6965332</ele>
        <time>2012-05-06T08:56:39Z</time>
      </trkpt>
      <trkpt lat="43.40162" lon="6.46117">
        <ele>1251.7739258</ele>
        <time>2012-05-06T08:56:48Z</time>
      </trkpt>
      <trkpt lat="43.4018" lon="6.46115">
        <ele>1250.3320313</ele>
        <time>2012-05-06T08:56:57Z</time>
      </trkpt>
      <trkpt lat="43.40194" lon="6.46128">
        <ele>1250.3320313</ele>
        <time>2012-05-06T08:57:05Z</time>
      </trkpt>
      <trkpt lat="43.40213" lon="6.46155">
        <ele>1247.9287109</ele>
        <time>2012-05-06T08:57:13Z</time>
      </trkpt>
      <trkpt lat="43.40217" lon="6.4616">
        <ele>1246.9672852</ele>
        <time>2012-05-06T08:57:15Z</time>
      </trkpt>
      <trkpt lat="43.40232" lon="6.46156">
        <ele>1247.447998</ele>
        <time>2012-05-06T08:57:26Z</time>
      </trkpt>
      <trkpt lat="43.40233" lon="6.46155">
        <ele>1247.447998</ele>
        <time>2012-05-06T08:57:27Z</time>
      </trkpt>
      <trkpt lat="43.4025" lon="6.46158">
        <ele>1245.0446777</ele>
        <time>2012-05-06T08:57:33Z</time>
      </trkpt>
      <trkpt lat="43.40269" lon="6.46122">
        <ele>1245.0446777</ele>
        <time>2012-05-06T08:57:43Z</time>
      </trkpt>
      <trkpt lat="43.4029" lon="6.46065">
        <ele>1245.0446777</ele>
        <time>2012-05-06T08:57:57Z</time>
      </trkpt>
      <trkpt lat="43.40299" lon="6.46029">
        <ele>1245.5253906</ele>
        <time>2012-05-06T08:58:06Z</time>
      </trkpt>
      <trkpt lat="43.40319" lon="6.45991">
        <ele>1245.5253906</ele>
        <time>2012-05-06T08:58:18Z</time>
      </trkpt>
      <trkpt lat="43.40323" lon="6.45973">
        <ele>1246.0061035</ele>
        <time>2012-05-06T08:58:23Z</time>
      </trkpt>
      <trkpt lat="43.40321" lon="6.45963">
        <ele>1246.0061035</ele>
        <time>2012-05-06T08:58:27Z</time>
      </trkpt>
      <trkpt lat="43.40314" lon="6.4595">
        <ele>1246.0061035</ele>
        <time>2012-05-06T08:58:31Z</time>
      </trkpt>
      <trkpt lat="43.40321" lon="6.4592">
        <ele>1246.0061035</ele>
        <time>2012-05-06T08:58:39Z</time>
      </trkpt>
      <trkpt lat="43.40324" lon="6.45915">
        <ele>1246.9672852</ele>
        <time>2012-05-06T08:58:41Z</time>
      </trkpt>
      <trkpt lat="43.40322" lon="6.45875">
        <ele>1245.5253906</ele>
        <time>2012-05-06T08:58:53Z</time>
      </trkpt>
      <trkpt lat="43.4031" lon="6.4584">
        <ele>1245.5253906</ele>
        <time>2012-05-06T08:59:01Z</time>
      </trkpt>
      <trkpt lat="43.40293" lon="6.45815">
        <ele>1246.9672852</ele>
        <time>2012-05-06T08:59:13Z</time>
      </trkpt>
      <trkpt lat="43.40293" lon="6.458">
        <ele>1247.447998</ele>
        <time>2012-05-06T08:59:18Z</time>
      </trkpt>
      <trkpt lat="43.40286" lon="6.45765">
        <ele>1247.447998</ele>
        <time>2012-05-06T08:59:30Z</time>
      </trkpt>
      <trkpt lat="43.40285" lon="6.45761">
        <ele>1247.447998</ele>
        <time>2012-05-06T08:59:32Z</time>
      </trkpt>
      <trkpt lat="43.40287" lon="6.45751">
        <ele>1246.9672852</ele>
        <time>2012-05-06T08:59:37Z</time>
      </trkpt>
      <trkpt lat="43.40275" lon="6.45742">
        <ele>1247.447998</ele>
        <time>2012-05-06T08:59:46Z</time>
      </trkpt>
      <trkpt lat="43.40275" lon="6.45738">
        <ele>1247.9287109</ele>
        <time>2012-05-06T08:59:50Z</time>
      </trkpt>
      <trkpt lat="43.40269" lon="6.45733">
        <ele>1247.447998</ele>
        <time>2012-05-06T08:59:54Z</time>
      </trkpt>
      <trkpt lat="43.4026" lon="6.4573">
        <ele>1249.3706055</ele>
        <time>2012-05-06T08:59:59Z</time>
      </trkpt>
      <trkpt lat="43.40266" lon="6.45709">
        <ele>1248.8898926</ele>
        <time>2012-05-06T09:00:08Z</time>
      </trkpt>
      <trkpt lat="43.40276" lon="6.45674">
        <ele>1245.5253906</ele>
        <time>2012-05-06T09:00:19Z</time>
      </trkpt>
      <trkpt lat="43.40279" lon="6.45672">
        <ele>1244.5639648</ele>
        <time>2012-05-06T09:00:20Z</time>
      </trkpt>
      <trkpt lat="43.4028" lon="6.45655">
        <ele>1244.5639648</ele>
        <time>2012-05-06T09:00:24Z</time>
      </trkpt>
      <trkpt lat="43.40269" lon="6.45601">
        <ele>1245.5253906</ele>
        <time>2012-05-06T09:00:39Z</time>
      </trkpt>
      <trkpt lat="43.40246" lon="6.45584">
        <ele>1246.4868164</ele>
        <time>2012-05-06T09:00:49Z</time>
      </trkpt>
      <trkpt lat="43.40222" lon="6.45555">
        <ele>1246.9672852</ele>
        <time>2012-05-06T09:01:01Z</time>
      </trkpt>
      <trkpt lat="43.40185" lon="6.45543">
        <ele>1245.5253906</ele>
        <time>2012-05-06T09:01:14Z</time>
      </trkpt>
      <trkpt lat="43.40167" lon="6.45527">
        <ele>1245.5253906</ele>
        <time>2012-05-06T09:01:18Z</time>
      </trkpt>
      <trkpt lat="43.40153" lon="6.4552">
        <ele>1245.5253906</ele>
        <time>2012-05-06T09:01:22Z</time>
      </trkpt>
      <trkpt lat="43.40123" lon="6.45506">
        <ele>1246.4868164</ele>
        <time>2012-05-06T09:01:32Z</time>
      </trkpt>
      <trkpt lat="43.40108" lon="6.45475">
        <ele>1245.5253906</ele>
        <time>2012-05-06T09:01:42Z</time>
      </trkpt>
      <trkpt lat="43.40112" lon="6.45442">
        <ele>1245.5253906</ele>
        <time>2012-05-06T09:01:53Z</time>
      </trkpt>
      <trkpt lat="43.40119" lon="6.45432">
        <ele>1245.5253906</ele>
        <time>2012-05-06T09:01:58Z</time>
      </trkpt>
      <trkpt lat="43.40125" lon="6.45417">
        <ele>1245.0446777</ele>
        <time>2012-05-06T09:02:03Z</time>
      </trkpt>
      <trkpt lat="43.40137" lon="6.45366">
        <ele>1245.0446777</ele>
        <time>2012-05-06T09:02:18Z</time>
      </trkpt>
      <trkpt lat="43.40151" lon="6.45318">
        <ele>1246.0061035</ele>
        <time>2012-05-06T09:02:31Z</time>
      </trkpt>
      <trkpt lat="43.40156" lon="6.45277">
        <ele>1247.9287109</ele>
        <time>2012-05-06T09:02:43Z</time>
      </trkpt>
      <trkpt lat="43.40184" lon="6.45243">
        <ele>1246.9672852</ele>
        <time>2012-05-06T09:02:55Z</time>
      </trkpt>
      <trkpt lat="43.40212" lon="6.45218">
        <ele>1246.9672852</ele>
        <time>2012-05-06T09:03:05Z</time>
      </trkpt>
      <trkpt lat="43.4025" lon="6.45241">
        <ele>1246.9672852</ele>
        <time>2012-05-06T09:03:16Z</time>
      </trkpt>
      <trkpt lat="43.40277" lon="6.45244">
        <ele>1246.0061035</ele>
        <time>2012-05-06T09:03:26Z</time>
      </trkpt>
      <trkpt lat="43.40279" lon="6.45238">
        <ele>1245.5253906</ele>
        <time>2012-05-06T09:03:27Z</time>
      </trkpt>
      <trkpt lat="43.40283" lon="6.45225">
        <ele>1244.5639648</ele>
        <time>2012-05-06T09:03:29Z</time>
      </trkpt>
      <trkpt lat="43.40284" lon="6.45218">
        <ele>1243.6025391</ele>
        <time>2012-05-06T09:03:30Z</time>
      </trkpt>
      <trkpt lat="43.40278" lon="6.45176">
        <ele>1243.6025391</ele>
        <time>2012-05-06T09:03:41Z</time>
      </trkpt>
      <trkpt lat="43.40272" lon="6.45167">
        <ele>1243.6025391</ele>
        <time>2012-05-06T09:03:55Z</time>
      </trkpt>
      <trkpt lat="43.4027" lon="6.45152">
        <ele>1245.0446777</ele>
        <time>2012-05-06T09:04:19Z</time>
      </trkpt>
      <trkpt lat="43.40269" lon="6.45149">
        <ele>1245.0446777</ele>
        <time>2012-05-06T09:04:40Z</time>
      </trkpt>
      <trkpt lat="43.40264" lon="6.45137">
        <ele>1245.5253906</ele>
        <time>2012-05-06T09:06:37Z</time>
      </trkpt>
      <trkpt lat="43.4026" lon="6.4512">
        <ele>1246.0061035</ele>
        <time>2012-05-06T09:06:43Z</time>
      </trkpt>
      <trkpt lat="43.40248" lon="6.4508">
        <ele>1247.447998</ele>
        <time>2012-05-06T09:06:55Z</time>
      </trkpt>
      <trkpt lat="43.40252" lon="6.45057">
        <ele>1249.3706055</ele>
        <time>2012-05-06T09:07:02Z</time>
      </trkpt>
      <trkpt lat="43.40269" lon="6.45054">
        <ele>1249.3706055</ele>
        <time>2012-05-06T09:07:13Z</time>
      </trkpt>
      <trkpt lat="43.40274" lon="6.45063">
        <ele>1248.4091797</ele>
        <time>2012-05-06T09:07:15Z</time>
      </trkpt>
      <trkpt lat="43.40276" lon="6.45075">
        <ele>1248.4091797</ele>
        <time>2012-05-06T09:07:17Z</time>
      </trkpt>
      <trkpt lat="43.403" lon="6.45143">
        <ele>1248.4091797</ele>
        <time>2012-05-06T09:07:31Z</time>
      </trkpt>
      <trkpt lat="43.40337" lon="6.45174">
        <ele>1248.4091797</ele>
        <time>2012-05-06T09:07:44Z</time>
      </trkpt>
      <trkpt lat="43.4034" lon="6.45174">
        <ele>1248.4091797</ele>
        <time>2012-05-06T09:07:45Z</time>
      </trkpt>
      <trkpt lat="43.4036" lon="6.45205">
        <ele>1247.9287109</ele>
        <time>2012-05-06T09:07:54Z</time>
      </trkpt>
      <trkpt lat="43.40367" lon="6.45266">
        <ele>1248.4091797</ele>
        <time>2012-05-06T09:08:06Z</time>
      </trkpt>
      <trkpt lat="43.40389" lon="6.45301">
        <ele>1247.9287109</ele>
        <time>2012-05-06T09:08:14Z</time>
      </trkpt>
      <trkpt lat="43.40394" lon="6.45325">
        <ele>1247.9287109</ele>
        <time>2012-05-06T09:08:19Z</time>
      </trkpt>
      <trkpt lat="43.40413" lon="6.45366">
        <ele>1249.3706055</ele>
        <time>2012-05-06T09:08:30Z</time>
      </trkpt>
      <trkpt lat="43.4042" lon="6.45391">
        <ele>1250.8125</ele>
        <time>2012-05-06T09:08:40Z</time>
      </trkpt>
      <trkpt lat="43.40414" lon="6.45416">
        <ele>1252.2543945</ele>
        <time>2012-05-06T09:08:52Z</time>
      </trkpt>
      <trkpt lat="43.40415" lon="6.45417">
        <ele>1251.7739258</ele>
        <time>2012-05-06T09:09:40Z</time>
      </trkpt>
      <trkpt lat="43.40401" lon="6.45441">
        <ele>1249.3706055</ele>
        <time>2012-05-06T09:09:47Z</time>
      </trkpt>
      <trkpt lat="43.40383" lon="6.45449">
        <ele>1246.9672852</ele>
        <time>2012-05-06T09:09:52Z</time>
      </trkpt>
      <trkpt lat="43.40375" lon="6.45451">
        <ele>1246.4868164</ele>
        <time>2012-05-06T09:09:54Z</time>
      </trkpt>
      <trkpt lat="43.40367" lon="6.45474">
        <ele>1245.5253906</ele>
        <time>2012-05-06T09:10:00Z</time>
      </trkpt>
      <trkpt lat="43.40367" lon="6.45482">
        <ele>1245.5253906</ele>
        <time>2012-05-06T09:10:04Z</time>
      </trkpt>
      <trkpt lat="43.40363" lon="6.45525">
        <ele>1246.0061035</ele>
        <time>2012-05-06T09:10:15Z</time>
      </trkpt>
      <trkpt lat="43.40365" lon="6.45554">
        <ele>1246.4868164</ele>
        <time>2012-05-06T09:10:21Z</time>
      </trkpt>
      <trkpt lat="43.40364" lon="6.45569">
        <ele>1246.4868164</ele>
        <time>2012-05-06T09:10:32Z</time>
      </trkpt>
      <trkpt lat="43.40363" lon="6.45596">
        <ele>1246.9672852</ele>
        <time>2012-05-06T09:10:42Z</time>
      </trkpt>
      <trkpt lat="43.40362" lon="6.45613">
        <ele>1246.9672852</ele>
        <time>2012-05-06T09:10:53Z</time>
      </trkpt>
      <trkpt lat="43.40362" lon="6.45647">
        <ele>1246.4868164</ele>
        <time>2012-05-06T09:11:02Z</time>
      </trkpt>
      <trkpt lat="43.40361" lon="6.45656">
        <ele>1246.4868164</ele>
        <time>2012-05-06T09:11:04Z</time>
      </trkpt>
      <trkpt lat="43.40356" lon="6.45717">
        <ele>1245.5253906</ele>
        <time>2012-05-06T09:11:16Z</time>
      </trkpt>
      <trkpt lat="43.40356" lon="6.45727">
        <ele>1245.5253906</ele>
        <time>2012-05-06T09:11:18Z</time>
      </trkpt>
      <trkpt lat="43.40352" lon="6.45754">
        <ele>1246.0061035</ele>
        <time>2012-05-06T09:11:23Z</time>
      </trkpt>
      <trkpt lat="43.40365" lon="6.45796">
        <ele>1245.5253906</ele>
        <time>2012-05-06T09:11:31Z</time>
      </trkpt>
      <trkpt lat="43.40373" lon="6.45822">
        <ele>1246.0061035</ele>
        <time>2012-05-06T09:11:36Z</time>
      </trkpt>
      <trkpt lat="43.40392" lon="6.4588">
        <ele>1246.0061035</ele>
        <time>2012-05-06T09:11:48Z</time>
      </trkpt>
      <trkpt lat="43.40415" lon="6.45926">
        <ele>1246.4868164</ele>
        <time>2012-05-06T09:12:00Z</time>
      </trkpt>
      <trkpt lat="43.40434" lon="6.45979">
        <ele>1246.4868164</ele>
        <time>2012-05-06T09:12:13Z</time>
      </trkpt>
      <trkpt lat="43.4044" lon="6.4598">
        <ele>1247.447998</ele>
        <time>2012-05-06T09:12:17Z</time>
      </trkpt>
      <trkpt lat="43.40445" lon="6.45981">
        <ele>1244.5639648</ele>
        <time>2012-05-06T09:12:27Z</time>
      </trkpt>
      <trkpt lat="43.40445" lon="6.45981">
        <ele>1247.9287109</ele>
        <time>2012-05-06T09:12:28Z</time>
      </trkpt>
      <trkpt lat="43.40447" lon="6.4598">
        <ele>1248.4091797</ele>
        <time>2012-05-06T09:18:36Z</time>
      </trkpt>
      <trkpt lat="43.40483" lon="6.45987">
        <ele>1250.3320313</ele>
        <time>2012-05-06T09:18:50Z</time>
      </trkpt>
      <trkpt lat="43.40505" lon="6.46001">
        <ele>1252.2543945</ele>
        <time>2012-05-06T09:19:01Z</time>
      </trkpt>
      <trkpt lat="43.40524" lon="6.46026">
        <ele>1254.6577148</ele>
        <time>2012-05-06T09:19:13Z</time>
      </trkpt>
      <trkpt lat="43.40548" lon="6.46053">
        <ele>1256.5803223</ele>
        <time>2012-05-06T09:19:28Z</time>
      </trkpt>
      <trkpt lat="43.4055" lon="6.46054">
        <ele>1257.0610352</ele>
        <time>2012-05-06T09:19:29Z</time>
      </trkpt>
      <trkpt lat="43.40552" lon="6.46043">
        <ele>1258.0224609</ele>
        <time>2012-05-06T09:19:36Z</time>
      </trkpt>
      <trkpt lat="43.40543" lon="6.46002">
        <ele>1258.5029297</ele>
        <time>2012-05-06T09:19:49Z</time>
      </trkpt>
      <trkpt lat="43.40545" lon="6.45953">
        <ele>1261.387207</ele>
        <time>2012-05-06T09:20:03Z</time>
      </trkpt>
      <trkpt lat="43.40567" lon="6.45921">
        <ele>1263.3098145</ele>
        <time>2012-05-06T09:20:16Z</time>
      </trkpt>
      <trkpt lat="43.40579" lon="6.45883">
        <ele>1259.9448242</ele>
        <time>2012-05-06T09:20:24Z</time>
      </trkpt>
      <trkpt lat="43.40585" lon="6.45861">
        <ele>1258.9836426</ele>
        <time>2012-05-06T09:20:27Z</time>
      </trkpt>
      <trkpt lat="43.40589" lon="6.45831">
        <ele>1258.0224609</ele>
        <time>2012-05-06T09:20:31Z</time>
      </trkpt>
      <trkpt lat="43.40601" lon="6.458">
        <ele>1258.0224609</ele>
        <time>2012-05-06T09:20:36Z</time>
      </trkpt>
      <trkpt lat="43.40619" lon="6.45806">
        <ele>1258.9836426</ele>
        <time>2012-05-06T09:20:43Z</time>
      </trkpt>
      <trkpt lat="43.40645" lon="6.45854">
        <ele>1260.9064941</ele>
        <time>2012-05-06T09:20:58Z</time>
      </trkpt>
      <trkpt lat="43.40673" lon="6.4588">
        <ele>1262.8291016</ele>
        <time>2012-05-06T09:21:12Z</time>
      </trkpt>
      <trkpt lat="43.40699" lon="6.45907">
        <ele>1264.751709</ele>
        <time>2012-05-06T09:21:26Z</time>
      </trkpt>
      <trkpt lat="43.40712" lon="6.45916">
        <ele>1265.7131348</ele>
        <time>2012-05-06T09:21:33Z</time>
      </trkpt>
      <trkpt lat="43.40718" lon="6.45927">
        <ele>1266.6743164</ele>
        <time>2012-05-06T09:21:38Z</time>
      </trkpt>
      <trkpt lat="43.40711" lon="6.45963">
        <ele>1268.1162109</ele>
        <time>2012-05-06T09:21:53Z</time>
      </trkpt>
      <trkpt lat="43.40709" lon="6.45992">
        <ele>1269.5583496</ele>
        <time>2012-05-06T09:22:05Z</time>
      </trkpt>
      <trkpt lat="43.40709" lon="6.45998">
        <ele>1270.0388184</ele>
        <time>2012-05-06T09:22:07Z</time>
      </trkpt>
      <trkpt lat="43.40716" lon="6.46033">
        <ele>1271.0002441</ele>
        <time>2012-05-06T09:22:23Z</time>
      </trkpt>
      <trkpt lat="43.40747" lon="6.46055">
        <ele>1268.1162109</ele>
        <time>2012-05-06T09:22:33Z</time>
      </trkpt>
      <trkpt lat="43.40765" lon="6.46066">
        <ele>1267.635498</ele>
        <time>2012-05-06T09:22:38Z</time>
      </trkpt>
      <trkpt lat="43.40773" lon="6.46061">
        <ele>1268.1162109</ele>
        <time>2012-05-06T09:22:42Z</time>
      </trkpt>
      <trkpt lat="43.40791" lon="6.46036">
        <ele>1268.5969238</ele>
        <time>2012-05-06T09:22:54Z</time>
      </trkpt>
      <trkpt lat="43.40794" lon="6.46046">
        <ele>1269.0776367</ele>
        <time>2012-05-06T09:22:59Z</time>
      </trkpt>
      <trkpt lat="43.40791" lon="6.46056">
        <ele>1269.0776367</ele>
        <time>2012-05-06T09:23:03Z</time>
      </trkpt>
      <trkpt lat="43.40789" lon="6.46102">
        <ele>1266.6743164</ele>
        <time>2012-05-06T09:23:14Z</time>
      </trkpt>
      <trkpt lat="43.40819" lon="6.46132">
        <ele>1265.7131348</ele>
        <time>2012-05-06T09:23:24Z</time>
      </trkpt>
      <trkpt lat="43.40823" lon="6.46172">
        <ele>1266.1936035</ele>
        <time>2012-05-06T09:23:34Z</time>
      </trkpt>
      <trkpt lat="43.40832" lon="6.46211">
        <ele>1267.1550293</ele>
        <time>2012-05-06T09:23:45Z</time>
      </trkpt>
      <trkpt lat="43.40834" lon="6.46251">
        <ele>1266.1936035</ele>
        <time>2012-05-06T09:23:54Z</time>
      </trkpt>
      <trkpt lat="43.40872" lon="6.46267">
        <ele>1265.7131348</ele>
        <time>2012-05-06T09:24:07Z</time>
      </trkpt>
      <trkpt lat="43.40887" lon="6.46269">
        <ele>1265.2324219</ele>
        <time>2012-05-06T09:24:12Z</time>
      </trkpt>
      <trkpt lat="43.40899" lon="6.46301">
        <ele>1265.7131348</ele>
        <time>2012-05-06T09:24:22Z</time>
      </trkpt>
      <trkpt lat="43.40908" lon="6.46306">
        <ele>1266.1936035</ele>
        <time>2012-05-06T09:24:26Z</time>
      </trkpt>
      <trkpt lat="43.40948" lon="6.46338">
        <ele>1267.1550293</ele>
        <time>2012-05-06T09:24:42Z</time>
      </trkpt>
      <trkpt lat="43.40979" lon="6.46371">
        <ele>1269.0776367</ele>
        <time>2012-05-06T09:24:55Z</time>
      </trkpt>
      <trkpt lat="43.41022" lon="6.464">
        <ele>1267.635498</ele>
        <time>2012-05-06T09:25:09Z</time>
      </trkpt>
      <trkpt lat="43.41049" lon="6.46432">
        <ele>1269.0776367</ele>
        <time>2012-05-06T09:25:22Z</time>
      </trkpt>
      <trkpt lat="43.41071" lon="6.46451">
        <ele>1271.4807129</ele>
        <time>2012-05-06T09:25:36Z</time>
      </trkpt>
      <trkpt lat="43.41101" lon="6.46456">
        <ele>1272.9228516</ele>
        <time>2012-05-06T09:25:50Z</time>
      </trkpt>
      <trkpt lat="43.41131" lon="6.46475">
        <ele>1274.3647461</ele>
        <time>2012-05-06T09:26:06Z</time>
      </trkpt>
      <trkpt lat="43.41159" lon="6.46488">
        <ele>1275.3259277</ele>
        <time>2012-05-06T09:26:19Z</time>
      </trkpt>
      <trkpt lat="43.41181" lon="6.46488">
        <ele>1276.7683105</ele>
        <time>2012-05-06T09:26:28Z</time>
      </trkpt>
      <trkpt lat="43.41208" lon="6.46483">
        <ele>1278.690918</ele>
        <time>2012-05-06T09:26:43Z</time>
      </trkpt>
      <trkpt lat="43.41236" lon="6.46487">
        <ele>1278.690918</ele>
        <time>2012-05-06T09:26:54Z</time>
      </trkpt>
      <trkpt lat="43.4127" lon="6.46487">
        <ele>1278.2102051</ele>
        <time>2012-05-06T09:27:06Z</time>
      </trkpt>
      <trkpt lat="43.41302" lon="6.465">
        <ele>1278.2102051</ele>
        <time>2012-05-06T09:27:18Z</time>
      </trkpt>
      <trkpt lat="43.41308" lon="6.46527">
        <ele>1279.1713867</ele>
        <time>2012-05-06T09:27:25Z</time>
      </trkpt>
      <trkpt lat="43.41346" lon="6.46539">
        <ele>1279.6520996</ele>
        <time>2012-05-06T09:27:38Z</time>
      </trkpt>
      <trkpt lat="43.41361" lon="6.46537">
        <ele>1280.1328125</ele>
        <time>2012-05-06T09:27:43Z</time>
      </trkpt>
      <trkpt lat="43.41373" lon="6.46544">
        <ele>1278.2102051</ele>
        <time>2012-05-06T09:27:47Z</time>
      </trkpt>
      <trkpt lat="43.4141" lon="6.46561">
        <ele>1277.2490234</ele>
        <time>2012-05-06T09:27:58Z</time>
      </trkpt>
      <trkpt lat="43.41439" lon="6.46588">
        <ele>1279.1713867</ele>
        <time>2012-05-06T09:28:09Z</time>
      </trkpt>
      <trkpt lat="43.41443" lon="6.46592">
        <ele>1279.6520996</ele>
        <time>2012-05-06T09:28:11Z</time>
      </trkpt>
      <trkpt lat="43.41463" lon="6.46607">
        <ele>1282.0554199</ele>
        <time>2012-05-06T09:28:22Z</time>
      </trkpt>
      <trkpt lat="43.41486" lon="6.46612">
        <ele>1283.4973145</ele>
        <time>2012-05-06T09:28:32Z</time>
      </trkpt>
      <trkpt lat="43.41515" lon="6.46598">
        <ele>1283.4973145</ele>
        <time>2012-05-06T09:28:46Z</time>
      </trkpt>
      <trkpt lat="43.41535" lon="6.46568">
        <ele>1281.574707</ele>
        <time>2012-05-06T09:28:54Z</time>
      </trkpt>
      <trkpt lat="43.41552" lon="6.46536">
        <ele>1281.574707</ele>
        <time>2012-05-06T09:29:01Z</time>
      </trkpt>
      <trkpt lat="43.41577" lon="6.46505">
        <ele>1282.0554199</ele>
        <time>2012-05-06T09:29:10Z</time>
      </trkpt>
      <trkpt lat="43.41581" lon="6.46505">
        <ele>1282.5361328</ele>
        <time>2012-05-06T09:29:12Z</time>
      </trkpt>
      <trkpt lat="43.41612" lon="6.46515">
        <ele>1283.9780273</ele>
        <time>2012-05-06T09:29:24Z</time>
      </trkpt>
      <trkpt lat="43.41616" lon="6.46546">
        <ele>1283.4973145</ele>
        <time>2012-05-06T09:29:32Z</time>
      </trkpt>
      <trkpt lat="43.41617" lon="6.46632">
        <ele>1281.0942383</ele>
        <time>2012-05-06T09:29:46Z</time>
      </trkpt>
      <trkpt lat="43.41608" lon="6.46668">
        <ele>1278.2102051</ele>
        <time>2012-05-06T09:29:51Z</time>
      </trkpt>
      <trkpt lat="43.41588" lon="6.46708">
        <ele>1274.845459</ele>
        <time>2012-05-06T09:29:57Z</time>
      </trkpt>
      <trkpt lat="43.41584" lon="6.46738">
        <ele>1271.9614258</ele>
        <time>2012-05-06T09:30:00Z</time>
      </trkpt>
      <trkpt lat="43.41571" lon="6.46787">
        <ele>1271.4807129</ele>
        <time>2012-05-06T09:30:05Z</time>
      </trkpt>
      <trkpt lat="43.41564" lon="6.46823">
        <ele>1269.5583496</ele>
        <time>2012-05-06T09:30:10Z</time>
      </trkpt>
      <trkpt lat="43.41568" lon="6.4684">
        <ele>1271.4807129</ele>
        <time>2012-05-06T09:30:13Z</time>
      </trkpt>
      <trkpt lat="43.41567" lon="6.46852">
        <ele>1270.0388184</ele>
        <time>2012-05-06T09:30:16Z</time>
      </trkpt>
      <trkpt lat="43.41562" lon="6.46871">
        <ele>1269.0776367</ele>
        <time>2012-05-06T09:30:20Z</time>
      </trkpt>
      <trkpt lat="43.41589" lon="6.469">
        <ele>1270.5195313</ele>
        <time>2012-05-06T09:30:32Z</time>
      </trkpt>
      <trkpt lat="43.41613" lon="6.46873">
        <ele>1271.9614258</ele>
        <time>2012-05-06T09:30:43Z</time>
      </trkpt>
      <trkpt lat="43.41626" lon="6.46843">
        <ele>1271.9614258</ele>
        <time>2012-05-06T09:30:50Z</time>
      </trkpt>
      <trkpt lat="43.41645" lon="6.46805">
        <ele>1271.4807129</ele>
        <time>2012-05-06T09:30:58Z</time>
      </trkpt>
      <trkpt lat="43.41651" lon="6.46789">
        <ele>1271.0002441</ele>
        <time>2012-05-06T09:31:01Z</time>
      </trkpt>
      <trkpt lat="43.41663" lon="6.46764">
        <ele>1270.5195313</ele>
        <time>2012-05-06T09:31:06Z</time>
      </trkpt>
      <trkpt lat="43.41668" lon="6.46747">
        <ele>1270.5195313</ele>
        <time>2012-05-06T09:31:09Z</time>
      </trkpt>
      <trkpt lat="43.4168" lon="6.46718">
        <ele>1269.5583496</ele>
        <time>2012-05-06T09:31:14Z</time>
      </trkpt>
      <trkpt lat="43.41709" lon="6.46673">
        <ele>1271.0002441</ele>
        <time>2012-05-06T09:31:26Z</time>
      </trkpt>
      <trkpt lat="43.41718" lon="6.46642">
        <ele>1272.9228516</ele>
        <time>2012-05-06T09:31:38Z</time>
      </trkpt>
      <trkpt lat="43.41724" lon="6.46616">
        <ele>1274.845459</ele>
        <time>2012-05-06T09:31:49Z</time>
      </trkpt>
      <trkpt lat="43.41729" lon="6.4659">
        <ele>1277.2490234</ele>
        <time>2012-05-06T09:32:04Z</time>
      </trkpt>
      <trkpt lat="43.41731" lon="6.46576">
        <ele>1278.2102051</ele>
        <time>2012-05-06T09:32:13Z</time>
      </trkpt>
      <trkpt lat="43.41739" lon="6.46545">
        <ele>1280.1328125</ele>
        <time>2012-05-06T09:32:29Z</time>
      </trkpt>
      <trkpt lat="43.41743" lon="6.46526">
        <ele>1282.0554199</ele>
        <time>2012-05-06T09:32:39Z</time>
      </trkpt>
      <trkpt lat="43.41742" lon="6.46517">
        <ele>1282.5361328</ele>
        <time>2012-05-06T09:32:43Z</time>
      </trkpt>
      <trkpt lat="43.4174" lon="6.46492">
        <ele>1283.0166016</ele>
        <time>2012-05-06T09:32:54Z</time>
      </trkpt>
      <trkpt lat="43.4174" lon="6.46482">
        <ele>1283.4973145</ele>
        <time>2012-05-06T09:32:58Z</time>
      </trkpt>
      <trkpt lat="43.41742" lon="6.46436">
        <ele>1284.4587402</ele>
        <time>2012-05-06T09:33:13Z</time>
      </trkpt>
      <trkpt lat="43.41751" lon="6.46385">
        <ele>1285.4199219</ele>
        <time>2012-05-06T09:33:28Z</time>
      </trkpt>
      <trkpt lat="43.41761" lon="6.46369">
        <ele>1285.9006348</ele>
        <time>2012-05-06T09:33:36Z</time>
      </trkpt>
      <trkpt lat="43.41792" lon="6.46341">
        <ele>1286.3813477</ele>
        <time>2012-05-06T09:33:47Z</time>
      </trkpt>
      <trkpt lat="43.41808" lon="6.46317">
        <ele>1288.3039551</ele>
        <time>2012-05-06T09:34:01Z</time>
      </trkpt>
      <trkpt lat="43.41823" lon="6.46291">
        <ele>1290.7070313</ele>
        <time>2012-05-06T09:34:16Z</time>
      </trkpt>
      <trkpt lat="43.41832" lon="6.46279">
        <ele>1291.668457</ele>
        <time>2012-05-06T09:34:25Z</time>
      </trkpt>
      <trkpt lat="43.41849" lon="6.46258">
        <ele>1293.1105957</ele>
        <time>2012-05-06T09:34:39Z</time>
      </trkpt>
      <trkpt lat="43.41864" lon="6.46221">
        <ele>1294.5524902</ele>
        <time>2012-05-06T09:34:57Z</time>
      </trkpt>
      <trkpt lat="43.41875" lon="6.46191">
        <ele>1295.9946289</ele>
        <time>2012-05-06T09:35:11Z</time>
      </trkpt>
      <trkpt lat="43.41894" lon="6.46171">
        <ele>1297.4365234</ele>
        <time>2012-05-06T09:35:25Z</time>
      </trkpt>
      <trkpt lat="43.41911" lon="6.46148">
        <ele>1298.878418</ele>
        <time>2012-05-06T09:35:39Z</time>
      </trkpt>
      <trkpt lat="43.41921" lon="6.4612">
        <ele>1299.8398438</ele>
        <time>2012-05-06T09:35:51Z</time>
      </trkpt>
      <trkpt lat="43.41936" lon="6.46081">
        <ele>1302.2429199</ele>
        <time>2012-05-06T09:36:07Z</time>
      </trkpt>
      <trkpt lat="43.41952" lon="6.4606">
        <ele>1303.2043457</ele>
        <time>2012-05-06T09:36:20Z</time>
      </trkpt>
      <trkpt lat="43.41967" lon="6.46041">
        <ele>1304.1657715</ele>
        <time>2012-05-06T09:36:33Z</time>
      </trkpt>
      <trkpt lat="43.4197" lon="6.46037">
        <ele>1304.6462402</ele>
        <time>2012-05-06T09:36:36Z</time>
      </trkpt>
      <trkpt lat="43.41974" lon="6.46029">
        <ele>1305.1269531</ele>
        <time>2012-05-06T09:36:41Z</time>
      </trkpt>
      <trkpt lat="43.4198" lon="6.45987">
        <ele>1304.6462402</ele>
        <time>2012-05-06T09:36:56Z</time>
      </trkpt>
      <trkpt lat="43.41968" lon="6.45952">
        <ele>1304.6462402</ele>
        <time>2012-05-06T09:37:09Z</time>
      </trkpt>
      <trkpt lat="43.41971" lon="6.45922">
        <ele>1307.0495605</ele>
        <time>2012-05-06T09:37:22Z</time>
      </trkpt>
      <trkpt lat="43.41987" lon="6.45902">
        <ele>1309.9335938</ele>
        <time>2012-05-06T09:37:36Z</time>
      </trkpt>
      <trkpt lat="43.42004" lon="6.45878">
        <ele>1310.8950195</ele>
        <time>2012-05-06T09:37:52Z</time>
      </trkpt>
      <trkpt lat="43.42019" lon="6.45842">
        <ele>1311.8564453</ele>
        <time>2012-05-06T09:38:09Z</time>
      </trkpt>
      <trkpt lat="43.42026" lon="6.4581">
        <ele>1313.7788086</ele>
        <time>2012-05-06T09:38:23Z</time>
      </trkpt>
      <trkpt lat="43.42034" lon="6.45791">
        <ele>1315.7016602</ele>
        <time>2012-05-06T09:38:34Z</time>
      </trkpt>
      <trkpt lat="43.42042" lon="6.45775">
        <ele>1316.6628418</ele>
        <time>2012-05-06T09:38:45Z</time>
      </trkpt>
      <trkpt lat="43.42056" lon="6.45753">
        <ele>1319.546875</ele>
        <time>2012-05-06T09:39:01Z</time>
      </trkpt>
      <trkpt lat="43.42062" lon="6.45746">
        <ele>1320.0273438</ele>
        <time>2012-05-06T09:39:06Z</time>
      </trkpt>
      <trkpt lat="43.42066" lon="6.45739">
        <ele>1320.5080566</ele>
        <time>2012-05-06T09:39:10Z</time>
      </trkpt>
      <trkpt lat="43.42078" lon="6.45706">
        <ele>1320.9887695</ele>
        <time>2012-05-06T09:39:25Z</time>
      </trkpt>
      <trkpt lat="43.42087" lon="6.45671">
        <ele>1322.4306641</ele>
        <time>2012-05-06T09:39:40Z</time>
      </trkpt>
      <trkpt lat="43.42096" lon="6.45644">
        <ele>1324.3535156</ele>
        <time>2012-05-06T09:39:53Z</time>
      </trkpt>
      <trkpt lat="43.42109" lon="6.45616">
        <ele>1325.3146973</ele>
        <time>2012-05-06T09:40:05Z</time>
      </trkpt>
      <trkpt lat="43.42125" lon="6.45592">
        <ele>1326.276123</ele>
        <time>2012-05-06T09:40:19Z</time>
      </trkpt>
      <trkpt lat="43.42133" lon="6.45561">
        <ele>1328.1987305</ele>
        <time>2012-05-06T09:40:33Z</time>
      </trkpt>
      <trkpt lat="43.42132" lon="6.45527">
        <ele>1329.640625</ele>
        <time>2012-05-06T09:40:46Z</time>
      </trkpt>
      <trkpt lat="43.42131" lon="6.45494">
        <ele>1330.1213379</ele>
        <time>2012-05-06T09:40:59Z</time>
      </trkpt>
      <trkpt lat="43.42126" lon="6.45458">
        <ele>1332.0439453</ele>
        <time>2012-05-06T09:41:13Z</time>
      </trkpt>
      <trkpt lat="43.42124" lon="6.45442">
        <ele>1333.005127</ele>
        <time>2012-05-06T09:41:19Z</time>
      </trkpt>
      <trkpt lat="43.42123" lon="6.45433">
        <ele>1333.005127</ele>
        <time>2012-05-06T09:41:23Z</time>
      </trkpt>
      <trkpt lat="43.42128" lon="6.45421">
        <ele>1333.9665527</ele>
        <time>2012-05-06T09:41:30Z</time>
      </trkpt>
      <trkpt lat="43.42144" lon="6.45424">
        <ele>1335.4084473</ele>
        <time>2012-05-06T09:41:42Z</time>
      </trkpt>
      <trkpt lat="43.4215" lon="6.45428">
        <ele>1336.369873</ele>
        <time>2012-05-06T09:41:57Z</time>
      </trkpt>
      <trkpt lat="43.42157" lon="6.45429">
        <ele>1337.3310547</ele>
        <time>2012-05-06T09:42:05Z</time>
      </trkpt>
      <trkpt lat="43.42172" lon="6.45432">
        <ele>1339.734375</ele>
        <time>2012-05-06T09:42:22Z</time>
      </trkpt>
      <trkpt lat="43.42187" lon="6.45438">
        <ele>1342.1379395</ele>
        <time>2012-05-06T09:42:40Z</time>
      </trkpt>
      <trkpt lat="43.42197" lon="6.45443">
        <ele>1343.0991211</ele>
        <time>2012-05-06T09:42:57Z</time>
      </trkpt>
      <trkpt lat="43.42214" lon="6.45464">
        <ele>1341.1765137</ele>
        <time>2012-05-06T09:43:05Z</time>
      </trkpt>
      <trkpt lat="43.42225" lon="6.45483">
        <ele>1340.6958008</ele>
        <time>2012-05-06T09:43:09Z</time>
      </trkpt>
      <trkpt lat="43.42249" lon="6.45518">
        <ele>1341.6572266</ele>
        <time>2012-05-06T09:43:21Z</time>
      </trkpt>
      <trkpt lat="43.42269" lon="6.45541">
        <ele>1344.0605469</ele>
        <time>2012-05-06T09:43:34Z</time>
      </trkpt>
      <trkpt lat="43.42284" lon="6.45559">
        <ele>1347.4250488</ele>
        <time>2012-05-06T09:43:47Z</time>
      </trkpt>
      <trkpt lat="43.42288" lon="6.45569">
        <ele>1348.8669434</ele>
        <time>2012-05-06T09:43:53Z</time>
      </trkpt>
      <trkpt lat="43.42297" lon="6.45577">
        <ele>1350.7895508</ele>
        <time>2012-05-06T09:44:01Z</time>
      </trkpt>
      <trkpt lat="43.42302" lon="6.45578">
        <ele>1351.7509766</ele>
        <time>2012-05-06T09:44:04Z</time>
      </trkpt>
      <trkpt lat="43.42307" lon="6.45577">
        <ele>1352.7121582</ele>
        <time>2012-05-06T09:44:08Z</time>
      </trkpt>
      <trkpt lat="43.42317" lon="6.45553">
        <ele>1352.7121582</ele>
        <time>2012-05-06T09:44:19Z</time>
      </trkpt>
      <trkpt lat="43.42328" lon="6.45528">
        <ele>1354.1542969</ele>
        <time>2012-05-06T09:44:33Z</time>
      </trkpt>
      <trkpt lat="43.42345" lon="6.4549">
        <ele>1352.2314453</ele>
        <time>2012-05-06T09:44:43Z</time>
      </trkpt>
      <trkpt lat="43.4235" lon="6.45467">
        <ele>1347.4250488</ele>
        <time>2012-05-06T09:44:46Z</time>
      </trkpt>
      <trkpt lat="43.42353" lon="6.45457">
        <ele>1346.4638672</ele>
        <time>2012-05-06T09:44:47Z</time>
      </trkpt>
      <trkpt lat="43.42377" lon="6.45439">
        <ele>1348.3862305</ele>
        <time>2012-05-06T09:44:53Z</time>
      </trkpt>
      <trkpt lat="43.42381" lon="6.45436">
        <ele>1347.9057617</ele>
        <time>2012-05-06T09:44:54Z</time>
      </trkpt>
      <trkpt lat="43.42408" lon="6.45393">
        <ele>1348.3862305</ele>
        <time>2012-05-06T09:45:06Z</time>
      </trkpt>
      <trkpt lat="43.4241" lon="6.45353">
        <ele>1348.3862305</ele>
        <time>2012-05-06T09:45:17Z</time>
      </trkpt>
      <trkpt lat="43.42414" lon="6.45324">
        <ele>1343.0991211</ele>
        <time>2012-05-06T09:45:21Z</time>
      </trkpt>
      <trkpt lat="43.42405" lon="6.45274">
        <ele>1341.1765137</ele>
        <time>2012-05-06T09:45:26Z</time>
      </trkpt>
      <trkpt lat="43.42401" lon="6.45233">
        <ele>1336.8503418</ele>
        <time>2012-05-06T09:45:30Z</time>
      </trkpt>
      <trkpt lat="43.42401" lon="6.45224">
        <ele>1335.8891602</ele>
        <time>2012-05-06T09:45:31Z</time>
      </trkpt>
      <trkpt lat="43.42411" lon="6.45207">
        <ele>1334.4472656</ele>
        <time>2012-05-06T09:45:35Z</time>
      </trkpt>
      <trkpt lat="43.42431" lon="6.45196">
        <ele>1329.640625</ele>
        <time>2012-05-06T09:45:40Z</time>
      </trkpt>
      <trkpt lat="43.42434" lon="6.45189">
        <ele>1328.6794434</ele>
        <time>2012-05-06T09:45:41Z</time>
      </trkpt>
      <trkpt lat="43.4244" lon="6.45172">
        <ele>1327.2375488</ele>
        <time>2012-05-06T09:45:43Z</time>
      </trkpt>
      <trkpt lat="43.42464" lon="6.45134">
        <ele>1323.3920898</ele>
        <time>2012-05-06T09:45:48Z</time>
      </trkpt>
      <trkpt lat="43.42476" lon="6.45117">
        <ele>1321.4692383</ele>
        <time>2012-05-06T09:45:50Z</time>
      </trkpt>
      <trkpt lat="43.42496" lon="6.45067">
        <ele>1319.0661621</ele>
        <time>2012-05-06T09:45:55Z</time>
      </trkpt>
      <trkpt lat="43.42508" lon="6.45036">
        <ele>1315.2209473</ele>
        <time>2012-05-06T09:45:58Z</time>
      </trkpt>
      <trkpt lat="43.42508" lon="6.45002">
        <ele>1313.7788086</ele>
        <time>2012-05-06T09:46:02Z</time>
      </trkpt>
      <trkpt lat="43.42509" lon="6.44973">
        <ele>1310.8950195</ele>
        <time>2012-05-06T09:46:05Z</time>
      </trkpt>
      <trkpt lat="43.42519" lon="6.44926">
        <ele>1306.0881348</ele>
        <time>2012-05-06T09:46:09Z</time>
      </trkpt>
      <trkpt lat="43.42527" lon="6.44902">
        <ele>1303.6850586</ele>
        <time>2012-05-06T09:46:11Z</time>
      </trkpt>
      <trkpt lat="43.42542" lon="6.44873">
        <ele>1303.2043457</ele>
        <time>2012-05-06T09:46:14Z</time>
      </trkpt>
      <trkpt lat="43.4256" lon="6.44854">
        <ele>1304.6462402</ele>
        <time>2012-05-06T09:46:18Z</time>
      </trkpt>
      <trkpt lat="43.42594" lon="6.44809">
        <ele>1300.8010254</ele>
        <time>2012-05-06T09:46:26Z</time>
      </trkpt>
      <trkpt lat="43.42621" lon="6.4476">
        <ele>1297.4365234</ele>
        <time>2012-05-06T09:46:32Z</time>
      </trkpt>
      <trkpt lat="43.42635" lon="6.44733">
        <ele>1295.9946289</ele>
        <time>2012-05-06T09:46:35Z</time>
      </trkpt>
      <trkpt lat="43.42639" lon="6.44724">
        <ele>1295.513916</ele>
        <time>2012-05-06T09:46:36Z</time>
      </trkpt>
      <trkpt lat="43.42646" lon="6.44683">
        <ele>1294.5524902</ele>
        <time>2012-05-06T09:46:40Z</time>
      </trkpt>
      <trkpt lat="43.42691" lon="6.44569">
        <ele>1291.668457</ele>
        <time>2012-05-06T09:46:52Z</time>
      </trkpt>
      <trkpt lat="43.42693" lon="6.44547">
        <ele>1291.1877441</ele>
        <time>2012-05-06T09:46:57Z</time>
      </trkpt>
      <trkpt lat="43.4268" lon="6.44539">
        <ele>1291.1877441</ele>
        <time>2012-05-06T09:47:05Z</time>
      </trkpt>
      <trkpt lat="43.42672" lon="6.44538">
        <ele>1291.1877441</ele>
        <time>2012-05-06T09:47:09Z</time>
      </trkpt>
      <trkpt lat="43.42669" lon="6.44534">
        <ele>1291.1877441</ele>
        <time>2012-05-06T09:47:24Z</time>
      </trkpt>
      <trkpt lat="43.42669" lon="6.44534">
        <ele>1291.1877441</ele>
        <time>2012-05-06T09:47:28Z</time>
      </trkpt>
    </trkseg>
  </trk>
</gpx>